Darstellungsparameter: Aktuell verwendete Einstellungen:
Skalierung der Graphiken ... ?
xyx+y,   Skalierungsfaktor:      Skalierung: Modus: x, Faktor: 1
Darstellungszeitraum ... ?
Vom - - bis: - -   Zeitraum: 16.04.2010 - 15.04.2020
Min/Max/Avg-Anzeige ... ?
Zeige MMA aktuell
Zeige MMA Monat
Zeige MMA alles
Zeige --A aktuell
Zeige --A Monat
Zeige --A alles
Keine MMA-Anzeige
MMA:
Average (ber die Originaldaten)
MMA-Basis: 16.04.2010 - 15.04.2020
Quicknavigation für Darstellung... ?
Tage:      1T, 2T, 3T, 5T -1T -2T -3T -5T +1T +2T +3T +5T
Wochen: 1W, 2W, 3W -1W -2W -3W +1W +2W +3W
Monate: 1M, 3M, 6M -1M -3M -6M +1M +3M +6M
Jahre:    1J, 3J, 5J, 10J -1J -3J -5J -10J +1J +3J +5J +10J
Nutze für die Darstellung ... ?
Originaldaten oder ...
Mittelwerte Minima Maxima auf...
Stundenbasis Tagesbasis Wochenbasis
Monatsbasis Jahresbasis      Datenbasis: Mittelwerte auf Stundenbasis
Darstellen als:
Statistik (Auto) Statistik J:M      Darstellung:
Zur Graphik,    zurück zur Übersicht aller Sensoren.
 
Tabellarische Datenbersicht: ?
 
Sensor: Nr:Datum:Temp:Abs-Feuchte:Windchill:Wind:
Aussen-T/F 1 16-04-2010 00:00:00 10.98 C 3.98 g/m*3 10.98 C 0 km/h
2 16-04-2010 01:00:00 10.12 C 4.05 g/m*3 10.12 C 0 km/h
3 16-04-2010 02:00:00 8.68 C 4.23 g/m*3 8.68 C 0 km/h
4 16-04-2010 03:00:00 7.56 C 4.34 g/m*3 7.56 C 0 km/h
5 16-04-2010 04:00:00 7.42 C 4.3 g/m*3 7.42 C 0 km/h
6 16-04-2010 05:00:00 6.88 C 4.24 g/m*3 6.88 C 0 km/h
7 16-04-2010 06:00:00 6.08 C 4.45 g/m*3 6.08 C 0 km/h
8 16-04-2010 07:00:00 5.88 C 4.87 g/m*3 5.88 C 0 km/h
9 16-04-2010 08:00:00 6 C 5.02 g/m*3 6 C 0 km/h
10 16-04-2010 09:00:00 6.32 C 5.05 g/m*3 6.32 C 0 km/h
11 16-04-2010 10:00:00 6.88 C 4.98 g/m*3 6.88 C 0 km/h
12 16-04-2010 11:00:00 7.38 C 4.75 g/m*3 7.38 C 0 km/h
13 16-04-2010 12:00:00 8.94 C 4.51 g/m*3 8.94 C 0 km/h
14 16-04-2010 13:00:00 10.7 C 4.22 g/m*3 10.7 C 0 km/h
15 16-04-2010 14:00:00 13.52 C 3.72 g/m*3 13.52 C 0 km/h
16 16-04-2010 15:00:00 14.7 C 3.53 g/m*3 14.7 C 0 km/h
17 16-04-2010 16:00:00 14.6 C 3.38 g/m*3 14.6 C 0 km/h
18 16-04-2010 17:00:00 15.08 C 3.32 g/m*3 15.08 C 0 km/h
19 16-04-2010 18:00:00 14.9 C 3.26 g/m*3 14.9 C 0 km/h
20 16-04-2010 19:00:00 13.58 C 3.34 g/m*3 13.58 C 0 km/h
21 16-04-2010 20:00:00 11.3 C 3.61 g/m*3 11.3 C 0 km/h
22 16-04-2010 21:00:00 9.64 C 3.88 g/m*3 9.64 C 0 km/h
23 16-04-2010 22:00:00 8.5 C 4.01 g/m*3 8.5 C 0 km/h
24 16-04-2010 23:00:00 7.54 C 4.14 g/m*3 7.54 C 0 km/h
25 17-04-2010 00:00:00 6.56 C 4.23 g/m*3 6.56 C 0 km/h
Sensor: Nr:Datum:Temp:Abs-Feuchte:Windchill:Wind:
Aussen-T/F 26 17-04-2010 01:00:00 5.72 C 4.28 g/m*3 5.72 C 0 km/h
27 17-04-2010 02:00:00 4.9 C 4.29 g/m*3 4.9 C 0 km/h
28 17-04-2010 03:00:00 4.02 C 4.25 g/m*3 4.02 C 0 km/h
29 17-04-2010 04:00:00 3.2 C 4.31 g/m*3 3.2 C 0 km/h
30 17-04-2010 05:00:00 2.36 C 4.28 g/m*3 2.36 C 0 km/h
31 17-04-2010 06:00:00 1.74 C 4.26 g/m*3 1.74 C 0 km/h
32 17-04-2010 07:00:00 1.58 C 4.29 g/m*3 1.58 C 0 km/h
33 17-04-2010 08:00:00 2.46 C 4.57 g/m*3 2.46 C 0 km/h
34 17-04-2010 09:00:00 4.42 C 4.85 g/m*3 4.42 C 0 km/h
35 17-04-2010 10:00:00 7.58 C 4.38 g/m*3 7.58 C 0 km/h
36 17-04-2010 11:00:00 10.18 C 3.48 g/m*3 10.18 C 0 km/h
37 17-04-2010 12:00:00 12.2 C 3 g/m*3 12.2 C 0 km/h
38 17-04-2010 13:00:00 14.6 C 2.5 g/m*3 14.6 C 0 km/h
39 17-04-2010 14:00:00 17.76 C 3.03 g/m*3 17.76 C 0 km/h
40 17-04-2010 15:00:00 21.18 C 3.7 g/m*3 21.18 C 0 km/h
41 17-04-2010 16:00:00 22.18 C 3.92 g/m*3 22.18 C 0 km/h
42 17-04-2010 17:00:00 23.96 C 4.34 g/m*3 23.96 C 0 km/h
43 17-04-2010 18:00:00 24.42 C 4.46 g/m*3 24.42 C 0 km/h
44 17-04-2010 19:00:00 23.02 C 4.12 g/m*3 23.02 C 0 km/h
45 17-04-2010 20:00:00 17.44 C 3 g/m*3 17.44 C 0 km/h
46 17-04-2010 21:00:00 13.56 C 3.15 g/m*3 13.56 C 0 km/h
47 17-04-2010 22:00:00 11.8 C 3.3 g/m*3 11.8 C 0 km/h
48 17-04-2010 23:00:00 10.1 C 3.61 g/m*3 10.1 C 0 km/h
49 18-04-2010 00:00:00 8.82 C 3.61 g/m*3 8.82 C 0 km/h
50 18-04-2010 01:00:00 7.54 C 3.8 g/m*3 7.54 C 0 km/h
Sensor: Nr:Datum:Temp:Abs-Feuchte:Windchill:Wind:
Aussen-T/F 51 18-04-2010 02:00:00 6.54 C 3.83 g/m*3 6.54 C 0 km/h
52 18-04-2010 03:00:00 5.42 C 3.94 g/m*3 5.42 C 0 km/h
53 18-04-2010 04:00:00 4.56 C 4.04 g/m*3 4.56 C 0 km/h
54 18-04-2010 05:00:00 3.7 C 4.08 g/m*3 3.7 C 0 km/h
55 18-04-2010 06:00:00 3.02 C 4.07 g/m*3 3.02 C 0 km/h
56 18-04-2010 07:00:00 2.66 C 4.18 g/m*3 2.66 C 0 km/h
57 18-04-2010 08:00:00 3.7 C 4.31 g/m*3 3.7 C 0 km/h
58 18-04-2010 09:00:00 5.78 C 4.45 g/m*3 5.78 C 0 km/h
59 18-04-2010 10:00:00 9.2 C 4.3 g/m*3 9.2 C 0 km/h
60 18-04-2010 11:00:00 13.26 C 4.36 g/m*3 13.26 C 0 km/h
61 18-04-2010 12:00:00 16.48 C 3.59 g/m*3 16.48 C 0 km/h
62 18-04-2010 13:00:00 19.26 C 3.31 g/m*3 19.26 C 0 km/h
63 18-04-2010 14:00:00 21.6 C 3.79 g/m*3 21.6 C 0 km/h
64 18-04-2010 15:00:00 23.28 C 4.18 g/m*3 23.28 C 0 km/h
65 18-04-2010 16:00:00 24.42 C 4.46 g/m*3 24.42 C 0 km/h
66 18-04-2010 17:00:00 25.76 C 4.8 g/m*3 25.76 C 0 km/h
67 18-04-2010 18:00:00 25.42 C 4.71 g/m*3 25.42 C 0 km/h
68 18-04-2010 19:00:00 24 C 4.35 g/m*3 24 C 0 km/h
69 18-04-2010 20:00:00 19.32 C 3.32 g/m*3 19.32 C 0 km/h
70 18-04-2010 21:00:00 17.12 C 2.91 g/m*3 17.12 C 0 km/h
71 18-04-2010 22:00:00 14.96 C 2.92 g/m*3 14.96 C 0 km/h
72 18-04-2010 23:00:00 12.88 C 3.4 g/m*3 12.88 C 0 km/h
73 19-04-2010 00:00:00 11.06 C 4.08 g/m*3 11.06 C 0 km/h
74 19-04-2010 01:00:00 10.2 C 3.88 g/m*3 10.2 C 0 km/h
75 19-04-2010 02:00:00 8.88 C 4.08 g/m*3 8.88 C 0 km/h
Sensor: Nr:Datum:Temp:Abs-Feuchte:Windchill:Wind:
Aussen-T/F 76 19-04-2010 03:00:00 7.94 C 4.23 g/m*3 7.94 C 0 km/h
77 19-04-2010 04:00:00 7.02 C 4.34 g/m*3 7.02 C 0 km/h
78 19-04-2010 05:00:00 6.26 C 4.53 g/m*3 6.26 C 0 km/h
79 19-04-2010 06:00:00 5.28 C 4.58 g/m*3 5.28 C 0 km/h
80 19-04-2010 07:00:00 5.06 C 4.71 g/m*3 5.06 C 0 km/h
81 19-04-2010 08:00:00 6.4 C 4.92 g/m*3 6.4 C 0 km/h
82 19-04-2010 09:00:00 9.08 C 5.8 g/m*3 9.08 C 0 km/h
83 19-04-2010 10:00:00 10.72 C 5.72 g/m*3 10.72 C 0 km/h
84 19-04-2010 11:00:00 12.38 C 5.72 g/m*3 12.38 C 0 km/h
85 19-04-2010 12:00:00 13.42 C 5.61 g/m*3 13.42 C 0 km/h
86 19-04-2010 13:00:00 14 C 5.5 g/m*3 14 C 0 km/h
87 19-04-2010 14:00:00 15.6 C 5.4 g/m*3 15.6 C 0 km/h
88 19-04-2010 15:00:00 15.78 C 5.19 g/m*3 15.78 C 0 km/h
89 19-04-2010 16:00:00 16.2 C 5.21 g/m*3 16.2 C 0 km/h
90 19-04-2010 17:00:00 16.64 C 5.15 g/m*3 16.64 C 0 km/h
91 19-04-2010 18:00:00 16.26 C 4.87 g/m*3 16.26 C 0 km/h
92 19-04-2010 19:00:00 15.16 C 5.1 g/m*3 15.16 C 0 km/h
93 19-04-2010 20:00:00 13.02 C 5.38 g/m*3 13.02 C 0 km/h
94 19-04-2010 21:00:00 11.68 C 5.47 g/m*3 11.68 C 0 km/h
95 19-04-2010 22:00:00 10.62 C 5.61 g/m*3 10.62 C 0 km/h
96 19-04-2010 23:00:00 9.74 C 5.6 g/m*3 9.74 C 0 km/h
97 20-04-2010 00:00:00 8.64 C 5.46 g/m*3 8.64 C 0 km/h
98 20-04-2010 01:00:00 7.82 C 5.38 g/m*3 7.82 C 0 km/h
99 20-04-2010 02:00:00 6.7 C 5.49 g/m*3 6.7 C 0 km/h
100 20-04-2010 03:00:00 5.84 C 5.49 g/m*3 5.84 C 0 km/h
Sensor: Nr:Datum:Temp:Abs-Feuchte:Windchill:Wind:
Aussen-T/F 101 20-04-2010 04:00:00 5.02 C 5.44 g/m*3 5.02 C 0 km/h
102 20-04-2010 05:00:00 4.36 C 5.33 g/m*3 4.36 C 0 km/h
103 20-04-2010 06:00:00 3.68 C 5.25 g/m*3 3.68 C 0 km/h
104 20-04-2010 07:00:00 3.46 C 5.25 g/m*3 3.46 C 0 km/h
105 20-04-2010 08:00:00 3.78 C 5.48 g/m*3 3.78 C 0 km/h
106 20-04-2010 09:00:00 5.48 C 5.93 g/m*3 5.48 C 0 km/h
107 20-04-2010 10:00:00 9.14 C 6.03 g/m*3 9.14 C 0 km/h
108 20-04-2010 11:00:00 12.88 C 5.47 g/m*3 12.88 C 0 km/h
109 20-04-2010 12:00:00 16.16 C 4.43 g/m*3 16.16 C 0 km/h
110 20-04-2010 13:00:00 18.52 C 3.17 g/m*3 18.52 C 0 km/h
111 20-04-2010 14:00:00 19.2 C 3.3 g/m*3 19.2 C 0 km/h
112 20-04-2010 15:00:00 20.82 C 3.63 g/m*3 20.82 C 0 km/h
113 20-04-2010 16:00:00 21.24 C 3.72 g/m*3 21.24 C 0 km/h
114 20-04-2010 17:00:00 19.06 C 3.73 g/m*3 19.06 C 0 km/h
115 20-04-2010 18:00:00 17.4 C 4.03 g/m*3 17.4 C 0 km/h
116 20-04-2010 19:00:00 15.46 C 4.01 g/m*3 15.46 C 0 km/h
117 20-04-2010 20:00:00 12.88 C 3.2 g/m*3 12.88 C 0 km/h
118 20-04-2010 21:00:00 11.1 C 2.76 g/m*3 11.1 C 0 km/h
119 20-04-2010 22:00:00 9.86 C 3.05 g/m*3 9.86 C 0 km/h
120 20-04-2010 23:00:00 8.82 C 3.19 g/m*3 8.82 C 0 km/h
121 21-04-2010 00:00:00 7.86 C 3.49 g/m*3 7.86 C 0 km/h
122 21-04-2010 01:00:00 6.88 C 3.64 g/m*3 6.88 C 0 km/h
123 21-04-2010 02:00:00 5.82 C 3.8 g/m*3 5.82 C 0 km/h
124 21-04-2010 03:00:00 4.66 C 4 g/m*3 4.66 C 0 km/h
125 21-04-2010 04:00:00 3.88 C 4.02 g/m*3 3.88 C 0 km/h
Sensor: Nr:Datum:Temp:Abs-Feuchte:Windchill:Wind:
Aussen-T/F 126 21-04-2010 05:00:00 2.84 C 4.06 g/m*3 2.84 C 0 km/h
127 21-04-2010 06:00:00 2.4 C 4.08 g/m*3 2.4 C 0 km/h
128 21-04-2010 07:00:00 2.94 C 4.1 g/m*3 2.94 C 0 km/h
129 21-04-2010 08:00:00 4.26 C 4.06 g/m*3 4.26 C 0 km/h
130 21-04-2010 09:00:00 5.34 C 4.14 g/m*3 5.34 C 0 km/h
131 21-04-2010 10:00:00 7.02 C 4.16 g/m*3 7.02 C 0 km/h
132 21-04-2010 11:00:00 6.86 C 4.88 g/m*3 6.86 C 0 km/h
133 21-04-2010 12:00:00 6.98 C 5.35 g/m*3 6.98 C 0 km/h
134 21-04-2010 13:00:00 9.54 C 4.53 g/m*3 9.54 C 0 km/h
135 21-04-2010 14:00:00 10.64 C 3.8 g/m*3 10.64 C 0 km/h
136 21-04-2010 15:00:00 11.9 C 3.18 g/m*3 11.9 C 0 km/h
137 21-04-2010 16:00:00 12.7 C 3.01 g/m*3 12.7 C 0 km/h
138 21-04-2010 17:00:00 12.3 C 2.78 g/m*3 12.3 C 0 km/h
139 21-04-2010 18:00:00 12.36 C 2.53 g/m*3 12.36 C 0 km/h
140 21-04-2010 19:00:00 11.26 C 2.36 g/m*3 11.26 C 0 km/h
141 21-04-2010 20:00:00 9.22 C 2.7 g/m*3 9.22 C 0 km/h
142 21-04-2010 21:00:00 7.28 C 3.01 g/m*3 7.28 C 0 km/h
143 21-04-2010 22:00:00 6.28 C 3.12 g/m*3 6.28 C 0 km/h
144 21-04-2010 23:00:00 5.04 C 3.39 g/m*3 5.04 C 0 km/h
145 22-04-2010 00:00:00 3.86 C 3.5 g/m*3 3.86 C 0 km/h
146 22-04-2010 01:00:00 2.92 C 3.64 g/m*3 2.92 C 0 km/h
147 22-04-2010 02:00:00 2.04 C 3.74 g/m*3 2.04 C 0 km/h
148 22-04-2010 03:00:00 1.28 C 3.74 g/m*3 1.28 C 0 km/h
149 22-04-2010 04:00:00 0.8 C 3.81 g/m*3 0.8 C 0 km/h
150 22-04-2010 05:00:00 0.3 C 3.77 g/m*3 0.3 C 0 km/h
Sensor: Nr:Datum:Temp:Abs-Feuchte:Windchill:Wind:
Aussen-T/F 151 22-04-2010 06:00:00 -0.16 C 3.76 g/m*3 -0.16 C 0 km/h
152 22-04-2010 07:00:00 0 C 3.91 g/m*3 0 C 0 km/h
153 22-04-2010 08:00:00 0.72 C 4.01 g/m*3 0.72 C 0 km/h
154 22-04-2010 09:00:00 2.94 C 4.1 g/m*3 2.94 C 0 km/h
155 22-04-2010 10:00:00 6.28 C 3.7 g/m*3 6.28 C 0 km/h
156 22-04-2010 11:00:00 9.12 C 3.02 g/m*3 9.12 C 0 km/h
157 22-04-2010 12:00:00 10.76 C 2.86 g/m*3 10.76 C 0 km/h
158 22-04-2010 13:00:00 12.76 C 2.35 g/m*3 12.76 C 0 km/h
159 22-04-2010 14:00:00 15.3 C 2.61 g/m*3 15.3 C 0 km/h
160 22-04-2010 15:00:00 16.38 C 2.79 g/m*3 16.38 C 0 km/h
161 22-04-2010 16:00:00 17.88 C 3.05 g/m*3 17.88 C 0 km/h
162 22-04-2010 17:00:00 20.28 C 3.51 g/m*3 20.28 C 0 km/h
163 22-04-2010 18:00:00 18.64 C 3.19 g/m*3 18.64 C 0 km/h
164 22-04-2010 19:00:00 16.78 C 2.86 g/m*3 16.78 C 0 km/h
165 22-04-2010 20:00:00 13.42 C 2.33 g/m*3 13.42 C 0 km/h
166 22-04-2010 21:00:00 10.78 C 2.65 g/m*3 10.78 C 0 km/h
167 22-04-2010 22:00:00 9.28 C 2.8 g/m*3 9.28 C 0 km/h
168 22-04-2010 23:00:00 8.12 C 3.18 g/m*3 8.12 C 0 km/h
169 23-04-2010 00:00:00 6.78 C 3.38 g/m*3 6.78 C 0 km/h
170 23-04-2010 01:00:00 5.6 C 3.49 g/m*3 5.6 C 0 km/h
171 23-04-2010 02:00:00 4.58 C 3.57 g/m*3 4.58 C 0 km/h
172 23-04-2010 03:00:00 3.52 C 3.73 g/m*3 3.52 C 0 km/h
173 23-04-2010 04:00:00 2.66 C 3.74 g/m*3 2.66 C 0 km/h
174 23-04-2010 05:00:00 1.9 C 3.71 g/m*3 1.9 C 0 km/h
175 23-04-2010 06:00:00 1.36 C 3.8 g/m*3 1.36 C 0 km/h
Sensor: Nr:Datum:Temp:Abs-Feuchte:Windchill:Wind:
Aussen-T/F 176 23-04-2010 07:00:00 1.5 C 3.89 g/m*3 1.5 C 0 km/h
177 23-04-2010 08:00:00 2.6 C 4.06 g/m*3 2.6 C 0 km/h
178 23-04-2010 09:00:00 5.32 C 4.16 g/m*3 5.32 C 0 km/h
179 23-04-2010 10:00:00 8.94 C 3.95 g/m*3 8.94 C 0 km/h
180 23-04-2010 11:00:00 12.32 C 3.63 g/m*3 12.32 C 0 km/h
181 23-04-2010 12:00:00 14.88 C 2.67 g/m*3 14.88 C 0 km/h
182 23-04-2010 13:00:00 17.18 C 2.93 g/m*3 17.18 C 0 km/h
183 23-04-2010 14:00:00 19.3 C 3.32 g/m*3 19.3 C 0 km/h
184 23-04-2010 15:00:00 22.26 C 3.94 g/m*3 22.26 C 0 km/h
185 23-04-2010 16:00:00 22.98 C 4.11 g/m*3 22.98 C 0 km/h
186 23-04-2010 17:00:00 23.48 C 4.22 g/m*3 23.48 C 0 km/h
187 23-04-2010 18:00:00 22.72 C 4.05 g/m*3 22.72 C 0 km/h
188 23-04-2010 19:00:00 20.32 C 3.52 g/m*3 20.32 C 0 km/h
189 23-04-2010 20:00:00 17 C 2.89 g/m*3 17 C 0 km/h
190 23-04-2010 21:00:00 14.12 C 2.5 g/m*3 14.12 C 0 km/h
191 23-04-2010 22:00:00 12.6 C 2.9 g/m*3 12.6 C 0 km/h
192 23-04-2010 23:00:00 10.86 C 3.37 g/m*3 10.86 C 0 km/h
193 24-04-2010 00:00:00 9.5 C 3.51 g/m*3 9.5 C 0 km/h
194 24-04-2010 01:00:00 8.3 C 3.56 g/m*3 8.3 C 0 km/h
195 24-04-2010 02:00:00 7.1 C 3.62 g/m*3 7.1 C 0 km/h
196 24-04-2010 03:00:00 6.2 C 3.65 g/m*3 6.2 C 0 km/h
197 24-04-2010 04:00:00 5.18 C 3.74 g/m*3 5.18 C 0 km/h
198 24-04-2010 05:00:00 4.32 C 3.85 g/m*3 4.32 C 0 km/h
199 24-04-2010 06:00:00 3.64 C 3.94 g/m*3 3.64 C 0 km/h
200 24-04-2010 07:00:00 3.78 C 4.03 g/m*3 3.78 C 0 km/h
Sensor: Nr:Datum:Temp:Abs-Feuchte:Windchill:Wind:
Aussen-T/F 201 24-04-2010 08:00:00 4.84 C 4.11 g/m*3 4.84 C 0 km/h
202 24-04-2010 09:00:00 7.68 C 4.23 g/m*3 7.68 C 0 km/h
203 24-04-2010 10:00:00 11.4 C 4.19 g/m*3 11.4 C 0 km/h
204 24-04-2010 11:00:00 15.24 C 3.9 g/m*3 15.24 C 0 km/h
205 24-04-2010 12:00:00 18.86 C 3.49 g/m*3 18.86 C 0 km/h
206 24-04-2010 13:00:00 21.98 C 3.88 g/m*3 21.98 C 0 km/h
207 24-04-2010 14:00:00 23.92 C 4.33 g/m*3 23.92 C 0 km/h
208 24-04-2010 15:00:00 25.62 C 4.77 g/m*3 25.62 C 0 km/h
209 24-04-2010 16:00:00 28.06 C 5.46 g/m*3 28.06 C 0 km/h
210 24-04-2010 17:00:00 28.46 C 5.58 g/m*3 28.46 C 0 km/h
211 24-04-2010 18:00:00 27.8 C 5.38 g/m*3 27.8 C 0 km/h
212 24-04-2010 19:00:00 26.32 C 4.96 g/m*3 26.32 C 0 km/h
213 24-04-2010 20:00:00 21.52 C 3.78 g/m*3 21.52 C 0 km/h
214 24-04-2010 21:00:00 17.98 C 3.07 g/m*3 17.98 C 0 km/h
215 24-04-2010 22:00:00 16.08 C 3.15 g/m*3 16.08 C 0 km/h
216 24-04-2010 23:00:00 14.1 C 3.74 g/m*3 14.1 C 0 km/h
217 25-04-2010 00:00:00 12.58 C 4 g/m*3 12.58 C 0 km/h
218 25-04-2010 01:00:00 11.2 C 4.26 g/m*3 11.2 C 0 km/h
219 25-04-2010 02:00:00 10.12 C 4.26 g/m*3 10.12 C 0 km/h
220 25-04-2010 03:00:00 8.92 C 4.3 g/m*3 8.92 C 0 km/h
221 25-04-2010 04:00:00 7.82 C 4.53 g/m*3 7.82 C 0 km/h
222 25-04-2010 05:00:00 7.04 C 4.51 g/m*3 7.04 C 0 km/h
223 25-04-2010 06:00:00 6.26 C 4.61 g/m*3 6.26 C 0 km/h
224 25-04-2010 07:00:00 6.46 C 4.79 g/m*3 6.46 C 0 km/h
225 25-04-2010 08:00:00 7.72 C 4.94 g/m*3 7.72 C 0 km/h
Sensor: Nr:Datum:Temp:Abs-Feuchte:Windchill:Wind:
Aussen-T/F 226 25-04-2010 09:00:00 10.5 C 5.04 g/m*3 10.5 C 0 km/h
227 25-04-2010 10:00:00 15.68 C 5.35 g/m*3 15.68 C 0 km/h
228 25-04-2010 11:00:00 20.46 C 4.19 g/m*3 20.46 C 0 km/h
229 25-04-2010 12:00:00 22.8 C 4.06 g/m*3 22.8 C 0 km/h
230 25-04-2010 13:00:00 24.92 C 4.58 g/m*3 24.92 C 0 km/h
231 25-04-2010 14:00:00 26.54 C 5.02 g/m*3 26.54 C 0 km/h
232 25-04-2010 15:00:00 28.24 C 5.51 g/m*3 28.24 C 0 km/h
233 25-04-2010 16:00:00 29.24 C 5.82 g/m*3 29.24 C 0 km/h
234 25-04-2010 17:00:00 27 C 5.15 g/m*3 27 C 0 km/h
235 25-04-2010 18:00:00 25.96 C 4.86 g/m*3 25.96 C 0 km/h
236 25-04-2010 19:00:00 23.9 C 4.33 g/m*3 23.9 C 0 km/h
237 25-04-2010 20:00:00 21.12 C 4.06 g/m*3 21.12 C 0 km/h
238 25-04-2010 21:00:00 19.36 C 4.49 g/m*3 19.36 C 0 km/h
239 25-04-2010 22:00:00 18.56 C 4.92 g/m*3 18.56 C 0 km/h
240 25-04-2010 23:00:00 18.18 C 5.78 g/m*3 18.18 C 0 km/h
241 26-04-2010 00:00:00 17.1 C 5.97 g/m*3 17.1 C 0 km/h
242 26-04-2010 01:00:00 16.22 C 5.99 g/m*3 16.22 C 0 km/h
243 26-04-2010 02:00:00 13.22 C 8.65 g/m*3 13.22 C 0 km/h
244 26-04-2010 03:00:00 12.64 C 9.03 g/m*3 12.64 C 0 km/h
245 26-04-2010 04:00:00 12.26 C 8.56 g/m*3 12.26 C 0 km/h
246 26-04-2010 05:00:00 11.54 C 8.41 g/m*3 11.54 C 0 km/h
247 26-04-2010 06:00:00 10.86 C 8.25 g/m*3 10.86 C 0 km/h
248 26-04-2010 07:00:00 10.94 C 8.24 g/m*3 10.94 C 0 km/h
249 26-04-2010 08:00:00 11.96 C 8.27 g/m*3 11.96 C 0 km/h
250 26-04-2010 09:00:00 12.96 C 7.17 g/m*3 12.96 C 0 km/h
Sensor: Nr:Datum:Temp:Abs-Feuchte:Windchill:Wind:
Aussen-T/F 251 26-04-2010 10:00:00 14.62 C 6.99 g/m*3 14.62 C 0 km/h
252 26-04-2010 11:00:00 15.92 C 6.62 g/m*3 15.92 C 0 km/h
253 26-04-2010 12:00:00 17.54 C 6.49 g/m*3 17.54 C 0 km/h
254 26-04-2010 13:00:00 19 C 6.32 g/m*3 19 C 0 km/h
255 26-04-2010 14:00:00 19.46 C 6.26 g/m*3 19.46 C 0 km/h
256 26-04-2010 15:00:00 19.18 C 5.83 g/m*3 19.18 C 0 km/h
257 26-04-2010 16:00:00 19.68 C 5.39 g/m*3 19.68 C 0 km/h
258 26-04-2010 17:00:00 20.88 C 5.2 g/m*3 20.88 C 0 km/h
259 26-04-2010 18:00:00 19.38 C 5.5 g/m*3 19.38 C 0 km/h
260 26-04-2010 19:00:00 18.64 C 5.52 g/m*3 18.64 C 0 km/h
261 26-04-2010 20:00:00 17.38 C 5.57 g/m*3 17.38 C 0 km/h
262 26-04-2010 21:00:00 15.86 C 5.54 g/m*3 15.86 C 0 km/h
263 26-04-2010 22:00:00 15.4 C 5.72 g/m*3 15.4 C 0 km/h
264 26-04-2010 23:00:00 14.64 C 5.92 g/m*3 14.64 C 0 km/h
265 27-04-2010 00:00:00 13.7 C 6.11 g/m*3 13.7 C 0 km/h
266 27-04-2010 01:00:00 13.3 C 6.24 g/m*3 13.3 C 0 km/h
267 27-04-2010 02:00:00 12.6 C 6.44 g/m*3 12.6 C 0 km/h
268 27-04-2010 03:00:00 11.26 C 6.53 g/m*3 11.26 C 0 km/h
269 27-04-2010 04:00:00 10.32 C 6.54 g/m*3 10.32 C 0 km/h
270 27-04-2010 05:00:00 9.18 C 6.56 g/m*3 9.18 C 0 km/h
271 27-04-2010 06:00:00 8.32 C 6.62 g/m*3 8.32 C 0 km/h
272 27-04-2010 07:00:00 8.2 C 6.78 g/m*3 8.2 C 0 km/h
273 27-04-2010 08:00:00 9.12 C 6.91 g/m*3 9.12 C 0 km/h
274 27-04-2010 09:00:00 11.2 C 7.16 g/m*3 11.2 C 0 km/h
275 27-04-2010 10:00:00 13.8 C 6.84 g/m*3 13.8 C 0 km/h
Sensor: Nr:Datum:Temp:Abs-Feuchte:Windchill:Wind:
Aussen-T/F 276 27-04-2010 11:00:00 16.06 C 6.54 g/m*3 16.06 C 0 km/h
277 27-04-2010 12:00:00 18.52 C 6.24 g/m*3 18.52 C 0 km/h
278 27-04-2010 13:00:00 20.34 C 5.54 g/m*3 20.34 C 0 km/h
279 27-04-2010 14:00:00 21.42 C 4.92 g/m*3 21.42 C 0 km/h
280 27-04-2010 15:00:00 22.62 C 4.63 g/m*3 22.62 C 0 km/h
281 27-04-2010 16:00:00 23.2 C 4.28 g/m*3 23.2 C 0 km/h
282 27-04-2010 17:00:00 23.56 C 4.29 g/m*3 23.56 C 0 km/h
283 27-04-2010 18:00:00 23.22 C 4.16 g/m*3 23.22 C 0 km/h
284 27-04-2010 19:00:00 20.68 C 4.21 g/m*3 20.68 C 0 km/h
285 27-04-2010 20:00:00 18.34 C 5.05 g/m*3 18.34 C 0 km/h
286 27-04-2010 21:00:00 15.6 C 5.03 g/m*3 15.6 C 0 km/h
287 27-04-2010 22:00:00 14.44 C 5.18 g/m*3 14.44 C 0 km/h
288 27-04-2010 23:00:00 13.1 C 5.36 g/m*3 13.1 C 0 km/h
289 28-04-2010 00:00:00 12.18 C 5.52 g/m*3 12.18 C 0 km/h
290 28-04-2010 01:00:00 11.18 C 5.73 g/m*3 11.18 C 0 km/h
291 28-04-2010 02:00:00 10.48 C 5.77 g/m*3 10.48 C 0 km/h
292 28-04-2010 03:00:00 9.64 C 5.8 g/m*3 9.64 C 0 km/h
293 28-04-2010 04:00:00 8.7 C 5.93 g/m*3 8.7 C 0 km/h
294 28-04-2010 05:00:00 7.86 C 5.88 g/m*3 7.86 C 0 km/h
295 28-04-2010 06:00:00 7.24 C 5.81 g/m*3 7.24 C 0 km/h
296 28-04-2010 07:00:00 7.44 C 6.01 g/m*3 7.44 C 0 km/h
297 28-04-2010 08:00:00 8.3 C 6.14 g/m*3 8.3 C 0 km/h
298 28-04-2010 09:00:00 10.46 C 6.35 g/m*3 10.46 C 0 km/h
299 28-04-2010 10:00:00 13.96 C 6.38 g/m*3 13.96 C 0 km/h
300 28-04-2010 11:00:00 17.76 C 5.91 g/m*3 17.76 C 0 km/h
Sensor: Nr:Datum:Temp:Abs-Feuchte:Windchill:Wind:
Aussen-T/F 301 28-04-2010 12:00:00 20.1 C 4.62 g/m*3 20.1 C 0 km/h
302 28-04-2010 13:00:00 22.86 C 4.16 g/m*3 22.86 C 0 km/h
303 28-04-2010 14:00:00 24.56 C 4.49 g/m*3 24.56 C 0 km/h
304 28-04-2010 15:00:00 26.02 C 4.87 g/m*3 26.02 C 0 km/h
305 28-04-2010 16:00:00 27.78 C 5.37 g/m*3 27.78 C 0 km/h
306 28-04-2010 17:00:00 28.5 C 5.59 g/m*3 28.5 C 0 km/h
307 28-04-2010 18:00:00 28.24 C 5.51 g/m*3 28.24 C 0 km/h
308 28-04-2010 19:00:00 25.82 C 4.96 g/m*3 25.82 C 0 km/h
309 28-04-2010 20:00:00 22.14 C 5.48 g/m*3 22.14 C 0 km/h
310 28-04-2010 21:00:00 19.04 C 5.59 g/m*3 19.04 C 0 km/h
311 28-04-2010 22:00:00 18.2 C 5.63 g/m*3 18.2 C 0 km/h
312 28-04-2010 23:00:00 16.96 C 5.75 g/m*3 16.96 C 0 km/h
313 29-04-2010 00:00:00 15.44 C 5.87 g/m*3 15.44 C 0 km/h
314 29-04-2010 01:00:00 14.02 C 5.77 g/m*3 14.02 C 0 km/h
315 29-04-2010 02:00:00 12.9 C 6.04 g/m*3 12.9 C 0 km/h
316 29-04-2010 03:00:00 11.9 C 6.31 g/m*3 11.9 C 0 km/h
317 29-04-2010 04:00:00 11.22 C 6.45 g/m*3 11.22 C 0 km/h
318 29-04-2010 05:00:00 10.44 C 6.32 g/m*3 10.44 C 0 km/h
319 29-04-2010 06:00:00 9.86 C 6.41 g/m*3 9.86 C 0 km/h
320 29-04-2010 07:00:00 10.22 C 6.57 g/m*3 10.22 C 0 km/h
321 29-04-2010 08:00:00 12.2 C 6.78 g/m*3 12.2 C 0 km/h
322 29-04-2010 09:00:00 14.1 C 6.51 g/m*3 14.1 C 0 km/h
323 29-04-2010 10:00:00 17.86 C 6.58 g/m*3 17.86 C 0 km/h
324 29-04-2010 11:00:00 21.56 C 6.51 g/m*3 21.56 C 0 km/h
325 29-04-2010 12:00:00 23.88 C 5.79 g/m*3 23.88 C 0 km/h
Sensor: Nr:Datum:Temp:Abs-Feuchte:Windchill:Wind:
Aussen-T/F 326 29-04-2010 13:00:00 25.86 C 4.83 g/m*3 25.86 C 0 km/h
327 29-04-2010 14:00:00 27.02 C 5.15 g/m*3 27.02 C 0 km/h
328 29-04-2010 15:00:00 27.66 C 5.34 g/m*3 27.66 C 0 km/h
329 29-04-2010 16:00:00 27.8 C 5.38 g/m*3 27.8 C 0 km/h
330 29-04-2010 17:00:00 27.86 C 5.4 g/m*3 27.86 C 0 km/h
331 29-04-2010 18:00:00 27.56 C 5.31 g/m*3 27.56 C 0 km/h
332 29-04-2010 19:00:00 25.68 C 4.88 g/m*3 25.68 C 0 km/h
333 29-04-2010 20:00:00 23.52 C 5.55 g/m*3 23.52 C 0 km/h
334 29-04-2010 21:00:00 21.78 C 6.32 g/m*3 21.78 C 0 km/h
335 29-04-2010 22:00:00 21 C 6.78 g/m*3 21 C 0 km/h
336 29-04-2010 23:00:00 19.8 C 7.17 g/m*3 19.8 C 0 km/h
337 30-04-2010 00:00:00 19.8 C 6.97 g/m*3 19.8 C 0 km/h
338 30-04-2010 01:00:00 20.74 C 6.75 g/m*3 20.74 C 0 km/h
339 30-04-2010 02:00:00 20.76 C 6.79 g/m*3 20.76 C 0 km/h
340 30-04-2010 03:00:00 20.04 C 7.41 g/m*3 20.04 C 0 km/h
341 30-04-2010 04:00:00 19.38 C 8.13 g/m*3 19.38 C 0 km/h
342 30-04-2010 05:00:00 18.24 C 8.51 g/m*3 18.24 C 0 km/h
343 30-04-2010 06:00:00 17.36 C 8.69 g/m*3 17.36 C 0 km/h
344 30-04-2010 07:00:00 17.44 C 8.79 g/m*3 17.44 C 0 km/h
345 30-04-2010 08:00:00 18.26 C 8.02 g/m*3 18.26 C 0 km/h
346 30-04-2010 09:00:00 18.38 C 7.26 g/m*3 18.38 C 0 km/h
347 30-04-2010 10:00:00 18.56 C 6.29 g/m*3 18.56 C 0 km/h
348 30-04-2010 11:00:00 19.22 C 5.94 g/m*3 19.22 C 0 km/h
349 30-04-2010 12:00:00 20.22 C 5.95 g/m*3 20.22 C 0 km/h
350 30-04-2010 13:00:00 20.82 C 5.62 g/m*3 20.82 C 0 km/h
Sensor: Nr:Datum:Temp:Abs-Feuchte:Windchill:Wind:
Aussen-T/F 351 30-04-2010 14:00:00 20.88 C 5.86 g/m*3 20.88 C 0 km/h
352 30-04-2010 15:00:00 20.64 C 6.1 g/m*3 20.64 C 0 km/h
353 30-04-2010 16:00:00 19.58 C 5.94 g/m*3 19.58 C 0 km/h
354 30-04-2010 17:00:00 19.68 C 6.07 g/m*3 19.68 C 0 km/h
355 30-04-2010 18:00:00 19.28 C 6.1 g/m*3 19.28 C 0 km/h
356 30-04-2010 19:00:00 18.42 C 6.27 g/m*3 18.42 C 0 km/h
357 30-04-2010 20:00:00 17.38 C 6.87 g/m*3 17.38 C 0 km/h
358 30-04-2010 21:00:00 15.08 C 8.61 g/m*3 15.08 C 0 km/h
359 30-04-2010 22:00:00 15.02 C 8.14 g/m*3 15.02 C 0 km/h
360 30-04-2010 23:00:00 13.52 C 6.77 g/m*3 13.52 C 0 km/h
361 01-05-2010 00:00:00 13.32 C 6.59 g/m*3 13.32 C 0 km/h
362 01-05-2010 01:00:00 13.2 C 6.87 g/m*3 13.2 C 0 km/h
363 01-05-2010 02:00:00 12.88 C 6.84 g/m*3 12.88 C 0 km/h
364 01-05-2010 03:00:00 12.62 C 6.65 g/m*3 12.62 C 0 km/h
365 01-05-2010 04:00:00 12.46 C 7.11 g/m*3 12.46 C 0 km/h
366 01-05-2010 05:00:00 12.26 C 7.45 g/m*3 12.26 C 0 km/h
367 01-05-2010 06:00:00 11.5 C 8.3 g/m*3 11.5 C 0 km/h
368 01-05-2010 07:00:00 11.66 C 8.51 g/m*3 11.66 C 0 km/h
369 01-05-2010 08:00:00 13.06 C 8.26 g/m*3 13.06 C 0 km/h
370 01-05-2010 09:00:00 14.14 C 8.01 g/m*3 14.14 C 0 km/h
371 01-05-2010 10:00:00 14.62 C 7.54 g/m*3 14.62 C 0 km/h
372 01-05-2010 11:00:00 16.46 C 6.58 g/m*3 16.46 C 0 km/h
373 01-05-2010 12:00:00 17.48 C 5.72 g/m*3 17.48 C 0 km/h
374 01-05-2010 13:00:00 19.2 C 5.14 g/m*3 19.2 C 0 km/h
375 01-05-2010 14:00:00 19.82 C 4.89 g/m*3 19.82 C 0 km/h
Sensor: Nr:Datum:Temp:Abs-Feuchte:Windchill:Wind:
Aussen-T/F 376 01-05-2010 15:00:00 19.08 C 4.91 g/m*3 19.08 C 0 km/h
377 01-05-2010 16:00:00 17.58 C 5.51 g/m*3 17.58 C 0 km/h
378 01-05-2010 17:00:00 17.68 C 5.73 g/m*3 17.68 C 0 km/h
379 01-05-2010 18:00:00 17.46 C 5.95 g/m*3 17.46 C 0 km/h
380 01-05-2010 19:00:00 16.76 C 5.93 g/m*3 16.76 C 0 km/h
381 01-05-2010 20:00:00 15.84 C 6.15 g/m*3 15.84 C 0 km/h
382 01-05-2010 21:00:00 14.98 C 6.43 g/m*3 14.98 C 0 km/h
383 01-05-2010 22:00:00 14.22 C 6.04 g/m*3 14.22 C 0 km/h
384 01-05-2010 23:00:00 14.1 C 6.34 g/m*3 14.1 C 0 km/h
385 02-05-2010 00:00:00 12.96 C 7.1 g/m*3 12.96 C 0 km/h
386 02-05-2010 01:00:00 12.54 C 7.25 g/m*3 12.54 C 0 km/h
387 02-05-2010 02:00:00 12.3 C 7.25 g/m*3 12.3 C 0 km/h
388 02-05-2010 03:00:00 11.84 C 7.24 g/m*3 11.84 C 0 km/h
389 02-05-2010 04:00:00 11.56 C 7.26 g/m*3 11.56 C 0 km/h
390 02-05-2010 05:00:00 11.06 C 7.09 g/m*3 11.06 C 0 km/h
391 02-05-2010 06:00:00 10.94 C 7.22 g/m*3 10.94 C 0 km/h
392 02-05-2010 07:00:00 11.28 C 7.42 g/m*3 11.28 C 0 km/h
393 02-05-2010 08:00:00 11.38 C 7.79 g/m*3 11.38 C 0 km/h
394 02-05-2010 09:00:00 12.2 C 8.09 g/m*3 12.2 C 0 km/h
395 02-05-2010 10:00:00 14.22 C 8.02 g/m*3 14.22 C 0 km/h
396 02-05-2010 11:00:00 17.26 C 7.38 g/m*3 17.26 C 0 km/h
397 02-05-2010 12:00:00 12.9 C 7.62 g/m*3 12.9 C 0 km/h
398 02-05-2010 13:00:00 11.9 C 8.73 g/m*3 11.9 C 0 km/h
399 02-05-2010 14:00:00 14.86 C 8.9 g/m*3 14.86 C 0 km/h
400 02-05-2010 15:00:00 17.16 C 7.33 g/m*3 17.16 C 0 km/h
Sensor: Nr:Datum:Temp:Abs-Feuchte:Windchill:Wind:
Aussen-T/F 401 02-05-2010 16:00:00 17.4 C 6.79 g/m*3 17.4 C 0 km/h
402 02-05-2010 17:00:00 14.92 C 8.6 g/m*3 14.92 C 0 km/h
403 02-05-2010 18:00:00 17.18 C 7.05 g/m*3 17.18 C 0 km/h
404 02-05-2010 19:00:00 17.46 C 6.75 g/m*3 17.46 C 0 km/h
405 02-05-2010 20:00:00 15.94 C 7.28 g/m*3 15.94 C 0 km/h
406 02-05-2010 21:00:00 12.62 C 7.69 g/m*3 12.62 C 0 km/h
407 02-05-2010 22:00:00 11.38 C 7.71 g/m*3 11.38 C 0 km/h
408 02-05-2010 23:00:00 10.4 C 7.46 g/m*3 10.4 C 0 km/h
409 03-05-2010 00:00:00 9.76 C 7.27 g/m*3 9.76 C 0 km/h
410 03-05-2010 01:00:00 8.96 C 7.11 g/m*3 8.96 C 0 km/h
411 03-05-2010 02:00:00 8.12 C 6.83 g/m*3 8.12 C 0 km/h
412 03-05-2010 03:00:00 8.1 C 7.02 g/m*3 8.1 C 0 km/h
413 03-05-2010 04:00:00 8.42 C 7.19 g/m*3 8.42 C 0 km/h
414 03-05-2010 05:00:00 8.6 C 7.13 g/m*3 8.6 C 0 km/h
415 03-05-2010 06:00:00 8.6 C 7.13 g/m*3 8.6 C 0 km/h
416 03-05-2010 07:00:00 8.4 C 7.11 g/m*3 8.4 C 0 km/h
417 03-05-2010 08:00:00 9.72 C 6.96 g/m*3 9.72 C 0 km/h
418 03-05-2010 09:00:00 10.56 C 6.74 g/m*3 10.56 C 0 km/h
419 03-05-2010 10:00:00 11 C 6.77 g/m*3 11 C 0 km/h
420 03-05-2010 11:00:00 12.94 C 6.71 g/m*3 12.94 C 0 km/h
421 03-05-2010 12:00:00 14.74 C 6.46 g/m*3 14.74 C 0 km/h
422 03-05-2010 13:00:00 14.56 C 6.44 g/m*3 14.56 C 0 km/h
423 03-05-2010 14:00:00 9.56 C 6.82 g/m*3 9.56 C 0 km/h
424 03-05-2010 15:00:00 9.74 C 7.99 g/m*3 9.74 C 0 km/h
425 03-05-2010 16:00:00 10.58 C 7.45 g/m*3 10.58 C 0 km/h
Sensor: Nr:Datum:Temp:Abs-Feuchte:Windchill:Wind:
Aussen-T/F 426 03-05-2010 17:00:00 10.82 C 7.26 g/m*3 10.82 C 0 km/h
427 03-05-2010 18:00:00 10.96 C 6.87 g/m*3 10.96 C 0 km/h
428 03-05-2010 19:00:00 10.5 C 6.54 g/m*3 10.5 C 0 km/h
429 03-05-2010 20:00:00 9.74 C 6.06 g/m*3 9.74 C 0 km/h
430 03-05-2010 21:00:00 9.08 C 6.26 g/m*3 9.08 C 0 km/h
431 03-05-2010 22:00:00 8.58 C 6.49 g/m*3 8.58 C 0 km/h
432 03-05-2010 23:00:00 8.36 C 6.5 g/m*3 8.36 C 0 km/h
433 04-05-2010 00:00:00 7.58 C 6.4 g/m*3 7.58 C 0 km/h
434 04-05-2010 01:00:00 8.2 C 6.5 g/m*3 8.2 C 0 km/h
435 04-05-2010 02:00:00 8.38 C 6.54 g/m*3 8.38 C 0 km/h
436 04-05-2010 03:00:00 8.28 C 6.62 g/m*3 8.28 C 0 km/h
437 04-05-2010 04:00:00 7.92 C 6.76 g/m*3 7.92 C 0 km/h
438 04-05-2010 05:00:00 8.14 C 6.84 g/m*3 8.14 C 0 km/h
439 04-05-2010 06:00:00 8.24 C 6.88 g/m*3 8.24 C 0 km/h
440 04-05-2010 07:00:00 8.66 C 6.94 g/m*3 8.66 C 0 km/h
441 04-05-2010 08:00:00 9.02 C 6.43 g/m*3 9.02 C 0 km/h
442 04-05-2010 09:00:00 9.28 C 6.25 g/m*3 9.28 C 0 km/h
443 04-05-2010 10:00:00 9.82 C 5.82 g/m*3 9.82 C 0 km/h
444 04-05-2010 11:00:00 10.76 C 5.21 g/m*3 10.76 C 0 km/h
445 04-05-2010 12:00:00 11.1 C 4.83 g/m*3 11.1 C 0 km/h
446 04-05-2010 13:00:00 11.98 C 4.58 g/m*3 11.98 C 0 km/h
447 04-05-2010 14:00:00 12.92 C 4.6 g/m*3 12.92 C 0 km/h
448 04-05-2010 15:00:00 13.44 C 4.5 g/m*3 13.44 C 0 km/h
449 04-05-2010 16:00:00 12.46 C 4.43 g/m*3 12.46 C 0 km/h
450 04-05-2010 17:00:00 11.54 C 4.33 g/m*3 11.54 C 0 km/h
Sensor: Nr:Datum:Temp:Abs-Feuchte:Windchill:Wind:
Aussen-T/F 451 04-05-2010 18:00:00 11.24 C 4.21 g/m*3 11.24 C 0 km/h
452 04-05-2010 19:00:00 11.28 C 4.14 g/m*3 11.28 C 0 km/h
453 04-05-2010 20:00:00 10.12 C 4.36 g/m*3 10.12 C 0 km/h
454 04-05-2010 21:00:00 9.42 C 4.49 g/m*3 9.42 C 0 km/h
455 04-05-2010 22:00:00 7.86 C 4.24 g/m*3 7.86 C 0 km/h
456 04-05-2010 23:00:00 7.28 C 4.06 g/m*3 7.28 C 0 km/h
457 05-05-2010 00:00:00 6.32 C 4.21 g/m*3 6.32 C 0 km/h
458 05-05-2010 01:00:00 5.48 C 4.35 g/m*3 5.48 C 0 km/h
459 05-05-2010 02:00:00 5.54 C 4.17 g/m*3 5.54 C 0 km/h
460 05-05-2010 03:00:00 4.74 C 4.14 g/m*3 4.74 C 0 km/h
461 05-05-2010 04:00:00 3.9 C 4.04 g/m*3 3.9 C 0 km/h
462 05-05-2010 05:00:00 3.48 C 3.91 g/m*3 3.48 C 0 km/h
463 05-05-2010 06:00:00 2.68 C 3.99 g/m*3 2.68 C 0 km/h
464 05-05-2010 07:00:00 2.88 C 4.27 g/m*3 2.88 C 0 km/h
465 05-05-2010 08:00:00 4.6 C 4.22 g/m*3 4.6 C 0 km/h
466 05-05-2010 09:00:00 7.04 C 3.85 g/m*3 7.04 C 0 km/h
467 05-05-2010 10:00:00 9.16 C 3.31 g/m*3 9.16 C 0 km/h
468 05-05-2010 11:00:00 11.34 C 2.76 g/m*3 11.34 C 0 km/h
469 05-05-2010 12:00:00 13.72 C 2.37 g/m*3 13.72 C 0 km/h
470 05-05-2010 13:00:00 16.54 C 2.82 g/m*3 16.54 C 0 km/h
471 05-05-2010 14:00:00 17.06 C 2.9 g/m*3 17.06 C 0 km/h
472 05-05-2010 15:00:00 18.1 C 3.09 g/m*3 18.1 C 0 km/h
473 05-05-2010 16:00:00 17.76 C 3.03 g/m*3 17.76 C 0 km/h
474 05-05-2010 17:00:00 15.68 C 2.67 g/m*3 15.68 C 0 km/h
475 05-05-2010 18:00:00 14.2 C 2.44 g/m*3 14.2 C 0 km/h
Sensor: Nr:Datum:Temp:Abs-Feuchte:Windchill:Wind:
Aussen-T/F 476 05-05-2010 19:00:00 13.44 C 2.35 g/m*3 13.44 C 0 km/h
477 05-05-2010 20:00:00 12.8 C 2.8 g/m*3 12.8 C 0 km/h
478 05-05-2010 21:00:00 12.34 C 2.87 g/m*3 12.34 C 0 km/h
479 05-05-2010 22:00:00 11.88 C 3.24 g/m*3 11.88 C 0 km/h
480 05-05-2010 23:00:00 11.5 C 3.31 g/m*3 11.5 C 0 km/h
481 06-05-2010 00:00:00 10.84 C 3.82 g/m*3 10.84 C 0 km/h
482 06-05-2010 01:00:00 7.6 C 5.74 g/m*3 7.6 C 0 km/h
483 06-05-2010 02:00:00 6.74 C 6.51 g/m*3 6.74 C 0 km/h
484 06-05-2010 03:00:00 6.74 C 6.9 g/m*3 6.74 C 0 km/h
485 06-05-2010 04:00:00 6.88 C 7.07 g/m*3 6.88 C 0 km/h
486 06-05-2010 05:00:00 6.66 C 7.05 g/m*3 6.66 C 0 km/h
487 06-05-2010 06:00:00 6.52 C 7 g/m*3 6.52 C 0 km/h
488 06-05-2010 07:00:00 6.38 C 6.99 g/m*3 6.38 C 0 km/h
489 06-05-2010 08:00:00 6.22 C 6.92 g/m*3 6.22 C 0 km/h
490 06-05-2010 09:00:00 6.56 C 7.06 g/m*3 6.56 C 0 km/h
491 06-05-2010 10:00:00 6.84 C 7.16 g/m*3 6.84 C 0 km/h
492 06-05-2010 11:00:00 7.04 C 7.16 g/m*3 7.04 C 0 km/h
493 06-05-2010 12:00:00 7.06 C 7.09 g/m*3 7.06 C 0 km/h
494 06-05-2010 13:00:00 7.42 C 7.2 g/m*3 7.42 C 0 km/h
495 06-05-2010 14:00:00 7.4 C 7.33 g/m*3 7.4 C 0 km/h
496 06-05-2010 15:00:00 7.1 C 7.25 g/m*3 7.1 C 0 km/h
497 06-05-2010 16:00:00 6.54 C 7.01 g/m*3 6.54 C 0 km/h
498 06-05-2010 17:00:00 6.46 C 6.88 g/m*3 6.46 C 0 km/h
499 06-05-2010 18:00:00 5.9 C 6.59 g/m*3 5.9 C 0 km/h
500 06-05-2010 19:00:00 5.82 C 6.6 g/m*3 5.82 C 0 km/h
Sensor: Nr:Datum:Temp:Abs-Feuchte:Windchill:Wind:
Aussen-T/F 501 06-05-2010 20:00:00 5.5 C 6.57 g/m*3 5.5 C 0 km/h
502 06-05-2010 21:00:00 5.38 C 6.55 g/m*3 5.38 C 0 km/h
503 06-05-2010 22:00:00 5.4 C 6.63 g/m*3 5.4 C 0 km/h
504 06-05-2010 23:00:00 5.36 C 6.61 g/m*3 5.36 C 0 km/h
505 07-05-2010 00:00:00 5.4 C 6.63 g/m*3 5.4 C 0 km/h
506 07-05-2010 01:00:00 5.4 C 6.63 g/m*3 5.4 C 0 km/h
507 07-05-2010 02:00:00 5.4 C 6.63 g/m*3 5.4 C 0 km/h
508 07-05-2010 03:00:00 5.32 C 6.59 g/m*3 5.32 C 0 km/h
509 07-05-2010 04:00:00 5.18 C 6.53 g/m*3 5.18 C 0 km/h
510 07-05-2010 05:00:00 4.88 C 6.4 g/m*3 4.88 C 0 km/h
511 07-05-2010 06:00:00 4.6 C 6.29 g/m*3 4.6 C 0 km/h
512 07-05-2010 07:00:00 4.68 C 6.32 g/m*3 4.68 C 0 km/h
513 07-05-2010 08:00:00 4.82 C 6.35 g/m*3 4.82 C 0 km/h
514 07-05-2010 09:00:00 4.86 C 6.17 g/m*3 4.86 C 0 km/h
515 07-05-2010 10:00:00 5.52 C 6.17 g/m*3 5.52 C 0 km/h
516 07-05-2010 11:00:00 7.02 C 6.66 g/m*3 7.02 C 0 km/h
517 07-05-2010 12:00:00 7.14 C 6.35 g/m*3 7.14 C 0 km/h
518 07-05-2010 13:00:00 7.8 C 6.51 g/m*3 7.8 C 0 km/h
519 07-05-2010 14:00:00 8.42 C 6.81 g/m*3 8.42 C 0 km/h
520 07-05-2010 15:00:00 8.2 C 6.82 g/m*3 8.2 C 0 km/h
521 07-05-2010 16:00:00 9.16 C 6.93 g/m*3 9.16 C 0 km/h
522 07-05-2010 17:00:00 9.42 C 7.08 g/m*3 9.42 C 0 km/h
523 07-05-2010 18:00:00 9.14 C 7.03 g/m*3 9.14 C 0 km/h
524 07-05-2010 19:00:00 7.9 C 7.06 g/m*3 7.9 C 0 km/h
525 07-05-2010 20:00:00 7.16 C 7.06 g/m*3 7.16 C 0 km/h
Sensor: Nr:Datum:Temp:Abs-Feuchte:Windchill:Wind:
Aussen-T/F 526 07-05-2010 21:00:00 6.68 C 7.03 g/m*3 6.68 C 0 km/h
527 07-05-2010 22:00:00 5.8 C 6.68 g/m*3 5.8 C 0 km/h
528 07-05-2010 23:00:00 5.96 C 6.82 g/m*3 5.96 C 0 km/h
529 08-05-2010 00:00:00 5.9 C 6.78 g/m*3 5.9 C 0 km/h
530 08-05-2010 01:00:00 4.96 C 6.38 g/m*3 4.96 C 0 km/h
531 08-05-2010 02:00:00 4.5 C 6.23 g/m*3 4.5 C 0 km/h
532 08-05-2010 03:00:00 4.6 C 6.29 g/m*3 4.6 C 0 km/h
533 08-05-2010 04:00:00 4.34 C 6.18 g/m*3 4.34 C 0 km/h
534 08-05-2010 05:00:00 4.34 C 6.18 g/m*3 4.34 C 0 km/h
535 08-05-2010 06:00:00 4.66 C 6.31 g/m*3 4.66 C 0 km/h
536 08-05-2010 07:00:00 5.22 C 6.55 g/m*3 5.22 C 0 km/h
537 08-05-2010 08:00:00 6.08 C 6.63 g/m*3 6.08 C 0 km/h
538 08-05-2010 09:00:00 8.26 C 6.96 g/m*3 8.26 C 0 km/h
539 08-05-2010 10:00:00 9.66 C 6.82 g/m*3 9.66 C 0 km/h
540 08-05-2010 11:00:00 13.06 C 6.76 g/m*3 13.06 C 0 km/h
541 08-05-2010 12:00:00 15.24 C 5.07 g/m*3 15.24 C 0 km/h
542 08-05-2010 13:00:00 16.84 C 5.22 g/m*3 16.84 C 0 km/h
543 08-05-2010 14:00:00 15.62 C 4.23 g/m*3 15.62 C 0 km/h
544 08-05-2010 15:00:00 15.92 C 4.37 g/m*3 15.92 C 0 km/h
545 08-05-2010 16:00:00 16.9 C 4.4 g/m*3 16.9 C 0 km/h
546 08-05-2010 17:00:00 18 C 4.18 g/m*3 18 C 0 km/h
547 08-05-2010 18:00:00 19.56 C 4.11 g/m*3 19.56 C 0 km/h
548 08-05-2010 19:00:00 18.28 C 4.31 g/m*3 18.28 C 0 km/h
549 08-05-2010 20:00:00 15.78 C 5.97 g/m*3 15.78 C 0 km/h
550 08-05-2010 21:00:00 13.44 C 6.11 g/m*3 13.44 C 0 km/h
Sensor: Nr:Datum:Temp:Abs-Feuchte:Windchill:Wind:
Aussen-T/F 551 08-05-2010 22:00:00 11.96 C 6.08 g/m*3 11.96 C 0 km/h
552 08-05-2010 23:00:00 11.06 C 6.25 g/m*3 11.06 C 0 km/h
553 09-05-2010 00:00:00 9.8 C 6.42 g/m*3 9.8 C 0 km/h
554 09-05-2010 01:00:00 8.82 C 6.48 g/m*3 8.82 C 0 km/h
555 09-05-2010 02:00:00 8.62 C 6.63 g/m*3 8.62 C 0 km/h
556 09-05-2010 03:00:00 8.46 C 6.64 g/m*3 8.46 C 0 km/h
557 09-05-2010 04:00:00 8.5 C 6.66 g/m*3 8.5 C 0 km/h
558 09-05-2010 05:00:00 7.64 C 6.51 g/m*3 7.64 C 0 km/h
559 09-05-2010 06:00:00 7.98 C 6.75 g/m*3 7.98 C 0 km/h
560 09-05-2010 07:00:00 8.8 C 6.88 g/m*3 8.8 C 0 km/h
561 09-05-2010 08:00:00 9.84 C 6.98 g/m*3 9.84 C 0 km/h
562 09-05-2010 09:00:00 11.3 C 7.04 g/m*3 11.3 C 0 km/h
563 09-05-2010 10:00:00 12.3 C 7.25 g/m*3 12.3 C 0 km/h
564 09-05-2010 11:00:00 12.28 C 7.4 g/m*3 12.28 C 0 km/h
565 09-05-2010 12:00:00 13.42 C 7.26 g/m*3 13.42 C 0 km/h
566 09-05-2010 13:00:00 17.02 C 6.66 g/m*3 17.02 C 0 km/h
567 09-05-2010 14:00:00 17.16 C 6.14 g/m*3 17.16 C 0 km/h
568 09-05-2010 15:00:00 17.52 C 6.3 g/m*3 17.52 C 0 km/h
569 09-05-2010 16:00:00 18.5 C 6.14 g/m*3 18.5 C 0 km/h
570 09-05-2010 17:00:00 19.08 C 5.44 g/m*3 19.08 C 0 km/h
571 09-05-2010 18:00:00 18.7 C 5.8 g/m*3 18.7 C 0 km/h
572 09-05-2010 19:00:00 16.88 C 6.84 g/m*3 16.88 C 0 km/h
573 09-05-2010 20:00:00 14.82 C 6.87 g/m*3 14.82 C 0 km/h
574 09-05-2010 21:00:00 12.5 C 7.08 g/m*3 12.5 C 0 km/h
575 09-05-2010 22:00:00 11.12 C 7.06 g/m*3 11.12 C 0 km/h
Sensor: Nr:Datum:Temp:Abs-Feuchte:Windchill:Wind:
Aussen-T/F 576 09-05-2010 23:00:00 10.74 C 7.11 g/m*3 10.74 C 0 km/h
577 10-05-2010 00:00:00 10.22 C 7.15 g/m*3 10.22 C 0 km/h
578 10-05-2010 01:00:00 9.86 C 7.28 g/m*3 9.86 C 0 km/h
579 10-05-2010 02:00:00 9.48 C 7.24 g/m*3 9.48 C 0 km/h
580 10-05-2010 03:00:00 8.88 C 7.19 g/m*3 8.88 C 0 km/h
581 10-05-2010 04:00:00 8.62 C 7.26 g/m*3 8.62 C 0 km/h
582 10-05-2010 05:00:00 8.66 C 7.28 g/m*3 8.66 C 0 km/h
583 10-05-2010 06:00:00 8.82 C 7.3 g/m*3 8.82 C 0 km/h
584 10-05-2010 07:00:00 9.62 C 7.58 g/m*3 9.62 C 0 km/h
585 10-05-2010 08:00:00 10.64 C 7.59 g/m*3 10.64 C 0 km/h
586 10-05-2010 09:00:00 10.88 C 7.27 g/m*3 10.88 C 0 km/h
587 10-05-2010 10:00:00 11.34 C 7.1 g/m*3 11.34 C 0 km/h
588 10-05-2010 11:00:00 11.5 C 7.09 g/m*3 11.5 C 0 km/h
589 10-05-2010 12:00:00 12.6 C 6.95 g/m*3 12.6 C 0 km/h
590 10-05-2010 13:00:00 14.48 C 6.34 g/m*3 14.48 C 0 km/h
591 10-05-2010 14:00:00 15 C 5.98 g/m*3 15 C 0 km/h
592 10-05-2010 15:00:00 15.1 C 5.78 g/m*3 15.1 C 0 km/h
593 10-05-2010 16:00:00 15.84 C 5.56 g/m*3 15.84 C 0 km/h
594 10-05-2010 17:00:00 15.78 C 5.38 g/m*3 15.78 C 0 km/h
595 10-05-2010 18:00:00 16.84 C 4.9 g/m*3 16.84 C 0 km/h
596 10-05-2010 19:00:00 15.02 C 4.96 g/m*3 15.02 C 0 km/h
597 10-05-2010 20:00:00 14.02 C 5.05 g/m*3 14.02 C 0 km/h
598 10-05-2010 21:00:00 12.02 C 5.46 g/m*3 12.02 C 0 km/h
599 10-05-2010 22:00:00 11.42 C 5.63 g/m*3 11.42 C 0 km/h
600 10-05-2010 23:00:00 11.34 C 5.81 g/m*3 11.34 C 0 km/h
Sensor: Nr:Datum:Temp:Abs-Feuchte:Windchill:Wind:
Aussen-T/F 601 11-05-2010 00:00:00 10.88 C 5.76 g/m*3 10.88 C 0 km/h
602 11-05-2010 01:00:00 10.42 C 5.93 g/m*3 10.42 C 0 km/h
603 11-05-2010 02:00:00 10.1 C 6.03 g/m*3 10.1 C 0 km/h
604 11-05-2010 03:00:00 9.78 C 6.15 g/m*3 9.78 C 0 km/h
605 11-05-2010 04:00:00 9.46 C 6.16 g/m*3 9.46 C 0 km/h
606 11-05-2010 05:00:00 9.38 C 6.16 g/m*3 9.38 C 0 km/h
607 11-05-2010 06:00:00 9.24 C 6.16 g/m*3 9.24 C 0 km/h
608 11-05-2010 07:00:00 9.6 C 6.32 g/m*3 9.6 C 0 km/h
609 11-05-2010 08:00:00 10.9 C 6.27 g/m*3 10.9 C 0 km/h
610 11-05-2010 09:00:00 12.16 C 6.03 g/m*3 12.16 C 0 km/h
611 11-05-2010 10:00:00 12.58 C 6.05 g/m*3 12.58 C 0 km/h
612 11-05-2010 11:00:00 12.52 C 6.19 g/m*3 12.52 C 0 km/h
613 11-05-2010 12:00:00 14.2 C 6.15 g/m*3 14.2 C 0 km/h
614 11-05-2010 13:00:00 13.74 C 6.27 g/m*3 13.74 C 0 km/h
615 11-05-2010 14:00:00 14.04 C 6.41 g/m*3 14.04 C 0 km/h
616 11-05-2010 15:00:00 14.4 C 6.43 g/m*3 14.4 C 0 km/h
617 11-05-2010 16:00:00 15.24 C 6.58 g/m*3 15.24 C 0 km/h
618 11-05-2010 17:00:00 14.84 C 6.73 g/m*3 14.84 C 0 km/h
619 11-05-2010 18:00:00 12.88 C 7.61 g/m*3 12.88 C 0 km/h
620 11-05-2010 19:00:00 10.94 C 8.32 g/m*3 10.94 C 0 km/h
621 11-05-2010 20:00:00 10.12 C 8.45 g/m*3 10.12 C 0 km/h
622 11-05-2010 21:00:00 9.86 C 8.61 g/m*3 9.86 C 0 km/h
623 11-05-2010 22:00:00 9.68 C 8.62 g/m*3 9.68 C 0 km/h
624 11-05-2010 23:00:00 9.8 C 8.72 g/m*3 9.8 C 0 km/h
625 12-05-2010 00:00:00 9.32 C 8.46 g/m*3 9.32 C 0 km/h
Sensor: Nr:Datum:Temp:Abs-Feuchte:Windchill:Wind:
Aussen-T/F 626 12-05-2010 01:00:00 8.52 C 8.07 g/m*3 8.52 C 0 km/h
627 12-05-2010 02:00:00 7.72 C 7.7 g/m*3 7.72 C 0 km/h
628 12-05-2010 03:00:00 7.12 C 7.32 g/m*3 7.12 C 0 km/h
629 12-05-2010 04:00:00 6.88 C 7 g/m*3 6.88 C 0 km/h
630 12-05-2010 05:00:00 6.8 C 6.67 g/m*3 6.8 C 0 km/h
631 12-05-2010 06:00:00 6.78 C 6.57 g/m*3 6.78 C 0 km/h
632 12-05-2010 07:00:00 7.08 C 6.62 g/m*3 7.08 C 0 km/h
633 12-05-2010 08:00:00 7.64 C 6.54 g/m*3 7.64 C 0 km/h
634 12-05-2010 09:00:00 8.28 C 6.23 g/m*3 8.28 C 0 km/h
635 12-05-2010 10:00:00 8.6 C 5.98 g/m*3 8.6 C 0 km/h
636 12-05-2010 11:00:00 9.18 C 5.71 g/m*3 9.18 C 0 km/h
637 12-05-2010 12:00:00 10.06 C 5.43 g/m*3 10.06 C 0 km/h
638 12-05-2010 13:00:00 10.68 C 5.3 g/m*3 10.68 C 0 km/h
639 12-05-2010 14:00:00 10.52 C 5.13 g/m*3 10.52 C 0 km/h
640 12-05-2010 15:00:00 10.84 C 5.01 g/m*3 10.84 C 0 km/h
641 12-05-2010 16:00:00 10.52 C 5.24 g/m*3 10.52 C 0 km/h
642 12-05-2010 17:00:00 9.74 C 5.29 g/m*3 9.74 C 0 km/h
643 12-05-2010 18:00:00 9.22 C 5.45 g/m*3 9.22 C 0 km/h
644 12-05-2010 19:00:00 8.9 C 5.69 g/m*3 8.9 C 0 km/h
645 12-05-2010 20:00:00 8.56 C 5.85 g/m*3 8.56 C 0 km/h
646 12-05-2010 21:00:00 8.44 C 6 g/m*3 8.44 C 0 km/h
647 12-05-2010 22:00:00 7.76 C 6.41 g/m*3 7.76 C 0 km/h
648 12-05-2010 23:00:00 7.8 C 6.68 g/m*3 7.8 C 0 km/h
649 13-05-2010 00:00:00 7.58 C 6.47 g/m*3 7.58 C 0 km/h
650 13-05-2010 01:00:00 7.34 C 6.51 g/m*3 7.34 C 0 km/h
Sensor: Nr:Datum:Temp:Abs-Feuchte:Windchill:Wind:
Aussen-T/F 651 13-05-2010 02:00:00 7.42 C 6.58 g/m*3 7.42 C 0 km/h
652 13-05-2010 03:00:00 7.3 C 6.51 g/m*3 7.3 C 0 km/h
653 13-05-2010 04:00:00 7 C 6.59 g/m*3 7 C 0 km/h
654 13-05-2010 05:00:00 6.76 C 6.65 g/m*3 6.76 C 0 km/h
655 13-05-2010 06:00:00 6.64 C 6.66 g/m*3 6.64 C 0 km/h
656 13-05-2010 07:00:00 6.8 C 6.7 g/m*3 6.8 C 0 km/h
657 13-05-2010 08:00:00 6.94 C 6.27 g/m*3 6.94 C 0 km/h
658 13-05-2010 09:00:00 7.94 C 6 g/m*3 7.94 C 0 km/h
659 13-05-2010 10:00:00 9.46 C 5.43 g/m*3 9.46 C 0 km/h
660 13-05-2010 11:00:00 9.9 C 5.06 g/m*3 9.9 C 0 km/h
661 13-05-2010 12:00:00 10.06 C 4.85 g/m*3 10.06 C 0 km/h
662 13-05-2010 13:00:00 9.74 C 4.99 g/m*3 9.74 C 0 km/h
663 13-05-2010 14:00:00 10.6 C 5.02 g/m*3 10.6 C 0 km/h
664 13-05-2010 15:00:00 10.1 C 4.99 g/m*3 10.1 C 0 km/h
665 13-05-2010 16:00:00 8.66 C 6.02 g/m*3 8.66 C 0 km/h
666 13-05-2010 17:00:00 8.22 C 6.37 g/m*3 8.22 C 0 km/h
667 13-05-2010 18:00:00 8.56 C 6.91 g/m*3 8.56 C 0 km/h
668 13-05-2010 19:00:00 7.4 C 6.78 g/m*3 7.4 C 0 km/h
669 13-05-2010 20:00:00 7.44 C 6.98 g/m*3 7.44 C 0 km/h
670 13-05-2010 21:00:00 7.44 C 7.11 g/m*3 7.44 C 0 km/h
671 13-05-2010 22:00:00 7.3 C 7.11 g/m*3 7.3 C 0 km/h
672 13-05-2010 23:00:00 7.24 C 7.13 g/m*3 7.24 C 0 km/h
673 14-05-2010 00:00:00 6.96 C 7.16 g/m*3 6.96 C 0 km/h
674 14-05-2010 01:00:00 7.04 C 7.24 g/m*3 7.04 C 0 km/h
675 14-05-2010 02:00:00 7 C 7.24 g/m*3 7 C 0 km/h
Sensor: Nr:Datum:Temp:Abs-Feuchte:Windchill:Wind:
Aussen-T/F 676 14-05-2010 03:00:00 6.98 C 7.27 g/m*3 6.98 C 0 km/h
677 14-05-2010 04:00:00 6.94 C 7.26 g/m*3 6.94 C 0 km/h
678 14-05-2010 05:00:00 6.88 C 7.26 g/m*3 6.88 C 0 km/h
679 14-05-2010 06:00:00 7.1 C 7.33 g/m*3 7.1 C 0 km/h
680 14-05-2010 07:00:00 7.4 C 7.38 g/m*3 7.4 C 0 km/h
681 14-05-2010 08:00:00 7.92 C 7.35 g/m*3 7.92 C 0 km/h
682 14-05-2010 09:00:00 8.18 C 7.18 g/m*3 8.18 C 0 km/h
683 14-05-2010 10:00:00 9.58 C 7.19 g/m*3 9.58 C 0 km/h
684 14-05-2010 11:00:00 10.38 C 6.76 g/m*3 10.38 C 0 km/h
685 14-05-2010 12:00:00 9.16 C 6.89 g/m*3 9.16 C 0 km/h
686 14-05-2010 13:00:00 9.46 C 7.59 g/m*3 9.46 C 0 km/h
687 14-05-2010 14:00:00 9.58 C 7.74 g/m*3 9.58 C 0 km/h
688 14-05-2010 15:00:00 11.86 C 7.61 g/m*3 11.86 C 0 km/h
689 14-05-2010 16:00:00 12.98 C 6.77 g/m*3 12.98 C 0 km/h
690 14-05-2010 17:00:00 11.54 C 6.61 g/m*3 11.54 C 0 km/h
691 14-05-2010 18:00:00 11.56 C 6.76 g/m*3 11.56 C 0 km/h
692 14-05-2010 19:00:00 10.46 C 7 g/m*3 10.46 C 0 km/h
693 14-05-2010 20:00:00 9.94 C 6.93 g/m*3 9.94 C 0 km/h
694 14-05-2010 21:00:00 9.14 C 6.87 g/m*3 9.14 C 0 km/h
695 14-05-2010 22:00:00 9.08 C 7.07 g/m*3 9.08 C 0 km/h
696 14-05-2010 23:00:00 8.24 C 7.17 g/m*3 8.24 C 0 km/h
697 15-05-2010 00:00:00 7.9 C 7.2 g/m*3 7.9 C 0 km/h
698 15-05-2010 01:00:00 7.7 C 7.14 g/m*3 7.7 C 0 km/h
699 15-05-2010 02:00:00 7.64 C 7.17 g/m*3 7.64 C 0 km/h
700 15-05-2010 03:00:00 7.6 C 7.22 g/m*3 7.6 C 0 km/h
Sensor: Nr:Datum:Temp:Abs-Feuchte:Windchill:Wind:
Aussen-T/F 701 15-05-2010 04:00:00 7.6 C 7.25 g/m*3 7.6 C 0 km/h
702 15-05-2010 05:00:00 7.26 C 7.17 g/m*3 7.26 C 0 km/h
703 15-05-2010 06:00:00 7.1 C 7.14 g/m*3 7.1 C 0 km/h
704 15-05-2010 07:00:00 7.6 C 7.4 g/m*3 7.6 C 0 km/h
705 15-05-2010 08:00:00 8.48 C 7.26 g/m*3 8.48 C 0 km/h
706 15-05-2010 09:00:00 9.48 C 6.82 g/m*3 9.48 C 0 km/h
707 15-05-2010 10:00:00 10.8 C 6.42 g/m*3 10.8 C 0 km/h
708 15-05-2010 11:00:00 11.2 C 6.12 g/m*3 11.2 C 0 km/h
709 15-05-2010 12:00:00 11.64 C 5.44 g/m*3 11.64 C 0 km/h
710 15-05-2010 13:00:00 12.06 C 4.84 g/m*3 12.06 C 0 km/h
711 15-05-2010 14:00:00 14.26 C 4.19 g/m*3 14.26 C 0 km/h
712 15-05-2010 15:00:00 15.5 C 3.01 g/m*3 15.5 C 0 km/h
713 15-05-2010 16:00:00 14.78 C 2.76 g/m*3 14.78 C 0 km/h
714 15-05-2010 17:00:00 14 C 3.16 g/m*3 14 C 0 km/h
715 15-05-2010 18:00:00 13.82 C 3.46 g/m*3 13.82 C 0 km/h
716 15-05-2010 19:00:00 14.58 C 3.4 g/m*3 14.58 C 0 km/h
717 15-05-2010 20:00:00 12.5 C 4.49 g/m*3 12.5 C 0 km/h
718 15-05-2010 21:00:00 10.98 C 4.68 g/m*3 10.98 C 0 km/h
719 15-05-2010 22:00:00 11.06 C 4.82 g/m*3 11.06 C 0 km/h
720 15-05-2010 23:00:00 10.84 C 4.97 g/m*3 10.84 C 0 km/h
721 16-05-2010 00:00:00 10.1 C 5.33 g/m*3 10.1 C 0 km/h
722 16-05-2010 01:00:00 9.34 C 5.68 g/m*3 9.34 C 0 km/h
723 16-05-2010 02:00:00 8.04 C 5.88 g/m*3 8.04 C 0 km/h
724 16-05-2010 03:00:00 7.48 C 5.9 g/m*3 7.48 C 0 km/h
725 16-05-2010 04:00:00 7.6 C 5.95 g/m*3 7.6 C 0 km/h
Sensor: Nr:Datum:Temp:Abs-Feuchte:Windchill:Wind:
Aussen-T/F 726 16-05-2010 05:00:00 7.3 C 5.93 g/m*3 7.3 C 0 km/h
727 16-05-2010 06:00:00 7.42 C 5.99 g/m*3 7.42 C 0 km/h
728 16-05-2010 07:00:00 7.84 C 6.07 g/m*3 7.84 C 0 km/h
729 16-05-2010 08:00:00 8.72 C 6.1 g/m*3 8.72 C 0 km/h
730 16-05-2010 09:00:00 10.96 C 4.87 g/m*3 10.96 C 0 km/h
731 16-05-2010 10:00:00 12.56 C 4.19 g/m*3 12.56 C 0 km/h
732 16-05-2010 11:00:00 14.84 C 3.99 g/m*3 14.84 C 0 km/h
733 16-05-2010 12:00:00 16.64 C 3.6 g/m*3 16.64 C 0 km/h
734 16-05-2010 13:00:00 17.66 C 3.52 g/m*3 17.66 C 0 km/h
735 16-05-2010 14:00:00 17.92 C 3.55 g/m*3 17.92 C 0 km/h
736 16-05-2010 15:00:00 19.5 C 3.36 g/m*3 19.5 C 0 km/h
737 16-05-2010 16:00:00 20.54 C 3.57 g/m*3 20.54 C 0 km/h
738 16-05-2010 17:00:00 21.3 C 3.73 g/m*3 21.3 C 0 km/h
739 16-05-2010 18:00:00 19.82 C 3.52 g/m*3 19.82 C 0 km/h
740 16-05-2010 19:00:00 18.86 C 3.68 g/m*3 18.86 C 0 km/h
741 16-05-2010 20:00:00 17.96 C 4.47 g/m*3 17.96 C 0 km/h
742 16-05-2010 21:00:00 14.28 C 4.81 g/m*3 14.28 C 0 km/h
743 16-05-2010 22:00:00 12.36 C 5.34 g/m*3 12.36 C 0 km/h
744 16-05-2010 23:00:00 10.86 C 5.81 g/m*3 10.86 C 0 km/h
745 17-05-2010 00:00:00 10.12 C 5.96 g/m*3 10.12 C 0 km/h
746 17-05-2010 01:00:00 9.36 C 5.99 g/m*3 9.36 C 0 km/h
747 17-05-2010 02:00:00 8.56 C 6.14 g/m*3 8.56 C 0 km/h
748 17-05-2010 03:00:00 7.64 C 6.12 g/m*3 7.64 C 0 km/h
749 17-05-2010 04:00:00 6.96 C 6.11 g/m*3 6.96 C 0 km/h
750 17-05-2010 05:00:00 6.22 C 6.08 g/m*3 6.22 C 0 km/h
Sensor: Nr:Datum:Temp:Abs-Feuchte:Windchill:Wind:
Aussen-T/F 751 17-05-2010 06:00:00 6 C 6.05 g/m*3 6 C 0 km/h
752 17-05-2010 07:00:00 7.08 C 6.18 g/m*3 7.08 C 0 km/h
753 17-05-2010 08:00:00 9.42 C 6.28 g/m*3 9.42 C 0 km/h
754 17-05-2010 09:00:00 11.88 C 6.43 g/m*3 11.88 C 0 km/h
755 17-05-2010 10:00:00 13.7 C 6.39 g/m*3 13.7 C 0 km/h
756 17-05-2010 11:00:00 13.6 C 6.87 g/m*3 13.6 C 0 km/h
757 17-05-2010 12:00:00 13.88 C 7.45 g/m*3 13.88 C 0 km/h
758 17-05-2010 13:00:00 16.62 C 6.68 g/m*3 16.62 C 0 km/h
759 17-05-2010 14:00:00 15.88 C 6.98 g/m*3 15.88 C 0 km/h
760 17-05-2010 15:00:00 12.66 C 9.22 g/m*3 12.66 C 0 km/h
761 17-05-2010 16:00:00 13.44 C 9.46 g/m*3 13.44 C 0 km/h
762 17-05-2010 17:00:00 13.86 C 8.92 g/m*3 13.86 C 0 km/h
763 17-05-2010 18:00:00 12.1 C 7.59 g/m*3 12.1 C 0 km/h
764 17-05-2010 19:00:00 10.04 C 7.8 g/m*3 10.04 C 0 km/h
765 17-05-2010 20:00:00 9.46 C 7.86 g/m*3 9.46 C 0 km/h
766 17-05-2010 21:00:00 8.88 C 7.82 g/m*3 8.88 C 0 km/h
767 17-05-2010 22:00:00 8.5 C 7.82 g/m*3 8.5 C 0 km/h
768 17-05-2010 23:00:00 7.8 C 7.52 g/m*3 7.8 C 0 km/h
769 18-05-2010 00:00:00 7.08 C 7.18 g/m*3 7.08 C 0 km/h
770 18-05-2010 01:00:00 6.46 C 6.94 g/m*3 6.46 C 0 km/h
771 18-05-2010 02:00:00 6.1 C 6.79 g/m*3 6.1 C 0 km/h
772 18-05-2010 03:00:00 5.8 C 6.69 g/m*3 5.8 C 0 km/h
773 18-05-2010 04:00:00 6.28 C 6.93 g/m*3 6.28 C 0 km/h
774 18-05-2010 05:00:00 6.5 C 7 g/m*3 6.5 C 0 km/h
775 18-05-2010 06:00:00 7.14 C 7.21 g/m*3 7.14 C 0 km/h
Sensor: Nr:Datum:Temp:Abs-Feuchte:Windchill:Wind:
Aussen-T/F 776 18-05-2010 07:00:00 8.2 C 7.47 g/m*3 8.2 C 0 km/h
777 18-05-2010 08:00:00 9.04 C 6.68 g/m*3 9.04 C 0 km/h
778 18-05-2010 09:00:00 9.7 C 6.27 g/m*3 9.7 C 0 km/h
779 18-05-2010 10:00:00 10.84 C 5.79 g/m*3 10.84 C 0 km/h
780 18-05-2010 11:00:00 12.74 C 5.31 g/m*3 12.74 C 0 km/h
781 18-05-2010 12:00:00 14.04 C 4.93 g/m*3 14.04 C 0 km/h
782 18-05-2010 13:00:00 16.76 C 4.48 g/m*3 16.76 C 0 km/h
783 18-05-2010 14:00:00 15.6 C 4.2 g/m*3 15.6 C 0 km/h
784 18-05-2010 15:00:00 16.48 C 4.15 g/m*3 16.48 C 0 km/h
785 18-05-2010 16:00:00 17.74 C 3.51 g/m*3 17.74 C 0 km/h
786 18-05-2010 17:00:00 17.16 C 3.77 g/m*3 17.16 C 0 km/h
787 18-05-2010 18:00:00 17.18 C 3.95 g/m*3 17.18 C 0 km/h
788 18-05-2010 19:00:00 15.32 C 4.45 g/m*3 15.32 C 0 km/h
789 18-05-2010 20:00:00 14.26 C 4.83 g/m*3 14.26 C 0 km/h
790 18-05-2010 21:00:00 12.8 C 4.68 g/m*3 12.8 C 0 km/h
791 18-05-2010 22:00:00 11.44 C 4.57 g/m*3 11.44 C 0 km/h
792 18-05-2010 23:00:00 9.98 C 5.41 g/m*3 9.98 C 0 km/h
793 19-05-2010 00:00:00 9.32 C 5.76 g/m*3 9.32 C 0 km/h
794 19-05-2010 01:00:00 9.28 C 5.37 g/m*3 9.28 C 0 km/h
795 19-05-2010 02:00:00 9.06 C 5.33 g/m*3 9.06 C 0 km/h
796 19-05-2010 03:00:00 8.68 C 5.36 g/m*3 8.68 C 0 km/h
797 19-05-2010 04:00:00 8.16 C 5.55 g/m*3 8.16 C 0 km/h
798 19-05-2010 05:00:00 7.92 C 5.86 g/m*3 7.92 C 0 km/h
799 19-05-2010 06:00:00 8.04 C 5.93 g/m*3 8.04 C 0 km/h
800 19-05-2010 07:00:00 8.66 C 5.9 g/m*3 8.66 C 0 km/h
Sensor: Nr:Datum:Temp:Abs-Feuchte:Windchill:Wind:
Aussen-T/F 801 19-05-2010 08:00:00 9.14 C 5.62 g/m*3 9.14 C 0 km/h
802 19-05-2010 09:00:00 9.18 C 5.73 g/m*3 9.18 C 0 km/h
803 19-05-2010 10:00:00 9.62 C 5.72 g/m*3 9.62 C 0 km/h
804 19-05-2010 11:00:00 10.22 C 5.81 g/m*3 10.22 C 0 km/h
805 19-05-2010 12:00:00 11.02 C 5.83 g/m*3 11.02 C 0 km/h
806 19-05-2010 13:00:00 11.54 C 5.92 g/m*3 11.54 C 0 km/h
807 19-05-2010 14:00:00 11.46 C 6.78 g/m*3 11.46 C 0 km/h
808 19-05-2010 15:00:00 11.4 C 7.76 g/m*3 11.4 C 0 km/h
809 19-05-2010 16:00:00 10.78 C 8.08 g/m*3 10.78 C 0 km/h
810 19-05-2010 17:00:00 10.68 C 8.32 g/m*3 10.68 C 0 km/h
811 19-05-2010 18:00:00 11.14 C 8.22 g/m*3 11.14 C 0 km/h
812 19-05-2010 19:00:00 11.48 C 8.03 g/m*3 11.48 C 0 km/h
813 19-05-2010 20:00:00 11.76 C 7.73 g/m*3 11.76 C 0 km/h
814 19-05-2010 21:00:00 12.94 C 5.83 g/m*3 12.94 C 0 km/h
815 19-05-2010 22:00:00 13.06 C 5.69 g/m*3 13.06 C 0 km/h
816 19-05-2010 23:00:00 12.8 C 5.82 g/m*3 12.8 C 0 km/h
817 20-05-2010 00:00:00 12.9 C 5.21 g/m*3 12.9 C 0 km/h
818 20-05-2010 01:00:00 12.5 C 5.41 g/m*3 12.5 C 0 km/h
819 20-05-2010 02:00:00 11.9 C 5.61 g/m*3 11.9 C 0 km/h
820 20-05-2010 03:00:00 11.52 C 5.5 g/m*3 11.52 C 0 km/h
821 20-05-2010 04:00:00 11.16 C 5.3 g/m*3 11.16 C 0 km/h
822 20-05-2010 05:00:00 11.02 C 5.23 g/m*3 11.02 C 0 km/h
823 20-05-2010 06:00:00 11.02 C 5.19 g/m*3 11.02 C 0 km/h
824 20-05-2010 07:00:00 11.26 C 5.25 g/m*3 11.26 C 0 km/h
825 20-05-2010 08:00:00 11.14 C 5.35 g/m*3 11.14 C 0 km/h
Sensor: Nr:Datum:Temp:Abs-Feuchte:Windchill:Wind:
Aussen-T/F 826 20-05-2010 09:00:00 11.82 C 5.42 g/m*3 11.82 C 0 km/h
827 20-05-2010 10:00:00 12.3 C 5.39 g/m*3 12.3 C 0 km/h
828 20-05-2010 11:00:00 13.1 C 5.16 g/m*3 13.1 C 0 km/h
829 20-05-2010 12:00:00 14.04 C 4.89 g/m*3 14.04 C 0 km/h
830 20-05-2010 13:00:00 13.42 C 6.08 g/m*3 13.42 C 0 km/h
831 20-05-2010 14:00:00 13.58 C 7.59 g/m*3 13.58 C 0 km/h
832 20-05-2010 15:00:00 12.74 C 7.68 g/m*3 12.74 C 0 km/h
833 20-05-2010 16:00:00 12.76 C 7.71 g/m*3 12.76 C 0 km/h
834 20-05-2010 17:00:00 14 C 7.74 g/m*3 14 C 0 km/h
835 20-05-2010 18:00:00 14.7 C 7.88 g/m*3 14.7 C 0 km/h
836 20-05-2010 19:00:00 14.8 C 8.18 g/m*3 14.8 C 0 km/h
837 20-05-2010 20:00:00 14.36 C 7.92 g/m*3 14.36 C 0 km/h
838 20-05-2010 21:00:00 12.98 C 7.61 g/m*3 12.98 C 0 km/h
839 20-05-2010 22:00:00 12.3 C 7.21 g/m*3 12.3 C 0 km/h
840 20-05-2010 23:00:00 11.9 C 7.54 g/m*3 11.9 C 0 km/h
841 21-05-2010 00:00:00 10.64 C 7.3 g/m*3 10.64 C 0 km/h
842 21-05-2010 01:00:00 10.14 C 7.3 g/m*3 10.14 C 0 km/h
843 21-05-2010 02:00:00 9.5 C 7.26 g/m*3 9.5 C 0 km/h
844 21-05-2010 03:00:00 8.62 C 7.26 g/m*3 8.62 C 0 km/h
845 21-05-2010 04:00:00 7.88 C 7.12 g/m*3 7.88 C 0 km/h
846 21-05-2010 05:00:00 8.1 C 7.32 g/m*3 8.1 C 0 km/h
847 21-05-2010 06:00:00 8.08 C 7.43 g/m*3 8.08 C 0 km/h
848 21-05-2010 07:00:00 8.52 C 7.57 g/m*3 8.52 C 0 km/h
849 21-05-2010 08:00:00 9.2 C 7.55 g/m*3 9.2 C 0 km/h
850 21-05-2010 09:00:00 10.82 C 7.9 g/m*3 10.82 C 0 km/h
Sensor: Nr:Datum:Temp:Abs-Feuchte:Windchill:Wind:
Aussen-T/F 851 21-05-2010 10:00:00 14.58 C 8.3 g/m*3 14.58 C 0 km/h
852 21-05-2010 11:00:00 18.46 C 7.36 g/m*3 18.46 C 0 km/h
853 21-05-2010 12:00:00 20.54 C 6.03 g/m*3 20.54 C 0 km/h
854 21-05-2010 13:00:00 23.78 C 5.11 g/m*3 23.78 C 0 km/h
855 21-05-2010 14:00:00 23.88 C 5.23 g/m*3 23.88 C 0 km/h
856 21-05-2010 15:00:00 25.42 C 5.14 g/m*3 25.42 C 0 km/h
857 21-05-2010 16:00:00 25.28 C 4.86 g/m*3 25.28 C 0 km/h
858 21-05-2010 17:00:00 26.14 C 4.91 g/m*3 26.14 C 0 km/h
859 21-05-2010 18:00:00 25.94 C 5.05 g/m*3 25.94 C 0 km/h
860 21-05-2010 19:00:00 24.44 C 5.8 g/m*3 24.44 C 0 km/h
861 21-05-2010 20:00:00 22.66 C 6.25 g/m*3 22.66 C 0 km/h
862 21-05-2010 21:00:00 20.08 C 6.6 g/m*3 20.08 C 0 km/h
863 21-05-2010 22:00:00 18.08 C 7.16 g/m*3 18.08 C 0 km/h
864 21-05-2010 23:00:00 16.26 C 7.28 g/m*3 16.26 C 0 km/h
865 22-05-2010 00:00:00 15.08 C 7.63 g/m*3 15.08 C 0 km/h
866 22-05-2010 01:00:00 13.88 C 7.83 g/m*3 13.88 C 0 km/h
867 22-05-2010 02:00:00 12.74 C 7.92 g/m*3 12.74 C 0 km/h
868 22-05-2010 03:00:00 12 C 7.93 g/m*3 12 C 0 km/h
869 22-05-2010 04:00:00 11.06 C 7.9 g/m*3 11.06 C 0 km/h
870 22-05-2010 05:00:00 10.3 C 7.78 g/m*3 10.3 C 0 km/h
871 22-05-2010 06:00:00 9.96 C 7.74 g/m*3 9.96 C 0 km/h
872 22-05-2010 07:00:00 10.54 C 7.97 g/m*3 10.54 C 0 km/h
873 22-05-2010 08:00:00 12.32 C 7.96 g/m*3 12.32 C 0 km/h
874 22-05-2010 09:00:00 14 C 7.33 g/m*3 14 C 0 km/h
875 22-05-2010 10:00:00 16.16 C 6.3 g/m*3 16.16 C 0 km/h
Sensor: Nr:Datum:Temp:Abs-Feuchte:Windchill:Wind:
Aussen-T/F 876 22-05-2010 11:00:00 18.3 C 6.1 g/m*3 18.3 C 0 km/h
877 22-05-2010 12:00:00 21.18 C 5.85 g/m*3 21.18 C 0 km/h
878 22-05-2010 13:00:00 24.24 C 5.6 g/m*3 24.24 C 0 km/h
879 22-05-2010 14:00:00 23.96 C 5.6 g/m*3 23.96 C 0 km/h
880 22-05-2010 15:00:00 25.34 C 5.96 g/m*3 25.34 C 0 km/h
881 22-05-2010 16:00:00 25.9 C 6.15 g/m*3 25.9 C 0 km/h
882 22-05-2010 17:00:00 26.88 C 6.39 g/m*3 26.88 C 0 km/h
883 22-05-2010 18:00:00 26.56 C 6.53 g/m*3 26.56 C 0 km/h
884 22-05-2010 19:00:00 26.3 C 6.68 g/m*3 26.3 C 0 km/h
885 22-05-2010 20:00:00 24.48 C 7.24 g/m*3 24.48 C 0 km/h
886 22-05-2010 21:00:00 21.4 C 7.39 g/m*3 21.4 C 0 km/h
887 22-05-2010 22:00:00 19.34 C 7.12 g/m*3 19.34 C 0 km/h
888 22-05-2010 23:00:00 17.9 C 7.48 g/m*3 17.9 C 0 km/h
889 23-05-2010 00:00:00 16.64 C 7.84 g/m*3 16.64 C 0 km/h
890 23-05-2010 01:00:00 15.14 C 8.23 g/m*3 15.14 C 0 km/h
891 23-05-2010 02:00:00 14.14 C 8.39 g/m*3 14.14 C 0 km/h
892 23-05-2010 03:00:00 13.42 C 8.5 g/m*3 13.42 C 0 km/h
893 23-05-2010 04:00:00 12.58 C 8.49 g/m*3 12.58 C 0 km/h
894 23-05-2010 05:00:00 11.92 C 8.38 g/m*3 11.92 C 0 km/h
895 23-05-2010 06:00:00 11.52 C 8.34 g/m*3 11.52 C 0 km/h
896 23-05-2010 07:00:00 11.94 C 8.66 g/m*3 11.94 C 0 km/h
897 23-05-2010 08:00:00 13.84 C 9.24 g/m*3 13.84 C 0 km/h
898 23-05-2010 09:00:00 16.18 C 9.28 g/m*3 16.18 C 0 km/h
899 23-05-2010 10:00:00 19.2 C 9.33 g/m*3 19.2 C 0 km/h
900 23-05-2010 11:00:00 20.9 C 8.63 g/m*3 20.9 C 0 km/h
Sensor: Nr:Datum:Temp:Abs-Feuchte:Windchill:Wind:
Aussen-T/F 901 23-05-2010 12:00:00 23.64 C 7.03 g/m*3 23.64 C 0 km/h
902 23-05-2010 13:00:00 26.36 C 5.07 g/m*3 26.36 C 0 km/h
903 23-05-2010 14:00:00 26.1 C 5.63 g/m*3 26.1 C 0 km/h
904 23-05-2010 15:00:00 27.88 C 5.78 g/m*3 27.88 C 0 km/h
905 23-05-2010 16:00:00 28.74 C 5.66 g/m*3 28.74 C 0 km/h
906 23-05-2010 17:00:00 29.64 C 6.07 g/m*3 29.64 C 0 km/h
907 23-05-2010 18:00:00 28.82 C 6.6 g/m*3 28.82 C 0 km/h
908 23-05-2010 19:00:00 28.12 C 6.79 g/m*3 28.12 C 0 km/h
909 23-05-2010 20:00:00 26.48 C 7.35 g/m*3 26.48 C 0 km/h
910 23-05-2010 21:00:00 23.54 C 7.8 g/m*3 23.54 C 0 km/h
911 23-05-2010 22:00:00 21.36 C 8.49 g/m*3 21.36 C 0 km/h
912 23-05-2010 23:00:00 19.6 C 8.95 g/m*3 19.6 C 0 km/h
913 24-05-2010 00:00:00 17.84 C 9.19 g/m*3 17.84 C 0 km/h
914 24-05-2010 01:00:00 16.58 C 9.4 g/m*3 16.58 C 0 km/h
915 24-05-2010 02:00:00 15.46 C 9.44 g/m*3 15.46 C 0 km/h
916 24-05-2010 03:00:00 14.5 C 9.3 g/m*3 14.5 C 0 km/h
917 24-05-2010 04:00:00 13.82 C 9.19 g/m*3 13.82 C 0 km/h
918 24-05-2010 05:00:00 13.12 C 8.87 g/m*3 13.12 C 0 km/h
919 24-05-2010 06:00:00 12.74 C 8.95 g/m*3 12.74 C 0 km/h
920 24-05-2010 07:00:00 13.6 C 9.25 g/m*3 13.6 C 0 km/h
921 24-05-2010 08:00:00 14.88 C 9.52 g/m*3 14.88 C 0 km/h
922 24-05-2010 09:00:00 17.62 C 9.79 g/m*3 17.62 C 0 km/h
923 24-05-2010 10:00:00 21.1 C 9.51 g/m*3 21.1 C 0 km/h
924 24-05-2010 11:00:00 23.82 C 8.79 g/m*3 23.82 C 0 km/h
925 24-05-2010 12:00:00 26.18 C 7.23 g/m*3 26.18 C 0 km/h
Sensor: Nr:Datum:Temp:Abs-Feuchte:Windchill:Wind:
Aussen-T/F 926 24-05-2010 13:00:00 26.9 C 6.5 g/m*3 26.9 C 0 km/h
927 24-05-2010 14:00:00 28.28 C 6.41 g/m*3 28.28 C 0 km/h
928 24-05-2010 15:00:00 28.18 C 6.43 g/m*3 28.18 C 0 km/h
929 24-05-2010 16:00:00 27.62 C 6.5 g/m*3 27.62 C 0 km/h
930 24-05-2010 17:00:00 28.2 C 5.66 g/m*3 28.2 C 0 km/h
931 24-05-2010 18:00:00 28.58 C 5.67 g/m*3 28.58 C 0 km/h
932 24-05-2010 19:00:00 28.36 C 5.77 g/m*3 28.36 C 0 km/h
933 24-05-2010 20:00:00 26.64 C 6.61 g/m*3 26.64 C 0 km/h
934 24-05-2010 21:00:00 23.78 C 7.22 g/m*3 23.78 C 0 km/h
935 24-05-2010 22:00:00 21.86 C 7.93 g/m*3 21.86 C 0 km/h
936 24-05-2010 23:00:00 19.86 C 8.3 g/m*3 19.86 C 0 km/h
937 25-05-2010 00:00:00 18.5 C 8.54 g/m*3 18.5 C 0 km/h
938 25-05-2010 01:00:00 17.18 C 8.86 g/m*3 17.18 C 0 km/h
939 25-05-2010 02:00:00 16 C 8.94 g/m*3 16 C 0 km/h
940 25-05-2010 03:00:00 14.96 C 9.11 g/m*3 14.96 C 0 km/h
941 25-05-2010 04:00:00 14.18 C 9.17 g/m*3 14.18 C 0 km/h
942 25-05-2010 05:00:00 13.9 C 9.11 g/m*3 13.9 C 0 km/h
943 25-05-2010 06:00:00 14.58 C 9.22 g/m*3 14.58 C 0 km/h
944 25-05-2010 07:00:00 15.6 C 9.12 g/m*3 15.6 C 0 km/h
945 25-05-2010 08:00:00 16.78 C 9.14 g/m*3 16.78 C 0 km/h
946 25-05-2010 09:00:00 18.62 C 8.03 g/m*3 18.62 C 0 km/h
947 25-05-2010 10:00:00 20.62 C 6.84 g/m*3 20.62 C 0 km/h
948 25-05-2010 11:00:00 21.64 C 6.46 g/m*3 21.64 C 0 km/h
949 25-05-2010 12:00:00 23.94 C 5.68 g/m*3 23.94 C 0 km/h
950 25-05-2010 13:00:00 26.72 C 5.32 g/m*3 26.72 C 0 km/h
Sensor: Nr:Datum:Temp:Abs-Feuchte:Windchill:Wind:
Aussen-T/F 951 25-05-2010 14:00:00 26.32 C 5.55 g/m*3 26.32 C 0 km/h
952 25-05-2010 15:00:00 26.9 C 5.73 g/m*3 26.9 C 0 km/h
953 25-05-2010 16:00:00 27.92 C 5.85 g/m*3 27.92 C 0 km/h
954 25-05-2010 17:00:00 28.06 C 6 g/m*3 28.06 C 0 km/h
955 25-05-2010 18:00:00 26.32 C 5.7 g/m*3 26.32 C 0 km/h
956 25-05-2010 19:00:00 24.46 C 5.94 g/m*3 24.46 C 0 km/h
957 25-05-2010 20:00:00 22.84 C 6.23 g/m*3 22.84 C 0 km/h
958 25-05-2010 21:00:00 21.18 C 6.89 g/m*3 21.18 C 0 km/h
959 25-05-2010 22:00:00 19.44 C 6.89 g/m*3 19.44 C 0 km/h
960 25-05-2010 23:00:00 18.84 C 6.84 g/m*3 18.84 C 0 km/h
961 26-05-2010 00:00:00 18.52 C 6.56 g/m*3 18.52 C 0 km/h
962 26-05-2010 01:00:00 16.86 C 6.94 g/m*3 16.86 C 0 km/h
963 26-05-2010 02:00:00 14.42 C 8.56 g/m*3 14.42 C 0 km/h
964 26-05-2010 03:00:00 14.6 C 8.43 g/m*3 14.6 C 0 km/h
965 26-05-2010 04:00:00 14.72 C 7.69 g/m*3 14.72 C 0 km/h
966 26-05-2010 05:00:00 14.66 C 7.36 g/m*3 14.66 C 0 km/h
967 26-05-2010 06:00:00 14.68 C 7.8 g/m*3 14.68 C 0 km/h
968 26-05-2010 07:00:00 15.68 C 6.66 g/m*3 15.68 C 0 km/h
969 26-05-2010 08:00:00 15.96 C 6.44 g/m*3 15.96 C 0 km/h
970 26-05-2010 09:00:00 16.68 C 6.47 g/m*3 16.68 C 0 km/h
971 26-05-2010 10:00:00 15.12 C 8.11 g/m*3 15.12 C 0 km/h
972 26-05-2010 11:00:00 13.24 C 9.6 g/m*3 13.24 C 0 km/h
973 26-05-2010 12:00:00 13.1 C 9.86 g/m*3 13.1 C 0 km/h
974 26-05-2010 13:00:00 12.88 C 9.77 g/m*3 12.88 C 0 km/h
975 26-05-2010 14:00:00 15.2 C 9.73 g/m*3 15.2 C 0 km/h
Sensor: Nr:Datum:Temp:Abs-Feuchte:Windchill:Wind:
Aussen-T/F 976 26-05-2010 15:00:00 14.76 C 9.83 g/m*3 14.76 C 0 km/h
977 26-05-2010 16:00:00 18.96 C 10.63 g/m*3 18.96 C 0 km/h
978 26-05-2010 17:00:00 16.38 C 11.38 g/m*3 16.38 C 0 km/h
979 26-05-2010 18:00:00 17.22 C 12.64 g/m*3 17.22 C 0 km/h
980 26-05-2010 19:00:00 18.98 C 12.83 g/m*3 18.98 C 0 km/h
981 26-05-2010 20:00:00 16.86 C 11.77 g/m*3 16.86 C 0 km/h
982 26-05-2010 21:00:00 15.2 C 10.64 g/m*3 15.2 C 0 km/h
983 26-05-2010 22:00:00 12.86 C 8.84 g/m*3 12.86 C 0 km/h
984 26-05-2010 23:00:00 12.52 C 8.5 g/m*3 12.52 C 0 km/h
985 27-05-2010 00:00:00 12.36 C 8.39 g/m*3 12.36 C 0 km/h
986 27-05-2010 01:00:00 11.9 C 8.15 g/m*3 11.9 C 0 km/h
987 27-05-2010 02:00:00 11.24 C 8.11 g/m*3 11.24 C 0 km/h
988 27-05-2010 03:00:00 11.16 C 7.97 g/m*3 11.16 C 0 km/h
989 27-05-2010 04:00:00 10.88 C 7.85 g/m*3 10.88 C 0 km/h
990 27-05-2010 05:00:00 10.74 C 7.78 g/m*3 10.74 C 0 km/h
991 27-05-2010 06:00:00 11 C 7.85 g/m*3 11 C 0 km/h
992 27-05-2010 07:00:00 11.3 C 7.96 g/m*3 11.3 C 0 km/h
993 27-05-2010 08:00:00 11.72 C 8.06 g/m*3 11.72 C 0 km/h
994 27-05-2010 09:00:00 12.02 C 7.79 g/m*3 12.02 C 0 km/h
995 27-05-2010 10:00:00 13.04 C 7.55 g/m*3 13.04 C 0 km/h
996 27-05-2010 11:00:00 14.8 C 7.12 g/m*3 14.8 C 0 km/h
997 27-05-2010 12:00:00 16.14 C 6.73 g/m*3 16.14 C 0 km/h
998 27-05-2010 13:00:00 17.44 C 6.57 g/m*3 17.44 C 0 km/h
999 27-05-2010 14:00:00 20.62 C 6.63 g/m*3 20.62 C 0 km/h
1000 27-05-2010 15:00:00 22.3 C 6.4 g/m*3 22.3 C 0 km/h
Sensor: Nr:Datum:Temp:Abs-Feuchte:Windchill:Wind:
Aussen-T/F 1001 27-05-2010 16:00:00 23.36 C 6.46 g/m*3 23.36 C 0 km/h
1002 27-05-2010 17:00:00 23.44 C 6.66 g/m*3 23.44 C 0 km/h
1003 27-05-2010 18:00:00 23.08 C 7.14 g/m*3 23.08 C 0 km/h
1004 27-05-2010 19:00:00 20.84 C 8.35 g/m*3 20.84 C 0 km/h
1005 27-05-2010 20:00:00 18.04 C 8.9 g/m*3 18.04 C 0 km/h
1006 27-05-2010 21:00:00 15.78 C 9.55 g/m*3 15.78 C 0 km/h
1007 27-05-2010 22:00:00 16.06 C 9.27 g/m*3 16.06 C 0 km/h
1008 27-05-2010 23:00:00 15.56 C 9.71 g/m*3 15.56 C 0 km/h
1009 28-05-2010 00:00:00 15 C 9.64 g/m*3 15 C 0 km/h
1010 28-05-2010 01:00:00 15.14 C 9.16 g/m*3 15.14 C 0 km/h
1011 28-05-2010 02:00:00 14.86 C 9.23 g/m*3 14.86 C 0 km/h
1012 28-05-2010 03:00:00 14.78 C 9.16 g/m*3 14.78 C 0 km/h
1013 28-05-2010 04:00:00 14.36 C 9.2 g/m*3 14.36 C 0 km/h
1014 28-05-2010 05:00:00 13.7 C 9.88 g/m*3 13.7 C 0 km/h
1015 28-05-2010 06:00:00 13.62 C 10.11 g/m*3 13.62 C 0 km/h
1016 28-05-2010 07:00:00 13.98 C 10.48 g/m*3 13.98 C 0 km/h
1017 28-05-2010 08:00:00 14.36 C 10.58 g/m*3 14.36 C 0 km/h
1018 28-05-2010 09:00:00 15.12 C 9.71 g/m*3 15.12 C 0 km/h
1019 28-05-2010 10:00:00 15.64 C 8.56 g/m*3 15.64 C 0 km/h
1020 28-05-2010 11:00:00 17.2 C 7.26 g/m*3 17.2 C 0 km/h
1021 28-05-2010 12:00:00 18.4 C 7.14 g/m*3 18.4 C 0 km/h
1022 28-05-2010 13:00:00 20.24 C 6.62 g/m*3 20.24 C 0 km/h
1023 28-05-2010 14:00:00 19.4 C 6.21 g/m*3 19.4 C 0 km/h
1024 28-05-2010 15:00:00 21.72 C 5.46 g/m*3 21.72 C 0 km/h
1025 28-05-2010 16:00:00 23.06 C 4.37 g/m*3 23.06 C 0 km/h
Sensor: Nr:Datum:Temp:Abs-Feuchte:Windchill:Wind:
Aussen-T/F 1026 28-05-2010 17:00:00 23.2 C 4.16 g/m*3 23.2 C 0 km/h
1027 28-05-2010 18:00:00 22.62 C 4.1 g/m*3 22.62 C 0 km/h
1028 28-05-2010 19:00:00 22.14 C 4.66 g/m*3 22.14 C 0 km/h
1029 28-05-2010 20:00:00 19.68 C 4.99 g/m*3 19.68 C 0 km/h
1030 28-05-2010 21:00:00 17.54 C 5.35 g/m*3 17.54 C 0 km/h
1031 28-05-2010 22:00:00 15.56 C 5.94 g/m*3 15.56 C 0 km/h
1032 28-05-2010 23:00:00 14.06 C 6.22 g/m*3 14.06 C 0 km/h
1033 29-05-2010 00:00:00 12.86 C 6.63 g/m*3 12.86 C 0 km/h
1034 29-05-2010 01:00:00 11.92 C 6.77 g/m*3 11.92 C 0 km/h
1035 29-05-2010 02:00:00 10.82 C 6.95 g/m*3 10.82 C 0 km/h
1036 29-05-2010 03:00:00 9.98 C 7.02 g/m*3 9.98 C 0 km/h
1037 29-05-2010 04:00:00 9.7 C 7.08 g/m*3 9.7 C 0 km/h
1038 29-05-2010 05:00:00 9.48 C 7 g/m*3 9.48 C 0 km/h
1039 29-05-2010 06:00:00 9.78 C 7.13 g/m*3 9.78 C 0 km/h
1040 29-05-2010 07:00:00 10.18 C 7.15 g/m*3 10.18 C 0 km/h
1041 29-05-2010 08:00:00 11.24 C 7.19 g/m*3 11.24 C 0 km/h
1042 29-05-2010 09:00:00 12.86 C 7.06 g/m*3 12.86 C 0 km/h
1043 29-05-2010 10:00:00 16.9 C 7.11 g/m*3 16.9 C 0 km/h
1044 29-05-2010 11:00:00 18.66 C 7.32 g/m*3 18.66 C 0 km/h
1045 29-05-2010 12:00:00 21.72 C 5.46 g/m*3 21.72 C 0 km/h
1046 29-05-2010 13:00:00 24.84 C 4.84 g/m*3 24.84 C 0 km/h
1047 29-05-2010 14:00:00 23.42 C 5.31 g/m*3 23.42 C 0 km/h
1048 29-05-2010 15:00:00 23.02 C 5.35 g/m*3 23.02 C 0 km/h
1049 29-05-2010 16:00:00 24.42 C 4.99 g/m*3 24.42 C 0 km/h
1050 29-05-2010 17:00:00 23.96 C 5.95 g/m*3 23.96 C 0 km/h
Sensor: Nr:Datum:Temp:Abs-Feuchte:Windchill:Wind:
Aussen-T/F 1051 29-05-2010 18:00:00 21.7 C 6.03 g/m*3 21.7 C 0 km/h
1052 29-05-2010 19:00:00 20.66 C 5.35 g/m*3 20.66 C 0 km/h
1053 29-05-2010 20:00:00 19.3 C 5.97 g/m*3 19.3 C 0 km/h
1054 29-05-2010 21:00:00 17.06 C 6.83 g/m*3 17.06 C 0 km/h
1055 29-05-2010 22:00:00 13.96 C 9.07 g/m*3 13.96 C 0 km/h
1056 29-05-2010 23:00:00 13.72 C 8.92 g/m*3 13.72 C 0 km/h
1057 30-05-2010 00:00:00 13.38 C 9.36 g/m*3 13.38 C 0 km/h
1058 30-05-2010 01:00:00 13.2 C 9.48 g/m*3 13.2 C 0 km/h
1059 30-05-2010 02:00:00 12.9 C 10.03 g/m*3 12.9 C 0 km/h
1060 30-05-2010 03:00:00 12.9 C 10.28 g/m*3 12.9 C 0 km/h
1061 30-05-2010 04:00:00 12.8 C 10.28 g/m*3 12.8 C 0 km/h
1062 30-05-2010 05:00:00 12.96 C 10.25 g/m*3 12.96 C 0 km/h
1063 30-05-2010 06:00:00 13.36 C 10.25 g/m*3 13.36 C 0 km/h
1064 30-05-2010 07:00:00 13.8 C 10.44 g/m*3 13.8 C 0 km/h
1065 30-05-2010 08:00:00 14.66 C 10.07 g/m*3 14.66 C 0 km/h
1066 30-05-2010 09:00:00 15.62 C 10.01 g/m*3 15.62 C 0 km/h
1067 30-05-2010 10:00:00 14.98 C 10.19 g/m*3 14.98 C 0 km/h
1068 30-05-2010 11:00:00 17.44 C 9.15 g/m*3 17.44 C 0 km/h
1069 30-05-2010 12:00:00 18 C 8.11 g/m*3 18 C 0 km/h
1070 30-05-2010 13:00:00 17.94 C 7.56 g/m*3 17.94 C 0 km/h
1071 30-05-2010 14:00:00 18 C 8.23 g/m*3 18 C 0 km/h
1072 30-05-2010 15:00:00 19.18 C 7.71 g/m*3 19.18 C 0 km/h
1073 30-05-2010 16:00:00 19.4 C 6.91 g/m*3 19.4 C 0 km/h
1074 30-05-2010 17:00:00 16.3 C 8.35 g/m*3 16.3 C 0 km/h
1075 30-05-2010 18:00:00 14.42 C 9.6 g/m*3 14.42 C 0 km/h
Sensor: Nr:Datum:Temp:Abs-Feuchte:Windchill:Wind:
Aussen-T/F 1076 30-05-2010 19:00:00 13.16 C 9.51 g/m*3 13.16 C 0 km/h
1077 30-05-2010 20:00:00 12.46 C 7.33 g/m*3 12.46 C 0 km/h
1078 30-05-2010 21:00:00 11.74 C 6.63 g/m*3 11.74 C 0 km/h
1079 30-05-2010 22:00:00 11.14 C 6.14 g/m*3 11.14 C 0 km/h
1080 30-05-2010 23:00:00 10.6 C 5.76 g/m*3 10.6 C 0 km/h
1081 31-05-2010 00:00:00 9.88 C 5.86 g/m*3 9.88 C 0 km/h
1082 31-05-2010 01:00:00 9.84 C 6.18 g/m*3 9.84 C 0 km/h
1083 31-05-2010 02:00:00 8.94 C 7.5 g/m*3 8.94 C 0 km/h
1084 31-05-2010 03:00:00 8.62 C 7.74 g/m*3 8.62 C 0 km/h
1085 31-05-2010 04:00:00 8.52 C 7.71 g/m*3 8.52 C 0 km/h
1086 31-05-2010 05:00:00 8.54 C 7.7 g/m*3 8.54 C 0 km/h
1087 31-05-2010 06:00:00 8.72 C 7.9 g/m*3 8.72 C 0 km/h
1088 31-05-2010 07:00:00 8.94 C 8.1 g/m*3 8.94 C 0 km/h
1089 31-05-2010 08:00:00 9.88 C 8.5 g/m*3 9.88 C 0 km/h
1090 31-05-2010 09:00:00 10.8 C 8.38 g/m*3 10.8 C 0 km/h
1091 31-05-2010 10:00:00 11.06 C 8.34 g/m*3 11.06 C 0 km/h
1092 31-05-2010 11:00:00 11.96 C 8.36 g/m*3 11.96 C 0 km/h
1093 31-05-2010 12:00:00 13.78 C 7.64 g/m*3 13.78 C 0 km/h
1094 31-05-2010 13:00:00 14.32 C 7.33 g/m*3 14.32 C 0 km/h
1095 31-05-2010 14:00:00 14.96 C 7.32 g/m*3 14.96 C 0 km/h
1096 31-05-2010 15:00:00 14.76 C 7.56 g/m*3 14.76 C 0 km/h
1097 31-05-2010 16:00:00 13.96 C 8.09 g/m*3 13.96 C 0 km/h
1098 31-05-2010 17:00:00 14.18 C 7.93 g/m*3 14.18 C 0 km/h
1099 31-05-2010 18:00:00 13.1 C 8.7 g/m*3 13.1 C 0 km/h
1100 31-05-2010 19:00:00 12.7 C 9.24 g/m*3 12.7 C 0 km/h
Sensor: Nr:Datum:Temp:Abs-Feuchte:Windchill:Wind:
Aussen-T/F 1101 31-05-2010 20:00:00 12.48 C 9.51 g/m*3 12.48 C 0 km/h
1102 31-05-2010 21:00:00 12.5 C 9.54 g/m*3 12.5 C 0 km/h
1103 31-05-2010 22:00:00 12.54 C 9.77 g/m*3 12.54 C 0 km/h
1104 31-05-2010 23:00:00 12.62 C 9.75 g/m*3 12.62 C 0 km/h
1105 01-06-2010 00:00:00 11.7 C 9.41 g/m*3 11.7 C 0 km/h
1106 01-06-2010 01:00:00 11.44 C 9.47 g/m*3 11.44 C 0 km/h
1107 01-06-2010 02:00:00 10.92 C 9.24 g/m*3 10.92 C 0 km/h
1108 01-06-2010 03:00:00 11.38 C 9.62 g/m*3 11.38 C 0 km/h
1109 01-06-2010 04:00:00 11.06 C 9.34 g/m*3 11.06 C 0 km/h
1110 01-06-2010 05:00:00 11.18 C 9.44 g/m*3 11.18 C 0 km/h
1111 01-06-2010 06:00:00 11.22 C 9.3 g/m*3 11.22 C 0 km/h
1112 01-06-2010 07:00:00 12.04 C 9.34 g/m*3 12.04 C 0 km/h
1113 01-06-2010 08:00:00 13.68 C 9.32 g/m*3 13.68 C 0 km/h
1114 01-06-2010 09:00:00 15 C 8.92 g/m*3 15 C 0 km/h
1115 01-06-2010 10:00:00 15.08 C 8.63 g/m*3 15.08 C 0 km/h
1116 01-06-2010 11:00:00 17.08 C 8.17 g/m*3 17.08 C 0 km/h
1117 01-06-2010 12:00:00 19.42 C 7.22 g/m*3 19.42 C 0 km/h
1118 01-06-2010 13:00:00 20.58 C 6.69 g/m*3 20.58 C 0 km/h
1119 01-06-2010 14:00:00 20.98 C 6.37 g/m*3 20.98 C 0 km/h
1120 01-06-2010 15:00:00 22.14 C 5.36 g/m*3 22.14 C 0 km/h
1121 01-06-2010 16:00:00 22.8 C 4.96 g/m*3 22.8 C 0 km/h
1122 01-06-2010 17:00:00 22.5 C 5.27 g/m*3 22.5 C 0 km/h
1123 01-06-2010 18:00:00 20.56 C 5.11 g/m*3 20.56 C 0 km/h
1124 01-06-2010 19:00:00 19.54 C 6.09 g/m*3 19.54 C 0 km/h
1125 01-06-2010 20:00:00 18.2 C 7.06 g/m*3 18.2 C 0 km/h
Sensor: Nr:Datum:Temp:Abs-Feuchte:Windchill:Wind:
Aussen-T/F 1126 01-06-2010 21:00:00 16.16 C 7.1 g/m*3 16.16 C 0 km/h
1127 01-06-2010 22:00:00 15.04 C 7.38 g/m*3 15.04 C 0 km/h
1128 01-06-2010 23:00:00 14.74 C 7.75 g/m*3 14.74 C 0 km/h
1129 02-06-2010 00:00:00 14.44 C 8.35 g/m*3 14.44 C 0 km/h
1130 02-06-2010 01:00:00 14.22 C 8.39 g/m*3 14.22 C 0 km/h
1131 02-06-2010 02:00:00 13.58 C 8.7 g/m*3 13.58 C 0 km/h
1132 02-06-2010 03:00:00 13.34 C 8.8 g/m*3 13.34 C 0 km/h
1133 02-06-2010 04:00:00 13.36 C 8.4 g/m*3 13.36 C 0 km/h
1134 02-06-2010 05:00:00 13.3 C 8.39 g/m*3 13.3 C 0 km/h
1135 02-06-2010 06:00:00 13.28 C 8.56 g/m*3 13.28 C 0 km/h
1136 02-06-2010 07:00:00 13.84 C 8.58 g/m*3 13.84 C 0 km/h
1137 02-06-2010 08:00:00 15.1 C 8.15 g/m*3 15.1 C 0 km/h
1138 02-06-2010 09:00:00 15.08 C 7.73 g/m*3 15.08 C 0 km/h
1139 02-06-2010 10:00:00 17.56 C 6.49 g/m*3 17.56 C 0 km/h
1140 02-06-2010 11:00:00 19.3 C 6 g/m*3 19.3 C 0 km/h
1141 02-06-2010 12:00:00 21.86 C 5.31 g/m*3 21.86 C 0 km/h
1142 02-06-2010 13:00:00 23.68 C 4.61 g/m*3 23.68 C 0 km/h
1143 02-06-2010 14:00:00 23.5 C 4.44 g/m*3 23.5 C 0 km/h
1144 02-06-2010 15:00:00 22.58 C 5.58 g/m*3 22.58 C 0 km/h
1145 02-06-2010 16:00:00 21.08 C 6.74 g/m*3 21.08 C 0 km/h
1146 02-06-2010 17:00:00 20.44 C 7.09 g/m*3 20.44 C 0 km/h
1147 02-06-2010 18:00:00 21.46 C 7.07 g/m*3 21.46 C 0 km/h
1148 02-06-2010 19:00:00 20.68 C 7.37 g/m*3 20.68 C 0 km/h
1149 02-06-2010 20:00:00 19.78 C 7.61 g/m*3 19.78 C 0 km/h
1150 02-06-2010 21:00:00 18.34 C 7.96 g/m*3 18.34 C 0 km/h
Sensor: Nr:Datum:Temp:Abs-Feuchte:Windchill:Wind:
Aussen-T/F 1151 02-06-2010 22:00:00 17.725 C 8.27 g/m*3 17.73 C 0 km/h
1152 02-06-2010 23:00:00 16.44 C 8.39 g/m*3 16.44 C 0 km/h
1153 03-06-2010 00:00:00 15.62 C 8.49 g/m*3 15.62 C 0 km/h
1154 03-06-2010 01:00:00 14.96 C 8.7 g/m*3 14.96 C 0 km/h
1155 03-06-2010 02:00:00 14.42 C 8.69 g/m*3 14.42 C 0 km/h
1156 03-06-2010 03:00:00 14.02 C 8.53 g/m*3 14.02 C 0 km/h
1157 03-06-2010 04:00:00 13.2 C 8.36 g/m*3 13.2 C 0 km/h
1158 03-06-2010 05:00:00 12.7 C 8.33 g/m*3 12.7 C 0 km/h
1159 03-06-2010 06:00:00 12.6 C 8.36 g/m*3 12.6 C 0 km/h
1160 03-06-2010 07:00:00 13.08 C 8.3 g/m*3 13.08 C 0 km/h
1161 03-06-2010 08:00:00 13.98 C 7.93 g/m*3 13.98 C 0 km/h
1162 03-06-2010 09:00:00 15.94 C 7.44 g/m*3 15.94 C 0 km/h
1163 03-06-2010 10:00:00 18.62 C 6.95 g/m*3 18.62 C 0 km/h
1164 03-06-2010 11:00:00 21.14 C 6.24 g/m*3 21.14 C 0 km/h
1165 03-06-2010 12:00:00 24.16 C 5.62 g/m*3 24.16 C 0 km/h
1166 03-06-2010 13:00:00 26.36 C 5.27 g/m*3 26.36 C 0 km/h
1167 03-06-2010 14:00:00 25.98 C 4.86 g/m*3 25.98 C 0 km/h
1168 03-06-2010 15:00:00 27.94 C 5.42 g/m*3 27.94 C 0 km/h
1169 03-06-2010 16:00:00 29.48 C 5.9 g/m*3 29.48 C 0 km/h
1170 03-06-2010 17:00:00 29.98 C 6.06 g/m*3 29.98 C 0 km/h
1171 03-06-2010 18:00:00 28.98 C 5.74 g/m*3 28.98 C 0 km/h
1172 03-06-2010 19:00:00 29.08 C 5.77 g/m*3 29.08 C 0 km/h
1173 03-06-2010 20:00:00 27 C 5.35 g/m*3 27 C 0 km/h
1174 03-06-2010 21:00:00 23.74 C 6.6 g/m*3 23.74 C 0 km/h
1175 03-06-2010 22:00:00 20.16 C 6.45 g/m*3 20.16 C 0 km/h
Sensor: Nr:Datum:Temp:Abs-Feuchte:Windchill:Wind:
Aussen-T/F 1176 03-06-2010 23:00:00 18.64 C 6.57 g/m*3 18.64 C 0 km/h
1177 04-06-2010 00:00:00 17.44 C 6.86 g/m*3 17.44 C 0 km/h
1178 04-06-2010 01:00:00 15.9 C 7.04 g/m*3 15.9 C 0 km/h
1179 04-06-2010 02:00:00 14.64 C 7.23 g/m*3 14.64 C 0 km/h
1180 04-06-2010 03:00:00 13.64 C 7.43 g/m*3 13.64 C 0 km/h
1181 04-06-2010 04:00:00 12.78 C 7.61 g/m*3 12.78 C 0 km/h
1182 04-06-2010 05:00:00 12.12 C 7.6 g/m*3 12.12 C 0 km/h
1183 04-06-2010 06:00:00 11.94 C 7.84 g/m*3 11.94 C 0 km/h
1184 04-06-2010 07:00:00 12.44 C 8.04 g/m*3 12.44 C 0 km/h
1185 04-06-2010 08:00:00 13.72 C 8.28 g/m*3 13.72 C 0 km/h
1186 04-06-2010 09:00:00 16.78 C 8.37 g/m*3 16.78 C 0 km/h
1187 04-06-2010 10:00:00 20.06 C 8.12 g/m*3 20.06 C 0 km/h
1188 04-06-2010 11:00:00 22.1 C 7.18 g/m*3 22.1 C 0 km/h
1189 04-06-2010 12:00:00 25.82 C 5.88 g/m*3 25.82 C 0 km/h
1190 04-06-2010 13:00:00 28.98 C 5.91 g/m*3 28.98 C 0 km/h
1191 04-06-2010 14:00:00 27.9 C 5.68 g/m*3 27.9 C 0 km/h
1192 04-06-2010 15:00:00 29.14 C 5.79 g/m*3 29.14 C 0 km/h
1193 04-06-2010 16:00:00 30.38 C 6.19 g/m*3 30.38 C 0 km/h
1194 04-06-2010 17:00:00 31.04 C 6.41 g/m*3 31.04 C 0 km/h
1195 04-06-2010 18:00:00 31.88 C 6.71 g/m*3 31.88 C 0 km/h
1196 04-06-2010 19:00:00 30.44 C 6.21 g/m*3 30.44 C 0 km/h
1197 04-06-2010 20:00:00 29.04 C 5.87 g/m*3 29.04 C 0 km/h
1198 04-06-2010 21:00:00 24.3 C 6.28 g/m*3 24.3 C 0 km/h
1199 04-06-2010 22:00:00 22.02 C 6.88 g/m*3 22.02 C 0 km/h
1200 04-06-2010 23:00:00 19.82 C 7.56 g/m*3 19.82 C 0 km/h
Sensor: Nr:Datum:Temp:Abs-Feuchte:Windchill:Wind:
Aussen-T/F 1201 05-06-2010 00:00:00 18.16 C 7.91 g/m*3 18.16 C 0 km/h
1202 05-06-2010 01:00:00 17.14 C 7.97 g/m*3 17.14 C 0 km/h
1203 05-06-2010 02:00:00 15.82 C 8.17 g/m*3 15.82 C 0 km/h
1204 05-06-2010 03:00:00 14.84 C 8.43 g/m*3 14.84 C 0 km/h
1205 05-06-2010 04:00:00 14.34 C 8.35 g/m*3 14.34 C 0 km/h
1206 05-06-2010 05:00:00 13.44 C 8.27 g/m*3 13.44 C 0 km/h
1207 05-06-2010 06:00:00 13.12 C 8.45 g/m*3 13.12 C 0 km/h
1208 05-06-2010 07:00:00 13.76 C 8.58 g/m*3 13.76 C 0 km/h
1209 05-06-2010 08:00:00 15.12 C 8.42 g/m*3 15.12 C 0 km/h
1210 05-06-2010 09:00:00 17.9 C 8.64 g/m*3 17.9 C 0 km/h
1211 05-06-2010 10:00:00 21.54 C 9 g/m*3 21.54 C 0 km/h
1212 05-06-2010 11:00:00 25.04 C 8.44 g/m*3 25.04 C 0 km/h
1213 05-06-2010 12:00:00 28.26 C 6.45 g/m*3 28.26 C 0 km/h
1214 05-06-2010 13:00:00 30.56 C 6.25 g/m*3 30.56 C 0 km/h
1215 05-06-2010 14:00:00 30.24 C 6.14 g/m*3 30.24 C 0 km/h
1216 05-06-2010 15:00:00 31.8 C 6.68 g/m*3 31.8 C 0 km/h
1217 05-06-2010 16:00:00 32.68 C 7 g/m*3 32.68 C 0 km/h
1218 05-06-2010 17:00:00 33.16 C 7.18 g/m*3 33.16 C 0 km/h
1219 05-06-2010 18:00:00 33.08 C 7.15 g/m*3 33.08 C 0 km/h
1220 05-06-2010 19:00:00 31.78 C 7.07 g/m*3 31.78 C 0 km/h
1221 05-06-2010 20:00:00 29.04 C 7.83 g/m*3 29.04 C 0 km/h
1222 05-06-2010 21:00:00 25.36 C 7.75 g/m*3 25.36 C 0 km/h
1223 05-06-2010 22:00:00 23.38 C 8.28 g/m*3 23.38 C 0 km/h
1224 05-06-2010 23:00:00 21.88 C 8.29 g/m*3 21.88 C 0 km/h
1225 06-06-2010 00:00:00 20.7 C 8.64 g/m*3 20.7 C 0 km/h
Sensor: Nr:Datum:Temp:Abs-Feuchte:Windchill:Wind:
Aussen-T/F 1226 06-06-2010 01:00:00 19.28 C 8.95 g/m*3 19.28 C 0 km/h
1227 06-06-2010 02:00:00 18.18 C 9.31 g/m*3 18.18 C 0 km/h
1228 06-06-2010 03:00:00 17.36 C 9.23 g/m*3 17.36 C 0 km/h
1229 06-06-2010 04:00:00 16.4 C 9.13 g/m*3 16.4 C 0 km/h
1230 06-06-2010 05:00:00 15.46 C 9.2 g/m*3 15.46 C 0 km/h
1231 06-06-2010 06:00:00 15.32 C 9.41 g/m*3 15.32 C 0 km/h
1232 06-06-2010 07:00:00 16.06 C 9.52 g/m*3 16.06 C 0 km/h
1233 06-06-2010 08:00:00 17.32 C 9.32 g/m*3 17.32 C 0 km/h
1234 06-06-2010 09:00:00 19.54 C 8.98 g/m*3 19.54 C 0 km/h
1235 06-06-2010 10:00:00 23.1 C 9.38 g/m*3 23.1 C 0 km/h
1236 06-06-2010 11:00:00 27.14 C 9.6 g/m*3 27.14 C 0 km/h
1237 06-06-2010 12:00:00 29.56 C 8.71 g/m*3 29.56 C 0 km/h
1238 06-06-2010 13:00:00 30.1 C 8.23 g/m*3 30.1 C 0 km/h
1239 06-06-2010 14:00:00 30.16 C 8.32 g/m*3 30.16 C 0 km/h
1240 06-06-2010 15:00:00 31.12 C 7.73 g/m*3 31.12 C 0 km/h
1241 06-06-2010 16:00:00 23.76 C 10.65 g/m*3 23.76 C 0 km/h
1242 06-06-2010 17:00:00 18.7 C 13.61 g/m*3 18.7 C 0 km/h
1243 06-06-2010 18:00:00 19.2 C 14.21 g/m*3 19.2 C 0 km/h
1244 06-06-2010 19:00:00 19.22 C 14.23 g/m*3 19.22 C 0 km/h
1245 06-06-2010 20:00:00 19 C 14.15 g/m*3 19 C 0 km/h
1246 06-06-2010 21:00:00 18.6 C 13.85 g/m*3 18.6 C 0 km/h
1247 06-06-2010 22:00:00 18.34 C 13.67 g/m*3 18.34 C 0 km/h
1248 06-06-2010 23:00:00 18.3 C 13.51 g/m*3 18.3 C 0 km/h
1249 07-06-2010 00:00:00 17.92 C 13.45 g/m*3 17.92 C 0 km/h
1250 07-06-2010 01:00:00 17.82 C 13.77 g/m*3 17.82 C 0 km/h
Sensor: Nr:Datum:Temp:Abs-Feuchte:Windchill:Wind:
Aussen-T/F 1251 07-06-2010 02:00:00 17.36 C 12.48 g/m*3 17.36 C 0 km/h
1252 07-06-2010 03:00:00 15.46 C 10.07 g/m*3 15.46 C 0 km/h
1253 07-06-2010 04:00:00 14 C 9.09 g/m*3 14 C 0 km/h
1254 07-06-2010 05:00:00 13.6 C 9.16 g/m*3 13.6 C 0 km/h
1255 07-06-2010 06:00:00 14.4 C 9.37 g/m*3 14.4 C 0 km/h
1256 07-06-2010 07:00:00 15.04 C 9.18 g/m*3 15.04 C 0 km/h
1257 07-06-2010 08:00:00 15.54 C 9.33 g/m*3 15.54 C 0 km/h
1258 07-06-2010 09:00:00 17.08 C 9.22 g/m*3 17.08 C 0 km/h
1259 07-06-2010 10:00:00 18.32 C 8.95 g/m*3 18.32 C 0 km/h
1260 07-06-2010 11:00:00 19.46 C 8.71 g/m*3 19.46 C 0 km/h
1261 07-06-2010 12:00:00 21.94 C 7.93 g/m*3 21.94 C 0 km/h
1262 07-06-2010 13:00:00 23.78 C 7.26 g/m*3 23.78 C 0 km/h
1263 07-06-2010 14:00:00 24 C 6.96 g/m*3 24 C 0 km/h
1264 07-06-2010 15:00:00 24.3 C 6.64 g/m*3 24.3 C 0 km/h
1265 07-06-2010 16:00:00 25.22 C 6.39 g/m*3 25.22 C 0 km/h
1266 07-06-2010 17:00:00 24.66 C 5.96 g/m*3 24.66 C 0 km/h
1267 07-06-2010 18:00:00 25.92 C 5.28 g/m*3 25.92 C 0 km/h
1268 07-06-2010 19:00:00 25.44 C 5.29 g/m*3 25.44 C 0 km/h
1269 07-06-2010 20:00:00 23.08 C 5.99 g/m*3 23.08 C 0 km/h
1270 07-06-2010 21:00:00 20.04 C 6.79 g/m*3 20.04 C 0 km/h
1271 07-06-2010 22:00:00 18.48 C 7.33 g/m*3 18.48 C 0 km/h
1272 07-06-2010 23:00:00 17.26 C 8.08 g/m*3 17.26 C 0 km/h
1273 08-06-2010 00:00:00 16.34 C 8.48 g/m*3 16.34 C 0 km/h
1274 08-06-2010 01:00:00 15.22 C 8.5 g/m*3 15.22 C 0 km/h
1275 08-06-2010 02:00:00 14.26 C 8.36 g/m*3 14.26 C 0 km/h
Sensor: Nr:Datum:Temp:Abs-Feuchte:Windchill:Wind:
Aussen-T/F 1276 08-06-2010 03:00:00 13.84 C 8.36 g/m*3 13.84 C 0 km/h
1277 08-06-2010 04:00:00 13.2 C 8.22 g/m*3 13.2 C 0 km/h
1278 08-06-2010 05:00:00 13.4 C 8.42 g/m*3 13.4 C 0 km/h
1279 08-06-2010 06:00:00 13.66 C 8.62 g/m*3 13.66 C 0 km/h
1280 08-06-2010 07:00:00 14.36 C 8.8 g/m*3 14.36 C 0 km/h
1281 08-06-2010 08:00:00 16.5 C 8.9 g/m*3 16.5 C 0 km/h
1282 08-06-2010 09:00:00 19.18 C 8.96 g/m*3 19.18 C 0 km/h
1283 08-06-2010 10:00:00 21.92 C 8.73 g/m*3 21.92 C 0 km/h
1284 08-06-2010 11:00:00 25.46 C 8.08 g/m*3 25.46 C 0 km/h
1285 08-06-2010 12:00:00 27.92 C 7.2 g/m*3 27.92 C 0 km/h
1286 08-06-2010 13:00:00 27.58 C 6.75 g/m*3 27.58 C 0 km/h
1287 08-06-2010 14:00:00 26.28 C 8.21 g/m*3 26.28 C 0 km/h
1288 08-06-2010 15:00:00 26.36 C 8.4 g/m*3 26.36 C 0 km/h
1289 08-06-2010 16:00:00 22.62 C 8.49 g/m*3 22.62 C 0 km/h
1290 08-06-2010 17:00:00 20.84 C 10.49 g/m*3 20.84 C 0 km/h
1291 08-06-2010 18:00:00 23.06 C 10.15 g/m*3 23.06 C 0 km/h
1292 08-06-2010 19:00:00 23.2 C 10.15 g/m*3 23.2 C 0 km/h
1293 08-06-2010 20:00:00 22 C 10.44 g/m*3 22 C 0 km/h
1294 08-06-2010 21:00:00 20.6 C 10.85 g/m*3 20.6 C 0 km/h
1295 08-06-2010 22:00:00 18.56 C 12.29 g/m*3 18.56 C 0 km/h
1296 08-06-2010 23:00:00 18.08 C 12.5 g/m*3 18.08 C 0 km/h
1297 09-06-2010 00:00:00 17.74 C 12.55 g/m*3 17.74 C 0 km/h
1298 09-06-2010 01:00:00 17.68 C 12.33 g/m*3 17.68 C 0 km/h
1299 09-06-2010 02:00:00 17.08 C 11.86 g/m*3 17.08 C 0 km/h
1300 09-06-2010 03:00:00 17.06 C 12.08 g/m*3 17.06 C 0 km/h
Sensor: Nr:Datum:Temp:Abs-Feuchte:Windchill:Wind:
Aussen-T/F 1301 09-06-2010 04:00:00 16.96 C 12.07 g/m*3 16.96 C 0 km/h
1302 09-06-2010 05:00:00 16.84 C 12.01 g/m*3 16.84 C 0 km/h
1303 09-06-2010 06:00:00 17.06 C 11.97 g/m*3 17.06 C 0 km/h
1304 09-06-2010 07:00:00 18.2 C 12.25 g/m*3 18.2 C 0 km/h
1305 09-06-2010 08:00:00 19.94 C 12.33 g/m*3 19.94 C 0 km/h
1306 09-06-2010 09:00:00 21.8 C 11.86 g/m*3 21.8 C 0 km/h
1307 09-06-2010 10:00:00 23.72 C 11.43 g/m*3 23.72 C 0 km/h
1308 09-06-2010 11:00:00 25.56 C 10.17 g/m*3 25.56 C 0 km/h
1309 09-06-2010 12:00:00 26.4 C 8.91 g/m*3 26.4 C 0 km/h
1310 09-06-2010 13:00:00 26.72 C 8.97 g/m*3 26.72 C 0 km/h
1311 09-06-2010 14:00:00 28.74 C 9.12 g/m*3 28.74 C 0 km/h
1312 09-06-2010 15:00:00 29.54 C 8.16 g/m*3 29.54 C 0 km/h
1313 09-06-2010 16:00:00 29.34 C 7.55 g/m*3 29.34 C 0 km/h
1314 09-06-2010 17:00:00 27.86 C 9.18 g/m*3 27.86 C 0 km/h
1315 09-06-2010 18:00:00 26.7 C 9.26 g/m*3 26.7 C 0 km/h
1316 09-06-2010 19:00:00 26.16 C 9.73 g/m*3 26.16 C 0 km/h
1317 09-06-2010 20:00:00 24.78 C 9.41 g/m*3 24.78 C 0 km/h
1318 09-06-2010 21:00:00 23.4 C 9.21 g/m*3 23.4 C 0 km/h
1319 09-06-2010 22:00:00 22.96 C 8.61 g/m*3 22.96 C 0 km/h
1320 09-06-2010 23:00:00 19.26 C 12.51 g/m*3 19.26 C 0 km/h
1321 10-06-2010 00:00:00 18.04 C 13.36 g/m*3 18.04 C 0 km/h
1322 10-06-2010 01:00:00 17.6 C 13.59 g/m*3 17.6 C 0 km/h
1323 10-06-2010 02:00:00 17.18 C 13.43 g/m*3 17.18 C 0 km/h
1324 10-06-2010 03:00:00 16.98 C 13.21 g/m*3 16.98 C 0 km/h
1325 10-06-2010 04:00:00 17.06 C 13.1 g/m*3 17.06 C 0 km/h
Sensor: Nr:Datum:Temp:Abs-Feuchte:Windchill:Wind:
Aussen-T/F 1326 10-06-2010 05:00:00 16.88 C 13.16 g/m*3 16.88 C 0 km/h
1327 10-06-2010 06:00:00 17.28 C 13.54 g/m*3 17.28 C 0 km/h
1328 10-06-2010 07:00:00 17.9 C 13.86 g/m*3 17.9 C 0 km/h
1329 10-06-2010 08:00:00 18.96 C 14.34 g/m*3 18.96 C 0 km/h
1330 10-06-2010 09:00:00 19.46 C 14.27 g/m*3 19.46 C 0 km/h
1331 10-06-2010 10:00:00 21.34 C 13.71 g/m*3 21.34 C 0 km/h
1332 10-06-2010 11:00:00 22.12 C 12.82 g/m*3 22.12 C 0 km/h
1333 10-06-2010 12:00:00 24.96 C 11.35 g/m*3 24.96 C 0 km/h
1334 10-06-2010 13:00:00 27.26 C 10.76 g/m*3 27.26 C 0 km/h
1335 10-06-2010 14:00:00 27.86 C 12.09 g/m*3 27.86 C 0 km/h
1336 10-06-2010 15:00:00 28.3 C 11.83 g/m*3 28.3 C 0 km/h
1337 10-06-2010 16:00:00 26.8 C 13.24 g/m*3 26.8 C 0 km/h
1338 10-06-2010 17:00:00 28.94 C 12.71 g/m*3 28.94 C 0 km/h
1339 10-06-2010 18:00:00 30.9 C 11.01 g/m*3 30.9 C 0 km/h
1340 10-06-2010 19:00:00 31.24 C 11.73 g/m*3 31.24 C 0 km/h
1341 10-06-2010 20:00:00 28.08 C 13.93 g/m*3 28.08 C 0 km/h
1342 10-06-2010 21:00:00 24.96 C 12.82 g/m*3 24.96 C 0 km/h
1343 10-06-2010 22:00:00 24.24 C 12.13 g/m*3 24.24 C 0 km/h
1344 10-06-2010 23:00:00 22 C 11.49 g/m*3 22 C 0 km/h
1345 11-06-2010 00:00:00 18.88 C 12.27 g/m*3 18.88 C 0 km/h
1346 11-06-2010 01:00:00 17.84 C 13.51 g/m*3 17.84 C 0 km/h
1347 11-06-2010 02:00:00 17.58 C 13.72 g/m*3 17.58 C 0 km/h
1348 11-06-2010 03:00:00 17.4 C 13.75 g/m*3 17.4 C 0 km/h
1349 11-06-2010 04:00:00 17.1 C 13.54 g/m*3 17.1 C 0 km/h
1350 11-06-2010 05:00:00 17 C 13.57 g/m*3 17 C 0 km/h
Sensor: Nr:Datum:Temp:Abs-Feuchte:Windchill:Wind:
Aussen-T/F 1351 11-06-2010 06:00:00 16.98 C 13.61 g/m*3 16.98 C 0 km/h
1352 11-06-2010 07:00:00 16.88 C 13.65 g/m*3 16.88 C 0 km/h
1353 11-06-2010 08:00:00 17.04 C 13.23 g/m*3 17.04 C 0 km/h
1354 11-06-2010 09:00:00 19.32 C 13.65 g/m*3 19.32 C 0 km/h
1355 11-06-2010 10:00:00 20.7 C 11.77 g/m*3 20.7 C 0 km/h
1356 11-06-2010 11:00:00 22.76 C 10.83 g/m*3 22.76 C 0 km/h
1357 11-06-2010 12:00:00 25.64 C 8.69 g/m*3 25.64 C 0 km/h
1358 11-06-2010 13:00:00 27.58 C 7.71 g/m*3 27.58 C 0 km/h
1359 11-06-2010 14:00:00 27.12 C 7.62 g/m*3 27.12 C 0 km/h
1360 11-06-2010 15:00:00 28.68 C 7.34 g/m*3 28.68 C 0 km/h
1361 11-06-2010 16:00:00 29.92 C 6.88 g/m*3 29.92 C 0 km/h
1362 11-06-2010 17:00:00 30.58 C 6.32 g/m*3 30.58 C 0 km/h
1363 11-06-2010 18:00:00 30.74 C 6.31 g/m*3 30.74 C 0 km/h
1364 11-06-2010 19:00:00 30.7 C 6.49 g/m*3 30.7 C 0 km/h
1365 11-06-2010 20:00:00 28.08 C 7.27 g/m*3 28.08 C 0 km/h
1366 11-06-2010 21:00:00 24.48 C 8.49 g/m*3 24.48 C 0 km/h
1367 11-06-2010 22:00:00 23.54 C 8.05 g/m*3 23.54 C 0 km/h
1368 11-06-2010 23:00:00 22.86 C 7.67 g/m*3 22.86 C 0 km/h
1369 12-06-2010 00:00:00 21.9 C 8.88 g/m*3 21.9 C 0 km/h
1370 12-06-2010 01:00:00 20.94 C 9.78 g/m*3 20.94 C 0 km/h
1371 12-06-2010 02:00:00 20.24 C 9.99 g/m*3 20.24 C 0 km/h
1372 12-06-2010 03:00:00 19.74 C 10.14 g/m*3 19.74 C 0 km/h
1373 12-06-2010 04:00:00 19.32 C 10.56 g/m*3 19.32 C 0 km/h
1374 12-06-2010 05:00:00 18.72 C 11.12 g/m*3 18.72 C 0 km/h
1375 12-06-2010 06:00:00 18.58 C 11.16 g/m*3 18.58 C 0 km/h
Sensor: Nr:Datum:Temp:Abs-Feuchte:Windchill:Wind:
Aussen-T/F 1376 12-06-2010 07:00:00 18.38 C 12.16 g/m*3 18.38 C 0 km/h
1377 12-06-2010 08:00:00 18.78 C 12.42 g/m*3 18.78 C 0 km/h
1378 12-06-2010 09:00:00 19.28 C 11.6 g/m*3 19.28 C 0 km/h
1379 12-06-2010 10:00:00 20.34 C 10.44 g/m*3 20.34 C 0 km/h
1380 12-06-2010 11:00:00 22.44 C 9.59 g/m*3 22.44 C 0 km/h
1381 12-06-2010 12:00:00 23.3 C 8.7 g/m*3 23.3 C 0 km/h
1382 12-06-2010 13:00:00 24.16 C 8.47 g/m*3 24.16 C 0 km/h
1383 12-06-2010 14:00:00 24.48 C 8.45 g/m*3 24.48 C 0 km/h
1384 12-06-2010 15:00:00 22.98 C 9.24 g/m*3 22.98 C 0 km/h
1385 12-06-2010 16:00:00 17.04 C 10.24 g/m*3 17.04 C 0 km/h
1386 12-06-2010 17:00:00 14.22 C 9.85 g/m*3 14.22 C 0 km/h
1387 12-06-2010 18:00:00 14.62 C 10.12 g/m*3 14.62 C 0 km/h
1388 12-06-2010 19:00:00 14.82 C 9.79 g/m*3 14.82 C 0 km/h
1389 12-06-2010 20:00:00 15.34 C 9.53 g/m*3 15.34 C 0 km/h
1390 12-06-2010 21:00:00 14.98 C 9.4 g/m*3 14.98 C 0 km/h
1391 12-06-2010 22:00:00 14.5 C 9.43 g/m*3 14.5 C 0 km/h
1392 12-06-2010 23:00:00 13.28 C 8.98 g/m*3 13.28 C 0 km/h
1393 13-06-2010 00:00:00 12.68 C 8.92 g/m*3 12.68 C 0 km/h
1394 13-06-2010 01:00:00 13.3 C 9.4 g/m*3 13.3 C 0 km/h
1395 13-06-2010 02:00:00 13.14 C 9.47 g/m*3 13.14 C 0 km/h
1396 13-06-2010 03:00:00 12.16 C 9.3 g/m*3 12.16 C 0 km/h
1397 13-06-2010 04:00:00 11.32 C 8.7 g/m*3 11.32 C 0 km/h
1398 13-06-2010 05:00:00 10.82 C 8.33 g/m*3 10.82 C 0 km/h
1399 13-06-2010 06:00:00 10.5 C 8.22 g/m*3 10.5 C 0 km/h
1400 13-06-2010 07:00:00 11.38 C 8.65 g/m*3 11.38 C 0 km/h
Sensor: Nr:Datum:Temp:Abs-Feuchte:Windchill:Wind:
Aussen-T/F 1401 13-06-2010 08:00:00 13.16 C 8.18 g/m*3 13.16 C 0 km/h
1402 13-06-2010 09:00:00 15.84 C 7.64 g/m*3 15.84 C 0 km/h
1403 13-06-2010 10:00:00 17.76 C 6.3 g/m*3 17.76 C 0 km/h
1404 13-06-2010 11:00:00 19.54 C 5.92 g/m*3 19.54 C 0 km/h
1405 13-06-2010 12:00:00 22.84 C 5.3 g/m*3 22.84 C 0 km/h
1406 13-06-2010 13:00:00 24.8 C 4.87 g/m*3 24.8 C 0 km/h
1407 13-06-2010 14:00:00 24.12 C 4.91 g/m*3 24.12 C 0 km/h
1408 13-06-2010 15:00:00 24.62 C 4.69 g/m*3 24.62 C 0 km/h
1409 13-06-2010 16:00:00 25.02 C 4.61 g/m*3 25.02 C 0 km/h
1410 13-06-2010 17:00:00 26.06 C 4.89 g/m*3 26.06 C 0 km/h
1411 13-06-2010 18:00:00 26.44 C 4.99 g/m*3 26.44 C 0 km/h
1412 13-06-2010 19:00:00 25.06 C 4.85 g/m*3 25.06 C 0 km/h
1413 13-06-2010 20:00:00 23.9 C 5.24 g/m*3 23.9 C 0 km/h
1414 13-06-2010 21:00:00 19.64 C 6.36 g/m*3 19.64 C 0 km/h
1415 13-06-2010 22:00:00 17.64 C 6.46 g/m*3 17.64 C 0 km/h
1416 13-06-2010 23:00:00 16.28 C 6.93 g/m*3 16.28 C 0 km/h
1417 14-06-2010 00:00:00 15.44 C 7.48 g/m*3 15.44 C 0 km/h
1418 14-06-2010 01:00:00 14.52 C 7.37 g/m*3 14.52 C 0 km/h
1419 14-06-2010 02:00:00 13.46 C 7.68 g/m*3 13.46 C 0 km/h
1420 14-06-2010 03:00:00 12.66 C 7.86 g/m*3 12.66 C 0 km/h
1421 14-06-2010 04:00:00 11.98 C 7.86 g/m*3 11.98 C 0 km/h
1422 14-06-2010 05:00:00 11.48 C 7.65 g/m*3 11.48 C 0 km/h
1423 14-06-2010 06:00:00 11.28 C 7.82 g/m*3 11.28 C 0 km/h
1424 14-06-2010 07:00:00 11.7 C 8.22 g/m*3 11.7 C 0 km/h
1425 14-06-2010 08:00:00 13.38 C 8.43 g/m*3 13.38 C 0 km/h
Sensor: Nr:Datum:Temp:Abs-Feuchte:Windchill:Wind:
Aussen-T/F 1426 14-06-2010 09:00:00 16.82 C 8.04 g/m*3 16.82 C 0 km/h
1427 14-06-2010 10:00:00 19.96 C 7.34 g/m*3 19.96 C 0 km/h
1428 14-06-2010 11:00:00 22.92 C 6.51 g/m*3 22.92 C 0 km/h
1429 14-06-2010 12:00:00 25.18 C 5.53 g/m*3 25.18 C 0 km/h
1430 14-06-2010 13:00:00 26.34 C 5.21 g/m*3 26.34 C 0 km/h
1431 14-06-2010 14:00:00 27.44 C 5.27 g/m*3 27.44 C 0 km/h
1432 14-06-2010 15:00:00 26.9 C 5.32 g/m*3 26.9 C 0 km/h
1433 14-06-2010 16:00:00 29.82 C 6.01 g/m*3 29.82 C 0 km/h
1434 14-06-2010 17:00:00 29.14 C 5.79 g/m*3 29.14 C 0 km/h
1435 14-06-2010 18:00:00 28.48 C 5.58 g/m*3 28.48 C 0 km/h
1436 14-06-2010 19:00:00 25.2 C 6.29 g/m*3 25.2 C 0 km/h
1437 14-06-2010 20:00:00 23.26 C 6.34 g/m*3 23.26 C 0 km/h
1438 14-06-2010 21:00:00 20.06 C 6.14 g/m*3 20.06 C 0 km/h
1439 14-06-2010 22:00:00 18.62 C 7.43 g/m*3 18.62 C 0 km/h
1440 14-06-2010 23:00:00 18.36 C 8.57 g/m*3 18.36 C 0 km/h
1441 15-06-2010 00:00:00 17.08 C 8.72 g/m*3 17.08 C 0 km/h
1442 15-06-2010 01:00:00 16.02 C 9.03 g/m*3 16.02 C 0 km/h
1443 15-06-2010 02:00:00 15.26 C 9.22 g/m*3 15.26 C 0 km/h
1444 15-06-2010 03:00:00 14.64 C 9.31 g/m*3 14.64 C 0 km/h
1445 15-06-2010 04:00:00 13.76 C 9.18 g/m*3 13.76 C 0 km/h
1446 15-06-2010 05:00:00 13.48 C 9.32 g/m*3 13.48 C 0 km/h
1447 15-06-2010 06:00:00 13.58 C 9.45 g/m*3 13.58 C 0 km/h
1448 15-06-2010 07:00:00 14.92 C 9.83 g/m*3 14.92 C 0 km/h
1449 15-06-2010 08:00:00 16.68 C 9.11 g/m*3 16.68 C 0 km/h
1450 15-06-2010 09:00:00 17.7 C 8.36 g/m*3 17.7 C 0 km/h
Sensor: Nr:Datum:Temp:Abs-Feuchte:Windchill:Wind:
Aussen-T/F 1451 15-06-2010 10:00:00 19.72 C 7.96 g/m*3 19.72 C 0 km/h
1452 15-06-2010 11:00:00 20.7 C 8.03 g/m*3 20.7 C 0 km/h
1453 15-06-2010 12:00:00 21.26 C 8.18 g/m*3 21.26 C 0 km/h
1454 15-06-2010 13:00:00 21.56 C 7.72 g/m*3 21.56 C 0 km/h
1455 15-06-2010 14:00:00 22.5 C 6.87 g/m*3 22.5 C 0 km/h
1456 15-06-2010 15:00:00 23.76 C 6.01 g/m*3 23.76 C 0 km/h
1457 15-06-2010 16:00:00 24.42 C 5.84 g/m*3 24.42 C 0 km/h
1458 15-06-2010 17:00:00 24.16 C 5.62 g/m*3 24.16 C 0 km/h
1459 15-06-2010 18:00:00 24.32 C 5.63 g/m*3 24.32 C 0 km/h
1460 15-06-2010 19:00:00 23.36 C 5.45 g/m*3 23.36 C 0 km/h
1461 15-06-2010 20:00:00 21.58 C 5.68 g/m*3 21.58 C 0 km/h
1462 15-06-2010 21:00:00 19.18 C 5.63 g/m*3 19.18 C 0 km/h
1463 15-06-2010 22:00:00 17.525 C 5.49 g/m*3 17.52 C 0 km/h
1464 15-06-2010 23:00:00 16.16 C 5.92 g/m*3 16.16 C 0 km/h
1465 16-06-2010 00:00:00 14.68 C 6.04 g/m*3 14.68 C 0 km/h
1466 16-06-2010 01:00:00 13.4 C 6.21 g/m*3 13.4 C 0 km/h
1467 16-06-2010 02:00:00 12.7 C 6.14 g/m*3 12.7 C 0 km/h
1468 16-06-2010 03:00:00 11.82 C 6.09 g/m*3 11.82 C 0 km/h
1469 16-06-2010 04:00:00 11.2 C 6.14 g/m*3 11.2 C 0 km/h
1470 16-06-2010 05:00:00 10.66 C 6.19 g/m*3 10.66 C 0 km/h
1471 16-06-2010 06:00:00 10.7 C 6.44 g/m*3 10.7 C 0 km/h
1472 16-06-2010 07:00:00 11.82 C 6.79 g/m*3 11.82 C 0 km/h
1473 16-06-2010 08:00:00 13.7 C 6.35 g/m*3 13.7 C 0 km/h
1474 16-06-2010 09:00:00 15.96 C 5.74 g/m*3 15.96 C 0 km/h
1475 16-06-2010 10:00:00 18.16 C 5.21 g/m*3 18.16 C 0 km/h
Sensor: Nr:Datum:Temp:Abs-Feuchte:Windchill:Wind:
Aussen-T/F 1476 16-06-2010 11:00:00 20.48 C 4.59 g/m*3 20.48 C 0 km/h
1477 16-06-2010 12:00:00 23.42 C 4.42 g/m*3 23.42 C 0 km/h
1478 16-06-2010 13:00:00 26.24 C 4.93 g/m*3 26.24 C 0 km/h
1479 16-06-2010 14:00:00 25.56 C 4.75 g/m*3 25.56 C 0 km/h
1480 16-06-2010 15:00:00 26.16 C 4.91 g/m*3 26.16 C 0 km/h
1481 16-06-2010 16:00:00 27.08 C 5.17 g/m*3 27.08 C 0 km/h
1482 16-06-2010 17:00:00 26.94 C 5.13 g/m*3 26.94 C 0 km/h
1483 16-06-2010 18:00:00 26.62 C 5.04 g/m*3 26.62 C 0 km/h
1484 16-06-2010 19:00:00 25.08 C 4.81 g/m*3 25.08 C 0 km/h
1485 16-06-2010 20:00:00 22.84 C 5.25 g/m*3 22.84 C 0 km/h
1486 16-06-2010 21:00:00 20.76 C 5.85 g/m*3 20.76 C 0 km/h
1487 16-06-2010 22:00:00 18.58 C 5.75 g/m*3 18.58 C 0 km/h
1488 16-06-2010 23:00:00 17.32 C 5.9 g/m*3 17.32 C 0 km/h
1489 17-06-2010 00:00:00 16.12 C 5.98 g/m*3 16.12 C 0 km/h
1490 17-06-2010 01:00:00 15.38 C 6.06 g/m*3 15.38 C 0 km/h
1491 17-06-2010 02:00:00 14.76 C 6.14 g/m*3 14.76 C 0 km/h
1492 17-06-2010 03:00:00 14.48 C 6.11 g/m*3 14.48 C 0 km/h
1493 17-06-2010 04:00:00 14.14 C 5.94 g/m*3 14.14 C 0 km/h
1494 17-06-2010 05:00:00 13.62 C 5.84 g/m*3 13.62 C 0 km/h
1495 17-06-2010 06:00:00 13.84 C 6.14 g/m*3 13.84 C 0 km/h
1496 17-06-2010 07:00:00 15.14 C 6.29 g/m*3 15.14 C 0 km/h
1497 17-06-2010 08:00:00 16.54 C 6.62 g/m*3 16.54 C 0 km/h
1498 17-06-2010 09:00:00 14.46 C 8.06 g/m*3 14.46 C 0 km/h
1499 17-06-2010 10:00:00 13.04 C 9.62 g/m*3 13.04 C 0 km/h
1500 17-06-2010 11:00:00 13.8 C 10.51 g/m*3 13.8 C 0 km/h
Sensor: Nr:Datum:Temp:Abs-Feuchte:Windchill:Wind:
Aussen-T/F 1501 17-06-2010 12:00:00 13.86 C 10.69 g/m*3 13.86 C 0 km/h
1502 17-06-2010 13:00:00 13.78 C 10.81 g/m*3 13.78 C 0 km/h
1503 17-06-2010 14:00:00 14.36 C 11.32 g/m*3 14.36 C 0 km/h
1504 17-06-2010 15:00:00 16.58 C 12.22 g/m*3 16.58 C 0 km/h
1505 17-06-2010 16:00:00 16.92 C 12.04 g/m*3 16.92 C 0 km/h
1506 17-06-2010 17:00:00 16.7 C 11.82 g/m*3 16.7 C 0 km/h
1507 17-06-2010 18:00:00 17.12 C 11.69 g/m*3 17.12 C 0 km/h
1508 17-06-2010 19:00:00 16.62 C 11.97 g/m*3 16.62 C 0 km/h
1509 17-06-2010 20:00:00 15.82 C 11.81 g/m*3 15.82 C 0 km/h
1510 17-06-2010 21:00:00 15.46 C 11.74 g/m*3 15.46 C 0 km/h
1511 17-06-2010 22:00:00 15.06 C 11.61 g/m*3 15.06 C 0 km/h
1512 17-06-2010 23:00:00 14.46 C 11.29 g/m*3 14.46 C 0 km/h
1513 18-06-2010 00:00:00 13.8 C 10.91 g/m*3 13.8 C 0 km/h
1514 18-06-2010 01:00:00 14.04 C 11.12 g/m*3 14.04 C 0 km/h
1515 18-06-2010 02:00:00 13.76 C 10.93 g/m*3 13.76 C 0 km/h
1516 18-06-2010 03:00:00 13.48 C 10.72 g/m*3 13.48 C 0 km/h
1517 18-06-2010 04:00:00 12.5 C 10 g/m*3 12.5 C 0 km/h
1518 18-06-2010 05:00:00 12.1 C 9.76 g/m*3 12.1 C 0 km/h
1519 18-06-2010 06:00:00 12.18 C 9.79 g/m*3 12.18 C 0 km/h
1520 18-06-2010 07:00:00 12.74 C 9.86 g/m*3 12.74 C 0 km/h
1521 18-06-2010 08:00:00 13.64 C 9.84 g/m*3 13.64 C 0 km/h
1522 18-06-2010 09:00:00 15.48 C 9.74 g/m*3 15.48 C 0 km/h
1523 18-06-2010 10:00:00 16.56 C 9.33 g/m*3 16.56 C 0 km/h
1524 18-06-2010 11:00:00 16.18 C 8.93 g/m*3 16.18 C 0 km/h
1525 18-06-2010 12:00:00 15.46 C 8.81 g/m*3 15.46 C 0 km/h
Sensor: Nr:Datum:Temp:Abs-Feuchte:Windchill:Wind:
Aussen-T/F 1526 18-06-2010 13:00:00 15.84 C 8.58 g/m*3 15.84 C 0 km/h
1527 18-06-2010 14:00:00 14.86 C 8.49 g/m*3 14.86 C 0 km/h
1528 18-06-2010 15:00:00 14.94 C 8.41 g/m*3 14.94 C 0 km/h
1529 18-06-2010 16:00:00 15.38 C 8.32 g/m*3 15.38 C 0 km/h
1530 18-06-2010 17:00:00 19.16 C 7.27 g/m*3 19.16 C 0 km/h
1531 18-06-2010 18:00:00 21.46 C 6.92 g/m*3 21.46 C 0 km/h
1532 18-06-2010 19:00:00 19.52 C 7.23 g/m*3 19.52 C 0 km/h
1533 18-06-2010 20:00:00 17.82 C 7.63 g/m*3 17.82 C 0 km/h
1534 18-06-2010 21:00:00 15.02 C 9.53 g/m*3 15.02 C 0 km/h
1535 18-06-2010 22:00:00 14.86 C 9.54 g/m*3 14.86 C 0 km/h
1536 18-06-2010 23:00:00 14.8 C 7.52 g/m*3 14.8 C 0 km/h
1537 19-06-2010 00:00:00 14.4 C 6.9 g/m*3 14.4 C 0 km/h
1538 19-06-2010 01:00:00 13.6 C 7.13 g/m*3 13.6 C 0 km/h
1539 19-06-2010 02:00:00 12.56 C 6.84 g/m*3 12.56 C 0 km/h
1540 19-06-2010 03:00:00 12.08 C 6.68 g/m*3 12.08 C 0 km/h
1541 19-06-2010 04:00:00 10.94 C 6.56 g/m*3 10.94 C 0 km/h
1542 19-06-2010 05:00:00 11.14 C 6.58 g/m*3 11.14 C 0 km/h
1543 19-06-2010 06:00:00 11.5 C 6.82 g/m*3 11.5 C 0 km/h
1544 19-06-2010 07:00:00 11.86 C 6.7 g/m*3 11.86 C 0 km/h
1545 19-06-2010 08:00:00 11.96 C 6.46 g/m*3 11.96 C 0 km/h
1546 19-06-2010 09:00:00 12.48 C 6.61 g/m*3 12.48 C 0 km/h
1547 19-06-2010 10:00:00 12.22 C 6.63 g/m*3 12.22 C 0 km/h
1548 19-06-2010 11:00:00 14.74 C 6.26 g/m*3 14.74 C 0 km/h
1549 19-06-2010 12:00:00 16.28 C 5.38 g/m*3 16.28 C 0 km/h
1550 19-06-2010 13:00:00 16.96 C 5.98 g/m*3 16.96 C 0 km/h
Sensor: Nr:Datum:Temp:Abs-Feuchte:Windchill:Wind:
Aussen-T/F 1551 19-06-2010 14:00:00 18.26 C 5.02 g/m*3 18.26 C 0 km/h
1552 19-06-2010 15:00:00 18.32 C 4.82 g/m*3 18.32 C 0 km/h
1553 19-06-2010 16:00:00 18.72 C 4.97 g/m*3 18.72 C 0 km/h
1554 19-06-2010 17:00:00 17.66 C 5.12 g/m*3 17.66 C 0 km/h
1555 19-06-2010 18:00:00 16.34 C 5.48 g/m*3 16.34 C 0 km/h
1556 19-06-2010 19:00:00 16.68 C 5.37 g/m*3 16.68 C 0 km/h
1557 19-06-2010 20:00:00 14.7 C 5.72 g/m*3 14.7 C 0 km/h
1558 19-06-2010 21:00:00 14.14 C 6.18 g/m*3 14.14 C 0 km/h
1559 19-06-2010 22:00:00 12.92 C 6.07 g/m*3 12.92 C 0 km/h
1560 19-06-2010 23:00:00 12.08 C 6.23 g/m*3 12.08 C 0 km/h
1561 20-06-2010 00:00:00 10.92 C 6.35 g/m*3 10.92 C 0 km/h
1562 20-06-2010 01:00:00 10.46 C 5.96 g/m*3 10.46 C 0 km/h
1563 20-06-2010 02:00:00 9.64 C 6.06 g/m*3 9.64 C 0 km/h
1564 20-06-2010 03:00:00 9.46 C 6.57 g/m*3 9.46 C 0 km/h
1565 20-06-2010 04:00:00 9.2 C 6.98 g/m*3 9.2 C 0 km/h
1566 20-06-2010 05:00:00 9.34 C 7.12 g/m*3 9.34 C 0 km/h
1567 20-06-2010 06:00:00 10.08 C 7.31 g/m*3 10.08 C 0 km/h
1568 20-06-2010 07:00:00 10.44 C 7.38 g/m*3 10.44 C 0 km/h
1569 20-06-2010 08:00:00 10.58 C 8.09 g/m*3 10.58 C 0 km/h
1570 20-06-2010 09:00:00 12.48 C 8.02 g/m*3 12.48 C 0 km/h
1571 20-06-2010 10:00:00 13.54 C 7.25 g/m*3 13.54 C 0 km/h
1572 20-06-2010 11:00:00 13.44 C 6.95 g/m*3 13.44 C 0 km/h
1573 20-06-2010 12:00:00 15.26 C 6.51 g/m*3 15.26 C 0 km/h
1574 20-06-2010 13:00:00 16.36 C 6.4 g/m*3 16.36 C 0 km/h
1575 20-06-2010 14:00:00 16.52 C 5.88 g/m*3 16.52 C 0 km/h
Sensor: Nr:Datum:Temp:Abs-Feuchte:Windchill:Wind:
Aussen-T/F 1576 20-06-2010 15:00:00 17.86 C 5.88 g/m*3 17.86 C 0 km/h
1577 20-06-2010 16:00:00 16.74 C 5.7 g/m*3 16.74 C 0 km/h
1578 20-06-2010 17:00:00 16.32 C 5.78 g/m*3 16.32 C 0 km/h
1579 20-06-2010 18:00:00 16.32 C 6.25 g/m*3 16.32 C 0 km/h
1580 20-06-2010 19:00:00 15.68 C 6.01 g/m*3 15.68 C 0 km/h
1581 20-06-2010 20:00:00 15.24 C 6.17 g/m*3 15.24 C 0 km/h
1582 20-06-2010 21:00:00 14.58 C 6.67 g/m*3 14.58 C 0 km/h
1583 20-06-2010 22:00:00 13.78 C 6.88 g/m*3 13.78 C 0 km/h
1584 20-06-2010 23:00:00 12.64 C 6.92 g/m*3 12.64 C 0 km/h
1585 21-06-2010 00:00:00 11.5 C 7.07 g/m*3 11.5 C 0 km/h
1586 21-06-2010 01:00:00 10.94 C 7.02 g/m*3 10.94 C 0 km/h
1587 21-06-2010 02:00:00 10.28 C 6.98 g/m*3 10.28 C 0 km/h
1588 21-06-2010 03:00:00 9.64 C 6.81 g/m*3 9.64 C 0 km/h
1589 21-06-2010 04:00:00 9.16 C 6.86 g/m*3 9.16 C 0 km/h
1590 21-06-2010 05:00:00 8.68 C 6.89 g/m*3 8.68 C 0 km/h
1591 21-06-2010 06:00:00 8.62 C 7.14 g/m*3 8.62 C 0 km/h
1592 21-06-2010 07:00:00 10.1 C 7.34 g/m*3 10.1 C 0 km/h
1593 21-06-2010 08:00:00 12.54 C 6.92 g/m*3 12.54 C 0 km/h
1594 21-06-2010 09:00:00 13.74 C 6.1 g/m*3 13.74 C 0 km/h
1595 21-06-2010 10:00:00 13.76 C 5.73 g/m*3 13.76 C 0 km/h
1596 21-06-2010 11:00:00 14.68 C 5.38 g/m*3 14.68 C 0 km/h
1597 21-06-2010 12:00:00 15.72 C 5.28 g/m*3 15.72 C 0 km/h
1598 21-06-2010 13:00:00 16.7 C 5.14 g/m*3 16.7 C 0 km/h
1599 21-06-2010 14:00:00 18.62 C 4.68 g/m*3 18.62 C 0 km/h
1600 21-06-2010 15:00:00 18.66 C 4.57 g/m*3 18.66 C 0 km/h
Sensor: Nr:Datum:Temp:Abs-Feuchte:Windchill:Wind:
Aussen-T/F 1601 21-06-2010 16:00:00 20.76 C 4.52 g/m*3 20.76 C 0 km/h
1602 21-06-2010 17:00:00 19.58 C 4.62 g/m*3 19.58 C 0 km/h
1603 21-06-2010 18:00:00 18.32 C 4.95 g/m*3 18.32 C 0 km/h
1604 21-06-2010 19:00:00 17.54 C 5.14 g/m*3 17.54 C 0 km/h
1605 21-06-2010 20:00:00 16.82 C 6.16 g/m*3 16.82 C 0 km/h
1606 21-06-2010 21:00:00 15.24 C 6.19 g/m*3 15.24 C 0 km/h
1607 21-06-2010 22:00:00 13.74 C 6.22 g/m*3 13.74 C 0 km/h
1608 21-06-2010 23:00:00 13.32 C 6.48 g/m*3 13.32 C 0 km/h
1609 22-06-2010 00:00:00 12.34 C 6.62 g/m*3 12.34 C 0 km/h
1610 22-06-2010 01:00:00 12.24 C 7.01 g/m*3 12.24 C 0 km/h
1611 22-06-2010 02:00:00 12.02 C 7.06 g/m*3 12.02 C 0 km/h
1612 22-06-2010 03:00:00 11.82 C 7.29 g/m*3 11.82 C 0 km/h
1613 22-06-2010 04:00:00 11.48 C 7.39 g/m*3 11.48 C 0 km/h
1614 22-06-2010 05:00:00 11.44 C 7.49 g/m*3 11.44 C 0 km/h
1615 22-06-2010 06:00:00 11.58 C 7.62 g/m*3 11.58 C 0 km/h
1616 22-06-2010 07:00:00 12.24 C 7.68 g/m*3 12.24 C 0 km/h
1617 22-06-2010 08:00:00 13 C 7.48 g/m*3 13 C 0 km/h
1618 22-06-2010 09:00:00 15 C 7.36 g/m*3 15 C 0 km/h
1619 22-06-2010 10:00:00 18.72 C 6.38 g/m*3 18.72 C 0 km/h
1620 22-06-2010 11:00:00 20.24 C 5.82 g/m*3 20.24 C 0 km/h
1621 22-06-2010 12:00:00 21.08 C 5.48 g/m*3 21.08 C 0 km/h
1622 22-06-2010 13:00:00 21.68 C 5.3 g/m*3 21.68 C 0 km/h
1623 22-06-2010 14:00:00 23.3 C 5.19 g/m*3 23.3 C 0 km/h
1624 22-06-2010 15:00:00 24.54 C 4.93 g/m*3 24.54 C 0 km/h
1625 22-06-2010 16:00:00 24.28 C 4.95 g/m*3 24.28 C 0 km/h
Sensor: Nr:Datum:Temp:Abs-Feuchte:Windchill:Wind:
Aussen-T/F 1626 22-06-2010 17:00:00 23.3 C 5.19 g/m*3 23.3 C 0 km/h
1627 22-06-2010 18:00:00 23.14 C 6.26 g/m*3 23.14 C 0 km/h
1628 22-06-2010 19:00:00 23.48 C 6.29 g/m*3 23.48 C 0 km/h
1629 22-06-2010 20:00:00 21.04 C 6.65 g/m*3 21.04 C 0 km/h
1630 22-06-2010 21:00:00 18.02 C 6.46 g/m*3 18.02 C 0 km/h
1631 22-06-2010 22:00:00 16.32 C 6.81 g/m*3 16.32 C 0 km/h
1632 22-06-2010 23:00:00 14.98 C 6.99 g/m*3 14.98 C 0 km/h
1633 23-06-2010 00:00:00 13.8 C 7.51 g/m*3 13.8 C 0 km/h
1634 23-06-2010 01:00:00 12.68 C 7.72 g/m*3 12.68 C 0 km/h
1635 23-06-2010 02:00:00 11.84 C 7.79 g/m*3 11.84 C 0 km/h
1636 23-06-2010 03:00:00 11.02 C 7.72 g/m*3 11.02 C 0 km/h
1637 23-06-2010 04:00:00 10.42 C 7.66 g/m*3 10.42 C 0 km/h
1638 23-06-2010 05:00:00 10 C 7.69 g/m*3 10 C 0 km/h
1639 23-06-2010 06:00:00 10.06 C 7.75 g/m*3 10.06 C 0 km/h
1640 23-06-2010 07:00:00 10.64 C 7.77 g/m*3 10.64 C 0 km/h
1641 23-06-2010 08:00:00 11.78 C 7.86 g/m*3 11.78 C 0 km/h
1642 23-06-2010 09:00:00 14.16 C 7.82 g/m*3 14.16 C 0 km/h
1643 23-06-2010 10:00:00 17.76 C 7.72 g/m*3 17.76 C 0 km/h
1644 23-06-2010 11:00:00 21.04 C 7.42 g/m*3 21.04 C 0 km/h
1645 23-06-2010 12:00:00 25.96 C 5.93 g/m*3 25.96 C 0 km/h
1646 23-06-2010 13:00:00 28.04 C 5.56 g/m*3 28.04 C 0 km/h
1647 23-06-2010 14:00:00 27.64 C 5.44 g/m*3 27.64 C 0 km/h
1648 23-06-2010 15:00:00 28.64 C 5.69 g/m*3 28.64 C 0 km/h
1649 23-06-2010 16:00:00 30.16 C 6.12 g/m*3 30.16 C 0 km/h
1650 23-06-2010 17:00:00 29.46 C 5.89 g/m*3 29.46 C 0 km/h
Sensor: Nr:Datum:Temp:Abs-Feuchte:Windchill:Wind:
Aussen-T/F 1651 23-06-2010 18:00:00 30.28 C 6.16 g/m*3 30.28 C 0 km/h
1652 23-06-2010 19:00:00 29.14 C 5.79 g/m*3 29.14 C 0 km/h
1653 23-06-2010 20:00:00 27.38 C 6.57 g/m*3 27.38 C 0 km/h
1654 23-06-2010 21:00:00 22.68 C 6.86 g/m*3 22.68 C 0 km/h
1655 23-06-2010 22:00:00 20.52 C 6.95 g/m*3 20.52 C 0 km/h
1656 23-06-2010 23:00:00 19.12 C 7.25 g/m*3 19.12 C 0 km/h
1657 24-06-2010 00:00:00 17.58 C 7.79 g/m*3 17.58 C 0 km/h
1658 24-06-2010 01:00:00 16.08 C 8.24 g/m*3 16.08 C 0 km/h
1659 24-06-2010 02:00:00 14.98 C 8.3 g/m*3 14.98 C 0 km/h
1660 24-06-2010 03:00:00 14.18 C 8.34 g/m*3 14.18 C 0 km/h
1661 24-06-2010 04:00:00 13.2 C 8.4 g/m*3 13.2 C 0 km/h
1662 24-06-2010 05:00:00 12.62 C 8.42 g/m*3 12.62 C 0 km/h
1663 24-06-2010 06:00:00 12.7 C 8.53 g/m*3 12.7 C 0 km/h
1664 24-06-2010 07:00:00 13.42 C 8.43 g/m*3 13.42 C 0 km/h
1665 24-06-2010 08:00:00 14.76 C 8.59 g/m*3 14.76 C 0 km/h
1666 24-06-2010 09:00:00 17.46 C 8.57 g/m*3 17.46 C 0 km/h
1667 24-06-2010 10:00:00 21.5 C 8.6 g/m*3 21.5 C 0 km/h
1668 24-06-2010 11:00:00 24.96 C 7.72 g/m*3 24.96 C 0 km/h
1669 24-06-2010 12:00:00 28.72 C 6.05 g/m*3 28.72 C 0 km/h
1670 24-06-2010 13:00:00 30.34 C 6.18 g/m*3 30.34 C 0 km/h
1671 24-06-2010 14:00:00 29.72 C 5.97 g/m*3 29.72 C 0 km/h
1672 24-06-2010 15:00:00 30.9 C 6.37 g/m*3 30.9 C 0 km/h
1673 24-06-2010 16:00:00 31.32 C 6.51 g/m*3 31.32 C 0 km/h
1674 24-06-2010 17:00:00 32.64 C 6.99 g/m*3 32.64 C 0 km/h
1675 24-06-2010 18:00:00 32.64 C 6.99 g/m*3 32.64 C 0 km/h
Sensor: Nr:Datum:Temp:Abs-Feuchte:Windchill:Wind:
Aussen-T/F 1676 24-06-2010 19:00:00 31.72 C 6.65 g/m*3 31.72 C 0 km/h
1677 24-06-2010 20:00:00 30.14 C 6.91 g/m*3 30.14 C 0 km/h
1678 24-06-2010 21:00:00 25.24 C 7.09 g/m*3 25.24 C 0 km/h
1679 24-06-2010 22:00:00 22.96 C 7.46 g/m*3 22.96 C 0 km/h
1680 24-06-2010 23:00:00 21.38 C 7.72 g/m*3 21.38 C 0 km/h
1681 25-06-2010 00:00:00 20.04 C 8.04 g/m*3 20.04 C 0 km/h
1682 25-06-2010 01:00:00 18.86 C 8.37 g/m*3 18.86 C 0 km/h
1683 25-06-2010 02:00:00 18.4 C 8.78 g/m*3 18.4 C 0 km/h
1684 25-06-2010 03:00:00 17.06 C 9.12 g/m*3 17.06 C 0 km/h
1685 25-06-2010 04:00:00 16.72 C 9.31 g/m*3 16.72 C 0 km/h
1686 25-06-2010 05:00:00 16.16 C 9.35 g/m*3 16.16 C 0 km/h
1687 25-06-2010 06:00:00 16.22 C 9.53 g/m*3 16.22 C 0 km/h
1688 25-06-2010 07:00:00 17.12 C 9.68 g/m*3 17.12 C 0 km/h
1689 25-06-2010 08:00:00 19.04 C 9.41 g/m*3 19.04 C 0 km/h
1690 25-06-2010 09:00:00 20.38 C 9.15 g/m*3 20.38 C 0 km/h
1691 25-06-2010 10:00:00 22.58 C 8.75 g/m*3 22.58 C 0 km/h
1692 25-06-2010 11:00:00 24.32 C 8.24 g/m*3 24.32 C 0 km/h
1693 25-06-2010 12:00:00 27.72 C 7.82 g/m*3 27.72 C 0 km/h
1694 25-06-2010 13:00:00 29.04 C 7.25 g/m*3 29.04 C 0 km/h
1695 25-06-2010 14:00:00 28.84 C 6.95 g/m*3 28.84 C 0 km/h
1696 25-06-2010 15:00:00 29.6 C 6.47 g/m*3 29.6 C 0 km/h
1697 25-06-2010 16:00:00 30.24 C 6.14 g/m*3 30.24 C 0 km/h
1698 25-06-2010 17:00:00 30.7 C 6.3 g/m*3 30.7 C 0 km/h
1699 25-06-2010 18:00:00 30.74 C 6.31 g/m*3 30.74 C 0 km/h
1700 25-06-2010 19:00:00 30.2 C 6.19 g/m*3 30.2 C 0 km/h
Sensor: Nr:Datum:Temp:Abs-Feuchte:Windchill:Wind:
Aussen-T/F 1701 25-06-2010 20:00:00 28.24 C 6.01 g/m*3 28.24 C 0 km/h
1702 25-06-2010 21:00:00 24.98 C 7.08 g/m*3 24.98 C 0 km/h
1703 25-06-2010 22:00:00 22.64 C 7.45 g/m*3 22.64 C 0 km/h
1704 25-06-2010 23:00:00 21.04 C 7.79 g/m*3 21.04 C 0 km/h
1705 26-06-2010 00:00:00 19.68 C 8.18 g/m*3 19.68 C 0 km/h
1706 26-06-2010 01:00:00 18.6 C 8.31 g/m*3 18.6 C 0 km/h
1707 26-06-2010 02:00:00 17.42 C 8.55 g/m*3 17.42 C 0 km/h
1708 26-06-2010 03:00:00 16.46 C 8.66 g/m*3 16.46 C 0 km/h
1709 26-06-2010 04:00:00 15.5 C 8.83 g/m*3 15.5 C 0 km/h
1710 26-06-2010 05:00:00 14.76 C 8.92 g/m*3 14.76 C 0 km/h
1711 26-06-2010 06:00:00 14.74 C 9.21 g/m*3 14.74 C 0 km/h
1712 26-06-2010 07:00:00 15.38 C 9.32 g/m*3 15.38 C 0 km/h
1713 26-06-2010 08:00:00 16.8 C 9.52 g/m*3 16.8 C 0 km/h
1714 26-06-2010 09:00:00 19.56 C 9.6 g/m*3 19.56 C 0 km/h
1715 26-06-2010 10:00:00 23.02 C 8.89 g/m*3 23.02 C 0 km/h
1716 26-06-2010 11:00:00 26.18 C 7.23 g/m*3 26.18 C 0 km/h
1717 26-06-2010 12:00:00 29.4 C 6.46 g/m*3 29.4 C 0 km/h
1718 26-06-2010 13:00:00 31.08 C 6.43 g/m*3 31.08 C 0 km/h
1719 26-06-2010 14:00:00 29.52 C 5.91 g/m*3 29.52 C 0 km/h
1720 26-06-2010 15:00:00 30.66 C 6.28 g/m*3 30.66 C 0 km/h
1721 26-06-2010 16:00:00 31.64 C 6.62 g/m*3 31.64 C 0 km/h
1722 26-06-2010 17:00:00 32.84 C 7.06 g/m*3 32.84 C 0 km/h
1723 26-06-2010 18:00:00 32.04 C 6.77 g/m*3 32.04 C 0 km/h
1724 26-06-2010 19:00:00 31.24 C 6.48 g/m*3 31.24 C 0 km/h
1725 26-06-2010 20:00:00 30.14 C 6.48 g/m*3 30.14 C 0 km/h
Sensor: Nr:Datum:Temp:Abs-Feuchte:Windchill:Wind:
Aussen-T/F 1726 26-06-2010 21:00:00 25.86 C 7.1 g/m*3 25.86 C 0 km/h
1727 26-06-2010 22:00:00 23.16 C 7.55 g/m*3 23.16 C 0 km/h
1728 26-06-2010 23:00:00 21.56 C 7.83 g/m*3 21.56 C 0 km/h
1729 27-06-2010 00:00:00 20.08 C 7.95 g/m*3 20.08 C 0 km/h
1730 27-06-2010 01:00:00 18.76 C 8.32 g/m*3 18.76 C 0 km/h
1731 27-06-2010 02:00:00 17.56 C 8.59 g/m*3 17.56 C 0 km/h
1732 27-06-2010 03:00:00 16.64 C 8.84 g/m*3 16.64 C 0 km/h
1733 27-06-2010 04:00:00 15.76 C 8.89 g/m*3 15.76 C 0 km/h
1734 27-06-2010 05:00:00 15.04 C 8.92 g/m*3 15.04 C 0 km/h
1735 27-06-2010 06:00:00 14.94 C 9.2 g/m*3 14.94 C 0 km/h
1736 27-06-2010 07:00:00 15.36 C 9.36 g/m*3 15.36 C 0 km/h
1737 27-06-2010 08:00:00 17.04 C 9.25 g/m*3 17.04 C 0 km/h
1738 27-06-2010 09:00:00 20.34 C 9.41 g/m*3 20.34 C 0 km/h
1739 27-06-2010 10:00:00 24.16 C 8.91 g/m*3 24.16 C 0 km/h
1740 27-06-2010 11:00:00 27.22 C 7.82 g/m*3 27.22 C 0 km/h
1741 27-06-2010 12:00:00 30.58 C 6.45 g/m*3 30.58 C 0 km/h
1742 27-06-2010 13:00:00 31.9 C 6.72 g/m*3 31.9 C 0 km/h
1743 27-06-2010 14:00:00 31.34 C 6.52 g/m*3 31.34 C 0 km/h
1744 27-06-2010 15:00:00 32.44 C 6.91 g/m*3 32.44 C 0 km/h
1745 27-06-2010 16:00:00 33.1 C 7.16 g/m*3 33.1 C 0 km/h
1746 27-06-2010 17:00:00 33.26 C 7.22 g/m*3 33.26 C 0 km/h
1747 27-06-2010 18:00:00 33.72 C 7.39 g/m*3 33.72 C 0 km/h
1748 27-06-2010 19:00:00 33.38 C 7.26 g/m*3 33.38 C 0 km/h
1749 27-06-2010 20:00:00 31.46 C 6.63 g/m*3 31.46 C 0 km/h
1750 27-06-2010 21:00:00 26.92 C 7.23 g/m*3 26.92 C 0 km/h
Sensor: Nr:Datum:Temp:Abs-Feuchte:Windchill:Wind:
Aussen-T/F 1751 27-06-2010 22:00:00 24.2 C 7.48 g/m*3 24.2 C 0 km/h
1752 27-06-2010 23:00:00 22.66 C 7.94 g/m*3 22.66 C 0 km/h
1753 28-06-2010 00:00:00 21 C 8.21 g/m*3 21 C 0 km/h
1754 28-06-2010 01:00:00 19.78 C 8.19 g/m*3 19.78 C 0 km/h
1755 28-06-2010 02:00:00 18.7 C 8.65 g/m*3 18.7 C 0 km/h
1756 28-06-2010 03:00:00 17.78 C 8.76 g/m*3 17.78 C 0 km/h
1757 28-06-2010 04:00:00 16.78 C 9.02 g/m*3 16.78 C 0 km/h
1758 28-06-2010 05:00:00 16.1 C 9.21 g/m*3 16.1 C 0 km/h
1759 28-06-2010 06:00:00 16.42 C 9.47 g/m*3 16.42 C 0 km/h
1760 28-06-2010 07:00:00 16.8 C 9.69 g/m*3 16.8 C 0 km/h
1761 28-06-2010 08:00:00 18.2 C 9.61 g/m*3 18.2 C 0 km/h
1762 28-06-2010 09:00:00 21.24 C 9.7 g/m*3 21.24 C 0 km/h
1763 28-06-2010 10:00:00 25.26 C 9.67 g/m*3 25.26 C 0 km/h
1764 28-06-2010 11:00:00 28.96 C 8.88 g/m*3 28.96 C 0 km/h
1765 28-06-2010 12:00:00 31.7 C 7.04 g/m*3 31.7 C 0 km/h
1766 28-06-2010 13:00:00 33.08 C 7.15 g/m*3 33.08 C 0 km/h
1767 28-06-2010 14:00:00 32.52 C 6.94 g/m*3 32.52 C 0 km/h
1768 28-06-2010 15:00:00 32.42 C 6.9 g/m*3 32.42 C 0 km/h
1769 28-06-2010 16:00:00 32.74 C 7.02 g/m*3 32.74 C 0 km/h
1770 28-06-2010 17:00:00 33.18 C 7.19 g/m*3 33.18 C 0 km/h
1771 28-06-2010 18:00:00 32.8 C 7.04 g/m*3 32.8 C 0 km/h
1772 28-06-2010 19:00:00 31.6 C 6.61 g/m*3 31.6 C 0 km/h
1773 28-06-2010 20:00:00 30.48 C 6.85 g/m*3 30.48 C 0 km/h
1774 28-06-2010 21:00:00 27.64 C 7.2 g/m*3 27.64 C 0 km/h
1775 28-06-2010 22:00:00 26.15 C 7.55 g/m*3 26.15 C 0 km/h
Sensor: Nr:Datum:Temp:Abs-Feuchte:Windchill:Wind:
Aussen-T/F 1776 28-06-2010 23:00:00 24.98 C 8.28 g/m*3 24.98 C 0 km/h
1777 29-06-2010 00:00:00 23.56 C 8.74 g/m*3 23.56 C 0 km/h
1778 29-06-2010 01:00:00 22.18 C 9.02 g/m*3 22.18 C 0 km/h
1779 29-06-2010 02:00:00 21.12 C 9.3 g/m*3 21.12 C 0 km/h
1780 29-06-2010 03:00:00 20.58 C 9.51 g/m*3 20.58 C 0 km/h
1781 29-06-2010 04:00:00 19.52 C 9.75 g/m*3 19.52 C 0 km/h
1782 29-06-2010 05:00:00 18.7 C 10.21 g/m*3 18.7 C 0 km/h
1783 29-06-2010 06:00:00 18.36 C 10.45 g/m*3 18.36 C 0 km/h
1784 29-06-2010 07:00:00 18.88 C 10.65 g/m*3 18.88 C 0 km/h
1785 29-06-2010 08:00:00 20.02 C 10.52 g/m*3 20.02 C 0 km/h
1786 29-06-2010 09:00:00 22.62 C 10.1 g/m*3 22.62 C 0 km/h
1787 29-06-2010 10:00:00 25.84 C 9.8 g/m*3 25.84 C 0 km/h
1788 29-06-2010 11:00:00 28.5 C 9.61 g/m*3 28.5 C 0 km/h
1789 29-06-2010 12:00:00 31.44 C 7.99 g/m*3 31.44 C 0 km/h
1790 29-06-2010 13:00:00 32.64 C 6.99 g/m*3 32.64 C 0 km/h
1791 29-06-2010 14:00:00 31.54 C 6.65 g/m*3 31.54 C 0 km/h
1792 29-06-2010 15:00:00 28.6 C 7.98 g/m*3 28.6 C 0 km/h
1793 29-06-2010 16:00:00 27.06 C 11.05 g/m*3 27.06 C 0 km/h
1794 29-06-2010 17:00:00 29.54 C 9.76 g/m*3 29.54 C 0 km/h
1795 29-06-2010 18:00:00 29.1 C 8.61 g/m*3 29.1 C 0 km/h
1796 29-06-2010 19:00:00 28.96 C 8.6 g/m*3 28.96 C 0 km/h
1797 29-06-2010 20:00:00 27.68 C 8.6 g/m*3 27.68 C 0 km/h
1798 29-06-2010 21:00:00 25.38 C 9.5 g/m*3 25.38 C 0 km/h
1799 29-06-2010 22:00:00 23 C 9.87 g/m*3 23 C 0 km/h
1800 29-06-2010 23:00:00 21.86 C 10.2 g/m*3 21.86 C 0 km/h
Sensor: Nr:Datum:Temp:Abs-Feuchte:Windchill:Wind:
Aussen-T/F 1801 30-06-2010 00:00:00 20.6 C 10.49 g/m*3 20.6 C 0 km/h
1802 30-06-2010 01:00:00 19.5 C 10.81 g/m*3 19.5 C 0 km/h
1803 30-06-2010 02:00:00 18.54 C 10.94 g/m*3 18.54 C 0 km/h
1804 30-06-2010 03:00:00 17.76 C 11.11 g/m*3 17.76 C 0 km/h
1805 30-06-2010 04:00:00 16.96 C 11.03 g/m*3 16.96 C 0 km/h
1806 30-06-2010 05:00:00 16.32 C 10.95 g/m*3 16.32 C 0 km/h
1807 30-06-2010 06:00:00 16.18 C 10.8 g/m*3 16.18 C 0 km/h
1808 30-06-2010 07:00:00 17.32 C 10.77 g/m*3 17.32 C 0 km/h
1809 30-06-2010 08:00:00 18.28 C 10.93 g/m*3 18.28 C 0 km/h
1810 30-06-2010 09:00:00 20.5 C 9.93 g/m*3 20.5 C 0 km/h
1811 30-06-2010 10:00:00 23.6 C 9.32 g/m*3 23.6 C 0 km/h
1812 30-06-2010 11:00:00 26.9 C 8.5 g/m*3 26.9 C 0 km/h
1813 30-06-2010 12:00:00 29.24 C 6.58 g/m*3 29.24 C 0 km/h
1814 30-06-2010 13:00:00 31.84 C 6.69 g/m*3 31.84 C 0 km/h
1815 30-06-2010 14:00:00 31.78 C 6.67 g/m*3 31.78 C 0 km/h
1816 30-06-2010 15:00:00 32.34 C 6.87 g/m*3 32.34 C 0 km/h
1817 30-06-2010 16:00:00 32.36 C 6.88 g/m*3 32.36 C 0 km/h
1818 30-06-2010 17:00:00 32.34 C 6.87 g/m*3 32.34 C 0 km/h
1819 30-06-2010 18:00:00 32.32 C 6.87 g/m*3 32.32 C 0 km/h
1820 30-06-2010 19:00:00 31.08 C 6.94 g/m*3 31.08 C 0 km/h
1821 30-06-2010 20:00:00 29.74 C 7.95 g/m*3 29.74 C 0 km/h
1822 30-06-2010 21:00:00 26.54 C 7.83 g/m*3 26.54 C 0 km/h
1823 30-06-2010 22:00:00 24.98 C 8.09 g/m*3 24.98 C 0 km/h
1824 30-06-2010 23:00:00 23.8 C 8.56 g/m*3 23.8 C 0 km/h
1825 01-07-2010 00:00:00 22.42 C 8.71 g/m*3 22.42 C 0 km/h
Sensor: Nr:Datum:Temp:Abs-Feuchte:Windchill:Wind:
Aussen-T/F 1826 01-07-2010 01:00:00 21.16 C 9.1 g/m*3 21.16 C 0 km/h
1827 01-07-2010 02:00:00 20 C 9.51 g/m*3 20 C 0 km/h
1828 01-07-2010 03:00:00 19.06 C 9.85 g/m*3 19.06 C 0 km/h
1829 01-07-2010 04:00:00 18.3 C 9.85 g/m*3 18.3 C 0 km/h
1830 01-07-2010 05:00:00 17.36 C 10.17 g/m*3 17.36 C 0 km/h
1831 01-07-2010 06:00:00 17.12 C 10.41 g/m*3 17.12 C 0 km/h
1832 01-07-2010 07:00:00 17.68 C 10.43 g/m*3 17.68 C 0 km/h
1833 01-07-2010 08:00:00 18.82 C 10.55 g/m*3 18.82 C 0 km/h
1834 01-07-2010 09:00:00 21.8 C 10.48 g/m*3 21.8 C 0 km/h
1835 01-07-2010 10:00:00 25.82 C 10.22 g/m*3 25.82 C 0 km/h
1836 01-07-2010 11:00:00 28.68 C 9.2 g/m*3 28.68 C 0 km/h
1837 01-07-2010 12:00:00 31.1 C 7.01 g/m*3 31.1 C 0 km/h
1838 01-07-2010 13:00:00 32.8 C 7.04 g/m*3 32.8 C 0 km/h
1839 01-07-2010 14:00:00 32.22 C 6.83 g/m*3 32.22 C 0 km/h
1840 01-07-2010 15:00:00 32.88 C 7.07 g/m*3 32.88 C 0 km/h
1841 01-07-2010 16:00:00 33.2 C 7.2 g/m*3 33.2 C 0 km/h
1842 01-07-2010 17:00:00 33.3 C 7.23 g/m*3 33.3 C 0 km/h
1843 01-07-2010 18:00:00 33.86 C 7.45 g/m*3 33.86 C 0 km/h
1844 01-07-2010 19:00:00 33.46 C 7.29 g/m*3 33.46 C 0 km/h
1845 01-07-2010 20:00:00 31.52 C 7.7 g/m*3 31.52 C 0 km/h
1846 01-07-2010 21:00:00 27.42 C 8.59 g/m*3 27.42 C 0 km/h
1847 01-07-2010 22:00:00 25.5 C 8.52 g/m*3 25.5 C 0 km/h
1848 01-07-2010 23:00:00 24.74 C 8.44 g/m*3 24.74 C 0 km/h
1849 02-07-2010 00:00:00 23.48 C 8.83 g/m*3 23.48 C 0 km/h
1850 02-07-2010 01:00:00 22.46 C 9.05 g/m*3 22.46 C 0 km/h
Sensor: Nr:Datum:Temp:Abs-Feuchte:Windchill:Wind:
Aussen-T/F 1851 02-07-2010 02:00:00 21.32 C 8.96 g/m*3 21.32 C 0 km/h
1852 02-07-2010 03:00:00 20.6 C 9.16 g/m*3 20.6 C 0 km/h
1853 02-07-2010 04:00:00 19.68 C 9.67 g/m*3 19.68 C 0 km/h
1854 02-07-2010 05:00:00 18.86 C 9.79 g/m*3 18.86 C 0 km/h
1855 02-07-2010 06:00:00 18.68 C 10.27 g/m*3 18.68 C 0 km/h
1856 02-07-2010 07:00:00 19.52 C 10.52 g/m*3 19.52 C 0 km/h
1857 02-07-2010 08:00:00 20.86 C 10.54 g/m*3 20.86 C 0 km/h
1858 02-07-2010 09:00:00 24.14 C 10.7 g/m*3 24.14 C 0 km/h
1859 02-07-2010 10:00:00 27.86 C 10.42 g/m*3 27.86 C 0 km/h
1860 02-07-2010 11:00:00 30.18 C 9.92 g/m*3 30.18 C 0 km/h
1861 02-07-2010 12:00:00 32.12 C 8.02 g/m*3 32.12 C 0 km/h
1862 02-07-2010 13:00:00 33.36 C 7.26 g/m*3 33.36 C 0 km/h
1863 02-07-2010 14:00:00 32.78 C 7.39 g/m*3 32.78 C 0 km/h
1864 02-07-2010 15:00:00 32.2 C 8.53 g/m*3 32.2 C 0 km/h
1865 02-07-2010 16:00:00 32.46 C 8.79 g/m*3 32.46 C 0 km/h
1866 02-07-2010 17:00:00 34.22 C 7.59 g/m*3 34.22 C 0 km/h
1867 02-07-2010 18:00:00 33.7 C 7.39 g/m*3 33.7 C 0 km/h
1868 02-07-2010 19:00:00 33.76 C 7.41 g/m*3 33.76 C 0 km/h
1869 02-07-2010 20:00:00 32.56 C 8.07 g/m*3 32.56 C 0 km/h
1870 02-07-2010 21:00:00 29.68 C 8.35 g/m*3 29.68 C 0 km/h
1871 02-07-2010 22:00:00 27.1 C 7.92 g/m*3 27.1 C 0 km/h
1872 02-07-2010 23:00:00 25.62 C 8.2 g/m*3 25.62 C 0 km/h
1873 03-07-2010 00:00:00 24.46 C 8.98 g/m*3 24.46 C 0 km/h
1874 03-07-2010 01:00:00 23.38 C 9.83 g/m*3 23.38 C 0 km/h
1875 03-07-2010 02:00:00 22.52 C 10.44 g/m*3 22.52 C 0 km/h
Sensor: Nr:Datum:Temp:Abs-Feuchte:Windchill:Wind:
Aussen-T/F 1876 03-07-2010 03:00:00 21.58 C 10.76 g/m*3 21.58 C 0 km/h
1877 03-07-2010 04:00:00 20.68 C 11.04 g/m*3 20.68 C 0 km/h
1878 03-07-2010 05:00:00 20.02 C 11.32 g/m*3 20.02 C 0 km/h
1879 03-07-2010 06:00:00 20.18 C 11.49 g/m*3 20.18 C 0 km/h
1880 03-07-2010 07:00:00 21.32 C 11.76 g/m*3 21.32 C 0 km/h
1881 03-07-2010 08:00:00 22.58 C 11.8 g/m*3 22.58 C 0 km/h
1882 03-07-2010 09:00:00 25.16 C 12.12 g/m*3 25.16 C 0 km/h
1883 03-07-2010 10:00:00 28.84 C 12.13 g/m*3 28.84 C 0 km/h
1884 03-07-2010 11:00:00 31.3 C 10.86 g/m*3 31.3 C 0 km/h
1885 03-07-2010 12:00:00 33.3 C 7.59 g/m*3 33.3 C 0 km/h
1886 03-07-2010 13:00:00 33.78 C 7.71 g/m*3 33.78 C 0 km/h
1887 03-07-2010 14:00:00 33.72 C 7.39 g/m*3 33.72 C 0 km/h
1888 03-07-2010 15:00:00 31.94 C 7.81 g/m*3 31.94 C 0 km/h
1889 03-07-2010 16:00:00 30.8 C 8.74 g/m*3 30.8 C 0 km/h
1890 03-07-2010 17:00:00 29.4 C 9.86 g/m*3 29.4 C 0 km/h
1891 03-07-2010 18:00:00 26.48 C 10.7 g/m*3 26.48 C 0 km/h
1892 03-07-2010 19:00:00 27.1 C 11.44 g/m*3 27.1 C 0 km/h
1893 03-07-2010 20:00:00 28.08 C 12.07 g/m*3 28.08 C 0 km/h
1894 03-07-2010 21:00:00 26.24 C 13.42 g/m*3 26.24 C 0 km/h
1895 03-07-2010 22:00:00 25.02 C 14.06 g/m*3 25.02 C 0 km/h
1896 03-07-2010 23:00:00 24.04 C 13.78 g/m*3 24.04 C 0 km/h
1897 04-07-2010 00:00:00 23.46 C 14.01 g/m*3 23.46 C 0 km/h
1898 04-07-2010 01:00:00 22.92 C 13.79 g/m*3 22.92 C 0 km/h
1899 04-07-2010 02:00:00 22.38 C 13.61 g/m*3 22.38 C 0 km/h
1900 04-07-2010 03:00:00 22.16 C 13.79 g/m*3 22.16 C 0 km/h
Sensor: Nr:Datum:Temp:Abs-Feuchte:Windchill:Wind:
Aussen-T/F 1901 04-07-2010 04:00:00 21.62 C 13.9 g/m*3 21.62 C 0 km/h
1902 04-07-2010 05:00:00 21.12 C 13.95 g/m*3 21.12 C 0 km/h
1903 04-07-2010 06:00:00 21.64 C 13.99 g/m*3 21.64 C 0 km/h
1904 04-07-2010 07:00:00 22.34 C 13.89 g/m*3 22.34 C 0 km/h
1905 04-07-2010 08:00:00 23.16 C 13.44 g/m*3 23.16 C 0 km/h
1906 04-07-2010 09:00:00 23.54 C 12.93 g/m*3 23.54 C 0 km/h
1907 04-07-2010 10:00:00 24.42 C 12.61 g/m*3 24.42 C 0 km/h
1908 04-07-2010 11:00:00 26.02 C 12.09 g/m*3 26.02 C 0 km/h
1909 04-07-2010 12:00:00 27.94 C 11 g/m*3 27.94 C 0 km/h
1910 04-07-2010 13:00:00 30.34 C 9.64 g/m*3 30.34 C 0 km/h
1911 04-07-2010 14:00:00 30.56 C 9.5 g/m*3 30.56 C 0 km/h
1912 04-07-2010 15:00:00 31.98 C 8.5 g/m*3 31.98 C 0 km/h
1913 04-07-2010 16:00:00 32.22 C 7.86 g/m*3 32.22 C 0 km/h
1914 04-07-2010 17:00:00 32.48 C 7.55 g/m*3 32.48 C 0 km/h
1915 04-07-2010 18:00:00 32.5 C 7.56 g/m*3 32.5 C 0 km/h
1916 04-07-2010 19:00:00 30.92 C 8.73 g/m*3 30.92 C 0 km/h
1917 04-07-2010 20:00:00 31.06 C 8.8 g/m*3 31.06 C 0 km/h
1918 04-07-2010 21:00:00 27.74 C 9.65 g/m*3 27.74 C 0 km/h
1919 04-07-2010 22:00:00 26.44 C 9.58 g/m*3 26.44 C 0 km/h
1920 04-07-2010 23:00:00 25.8 C 9.24 g/m*3 25.8 C 0 km/h
1921 05-07-2010 00:00:00 24.34 C 8.16 g/m*3 24.34 C 0 km/h
1922 05-07-2010 01:00:00 23.26 C 7.13 g/m*3 23.26 C 0 km/h
1923 05-07-2010 02:00:00 21.94 C 7.08 g/m*3 21.94 C 0 km/h
1924 05-07-2010 03:00:00 21.02 C 6.82 g/m*3 21.02 C 0 km/h
1925 05-07-2010 04:00:00 19.96 C 6.28 g/m*3 19.96 C 0 km/h
Sensor: Nr:Datum:Temp:Abs-Feuchte:Windchill:Wind:
Aussen-T/F 1926 05-07-2010 05:00:00 18.86 C 6.3 g/m*3 18.86 C 0 km/h
1927 05-07-2010 06:00:00 18.34 C 6.77 g/m*3 18.34 C 0 km/h
1928 05-07-2010 07:00:00 18.44 C 7.47 g/m*3 18.44 C 0 km/h
1929 05-07-2010 08:00:00 19.4 C 7.01 g/m*3 19.4 C 0 km/h
1930 05-07-2010 09:00:00 21.28 C 6.67 g/m*3 21.28 C 0 km/h
1931 05-07-2010 10:00:00 23.7 C 6.42 g/m*3 23.7 C 0 km/h
1932 05-07-2010 11:00:00 26.54 C 6.62 g/m*3 26.54 C 0 km/h
1933 05-07-2010 12:00:00 27.94 C 6.61 g/m*3 27.94 C 0 km/h
1934 05-07-2010 13:00:00 27.88 C 7.56 g/m*3 27.88 C 0 km/h
1935 05-07-2010 14:00:00 26.2 C 8.03 g/m*3 26.2 C 0 km/h
1936 05-07-2010 15:00:00 25.86 C 8.26 g/m*3 25.86 C 0 km/h
1937 05-07-2010 16:00:00 24.76 C 8.9 g/m*3 24.76 C 0 km/h
1938 05-07-2010 17:00:00 23.46 C 10.04 g/m*3 23.46 C 0 km/h
1939 05-07-2010 18:00:00 21.1 C 11.76 g/m*3 21.1 C 0 km/h
1940 05-07-2010 19:00:00 19.32 C 13.62 g/m*3 19.32 C 0 km/h
1941 05-07-2010 20:00:00 19.44 C 13.14 g/m*3 19.44 C 0 km/h
1942 05-07-2010 21:00:00 18.96 C 12.94 g/m*3 18.96 C 0 km/h
1943 05-07-2010 22:00:00 18.62 C 12.78 g/m*3 18.62 C 0 km/h
1944 05-07-2010 23:00:00 17.88 C 12.47 g/m*3 17.88 C 0 km/h
1945 06-07-2010 00:00:00 17.24 C 11.98 g/m*3 17.24 C 0 km/h
1946 06-07-2010 01:00:00 17.24 C 11.77 g/m*3 17.24 C 0 km/h
1947 06-07-2010 02:00:00 16.84 C 11.26 g/m*3 16.84 C 0 km/h
1948 06-07-2010 03:00:00 16.34 C 10.88 g/m*3 16.34 C 0 km/h
1949 06-07-2010 04:00:00 15.2 C 10.1 g/m*3 15.2 C 0 km/h
1950 06-07-2010 05:00:00 14.86 C 10.25 g/m*3 14.86 C 0 km/h
Sensor: Nr:Datum:Temp:Abs-Feuchte:Windchill:Wind:
Aussen-T/F 1951 06-07-2010 06:00:00 14.66 C 9.92 g/m*3 14.66 C 0 km/h
1952 06-07-2010 07:00:00 15.08 C 9.72 g/m*3 15.08 C 0 km/h
1953 06-07-2010 08:00:00 15.9 C 9.24 g/m*3 15.9 C 0 km/h
1954 06-07-2010 09:00:00 17.54 C 8.28 g/m*3 17.54 C 0 km/h
1955 06-07-2010 10:00:00 20.02 C 7.27 g/m*3 20.02 C 0 km/h
1956 06-07-2010 11:00:00 21.48 C 6.59 g/m*3 21.48 C 0 km/h
1957 06-07-2010 12:00:00 23.02 C 5.51 g/m*3 23.02 C 0 km/h
1958 06-07-2010 13:00:00 24.6 C 5.04 g/m*3 24.6 C 0 km/h
1959 06-07-2010 14:00:00 24.28 C 4.73 g/m*3 24.28 C 0 km/h
1960 06-07-2010 15:00:00 24.52 C 4.48 g/m*3 24.52 C 0 km/h
1961 06-07-2010 16:00:00 25.84 C 4.83 g/m*3 25.84 C 0 km/h
1962 06-07-2010 17:00:00 26.92 C 5.12 g/m*3 26.92 C 0 km/h
1963 06-07-2010 18:00:00 25.46 C 4.72 g/m*3 25.46 C 0 km/h
1964 06-07-2010 19:00:00 25.06 C 4.8 g/m*3 25.06 C 0 km/h
1965 06-07-2010 20:00:00 24.3 C 5.31 g/m*3 24.3 C 0 km/h
1966 06-07-2010 21:00:00 21.36 C 6.25 g/m*3 21.36 C 0 km/h
1967 06-07-2010 22:00:00 18.84 C 6.52 g/m*3 18.84 C 0 km/h
1968 06-07-2010 23:00:00 17.68 C 6.81 g/m*3 17.68 C 0 km/h
1969 07-07-2010 00:00:00 16.5 C 6.88 g/m*3 16.5 C 0 km/h
1970 07-07-2010 01:00:00 15.52 C 7.41 g/m*3 15.52 C 0 km/h
1971 07-07-2010 02:00:00 14.8 C 7.68 g/m*3 14.8 C 0 km/h
1972 07-07-2010 03:00:00 13.92 C 7.78 g/m*3 13.92 C 0 km/h
1973 07-07-2010 04:00:00 13.3 C 7.74 g/m*3 13.3 C 0 km/h
1974 07-07-2010 05:00:00 12.76 C 8 g/m*3 12.76 C 0 km/h
1975 07-07-2010 06:00:00 12.7 C 8.24 g/m*3 12.7 C 0 km/h
Sensor: Nr:Datum:Temp:Abs-Feuchte:Windchill:Wind:
Aussen-T/F 1976 07-07-2010 07:00:00 13.34 C 8.39 g/m*3 13.34 C 0 km/h
1977 07-07-2010 08:00:00 14.76 C 8.31 g/m*3 14.76 C 0 km/h
1978 07-07-2010 09:00:00 17.66 C 8.13 g/m*3 17.66 C 0 km/h
1979 07-07-2010 10:00:00 21.04 C 7.97 g/m*3 21.04 C 0 km/h
1980 07-07-2010 11:00:00 23.62 C 6 g/m*3 23.62 C 0 km/h
1981 07-07-2010 12:00:00 26.78 C 5.34 g/m*3 26.78 C 0 km/h
1982 07-07-2010 13:00:00 29.38 C 5.86 g/m*3 29.38 C 0 km/h
1983 07-07-2010 14:00:00 28.34 C 5.54 g/m*3 28.34 C 0 km/h
1984 07-07-2010 15:00:00 30.4 C 6.2 g/m*3 30.4 C 0 km/h
1985 07-07-2010 16:00:00 31.96 C 6.74 g/m*3 31.96 C 0 km/h
1986 07-07-2010 17:00:00 32.54 C 6.95 g/m*3 32.54 C 0 km/h
1987 07-07-2010 18:00:00 32.88 C 7.07 g/m*3 32.88 C 0 km/h
1988 07-07-2010 19:00:00 32.4 C 6.9 g/m*3 32.4 C 0 km/h
1989 07-07-2010 20:00:00 31.26 C 6.49 g/m*3 31.26 C 0 km/h
1990 07-07-2010 21:00:00 26.86 C 6.69 g/m*3 26.86 C 0 km/h
1991 07-07-2010 22:00:00 24.4 C 6.85 g/m*3 24.4 C 0 km/h
1992 07-07-2010 23:00:00 23.7 C 7.1 g/m*3 23.7 C 0 km/h
1993 08-07-2010 00:00:00 22.38 C 7.74 g/m*3 22.38 C 0 km/h
1994 08-07-2010 01:00:00 20.54 C 7.99 g/m*3 20.54 C 0 km/h
1995 08-07-2010 02:00:00 19.78 C 8.19 g/m*3 19.78 C 0 km/h
1996 08-07-2010 03:00:00 19.4 C 8.14 g/m*3 19.4 C 0 km/h
1997 08-07-2010 04:00:00 18.52 C 8.43 g/m*3 18.52 C 0 km/h
1998 08-07-2010 05:00:00 17.78 C 8.4 g/m*3 17.78 C 0 km/h
1999 08-07-2010 06:00:00 17.38 C 8.5 g/m*3 17.38 C 0 km/h
2000 08-07-2010 07:00:00 17.92 C 8.93 g/m*3 17.92 C 0 km/h
Sensor: Nr:Datum:Temp:Abs-Feuchte:Windchill:Wind:
Aussen-T/F 2001 08-07-2010 08:00:00 19.12 C 8.9 g/m*3 19.12 C 0 km/h
2002 08-07-2010 09:00:00 22.24 C 9.17 g/m*3 22.24 C 0 km/h
2003 08-07-2010 10:00:00 25.96 C 8.94 g/m*3 25.96 C 0 km/h
2004 08-07-2010 11:00:00 29.18 C 7.08 g/m*3 29.18 C 0 km/h
2005 08-07-2010 12:00:00 31.5 C 6.57 g/m*3 31.5 C 0 km/h
2006 08-07-2010 13:00:00 32.88 C 7.07 g/m*3 32.88 C 0 km/h
2007 08-07-2010 14:00:00 32.36 C 6.88 g/m*3 32.36 C 0 km/h
2008 08-07-2010 15:00:00 33.26 C 7.22 g/m*3 33.26 C 0 km/h
2009 08-07-2010 16:00:00 33.62 C 7.36 g/m*3 33.62 C 0 km/h
2010 08-07-2010 17:00:00 33.96 C 7.49 g/m*3 33.96 C 0 km/h
2011 08-07-2010 18:00:00 34.38 C 7.65 g/m*3 34.38 C 0 km/h
2012 08-07-2010 19:00:00 34.14 C 7.56 g/m*3 34.14 C 0 km/h
2013 08-07-2010 20:00:00 33 C 7.19 g/m*3 33 C 0 km/h
2014 08-07-2010 21:00:00 29.98 C 8.3 g/m*3 29.98 C 0 km/h
2015 08-07-2010 22:00:00 28.02 C 8.22 g/m*3 28.02 C 0 km/h
2016 08-07-2010 23:00:00 27.12 C 8.08 g/m*3 27.12 C 0 km/h
2017 09-07-2010 00:00:00 25.66 C 8.41 g/m*3 25.66 C 0 km/h
2018 09-07-2010 01:00:00 23.78 C 8.81 g/m*3 23.78 C 0 km/h
2019 09-07-2010 02:00:00 22.4 C 8.94 g/m*3 22.4 C 0 km/h
2020 09-07-2010 03:00:00 21.24 C 9.21 g/m*3 21.24 C 0 km/h
2021 09-07-2010 04:00:00 20.16 C 9.45 g/m*3 20.16 C 0 km/h
2022 09-07-2010 05:00:00 19.22 C 9.48 g/m*3 19.22 C 0 km/h
2023 09-07-2010 06:00:00 19.06 C 9.98 g/m*3 19.06 C 0 km/h
2024 09-07-2010 07:00:00 19.9 C 10.1 g/m*3 19.9 C 0 km/h
2025 09-07-2010 08:00:00 21.5 C 9.96 g/m*3 21.5 C 0 km/h
Sensor: Nr:Datum:Temp:Abs-Feuchte:Windchill:Wind:
Aussen-T/F 2026 09-07-2010 09:00:00 24.16 C 10.14 g/m*3 24.16 C 0 km/h
2027 09-07-2010 10:00:00 27.94 C 10.3 g/m*3 27.94 C 0 km/h
2028 09-07-2010 11:00:00 30.82 C 9.19 g/m*3 30.82 C 0 km/h
2029 09-07-2010 12:00:00 33.14 C 7.17 g/m*3 33.14 C 0 km/h
2030 09-07-2010 13:00:00 34.56 C 7.73 g/m*3 34.56 C 0 km/h
2031 09-07-2010 14:00:00 33.26 C 7.22 g/m*3 33.26 C 0 km/h
2032 09-07-2010 15:00:00 33.48 C 7.3 g/m*3 33.48 C 0 km/h
2033 09-07-2010 16:00:00 32.28 C 7.74 g/m*3 32.28 C 0 km/h
2034 09-07-2010 17:00:00 32.32 C 7.76 g/m*3 32.32 C 0 km/h
2035 09-07-2010 18:00:00 33.42 C 7.28 g/m*3 33.42 C 0 km/h
2036 09-07-2010 19:00:00 33.48 C 7.3 g/m*3 33.48 C 0 km/h
2037 09-07-2010 20:00:00 32.04 C 7.58 g/m*3 32.04 C 0 km/h
2038 09-07-2010 21:00:00 29.94 C 8.71 g/m*3 29.94 C 0 km/h
2039 09-07-2010 22:00:00 28.78 C 9.48 g/m*3 28.78 C 0 km/h
2040 09-07-2010 23:00:00 27.78 C 9.62 g/m*3 27.78 C 0 km/h
2041 10-07-2010 00:00:00 26.3 C 10.1 g/m*3 26.3 C 0 km/h
2042 10-07-2010 01:00:00 24.96 C 10.57 g/m*3 24.96 C 0 km/h
2043 10-07-2010 02:00:00 24.2 C 10.78 g/m*3 24.2 C 0 km/h
2044 10-07-2010 03:00:00 23.1 C 11.41 g/m*3 23.1 C 0 km/h
2045 10-07-2010 04:00:00 22.34 C 11.48 g/m*3 22.34 C 0 km/h
2046 10-07-2010 05:00:00 21.64 C 11.67 g/m*3 21.64 C 0 km/h
2047 10-07-2010 06:00:00 21.3 C 11.97 g/m*3 21.3 C 0 km/h
2048 10-07-2010 07:00:00 21.9 C 12.23 g/m*3 21.9 C 0 km/h
2049 10-07-2010 08:00:00 23.38 C 12.01 g/m*3 23.38 C 0 km/h
2050 10-07-2010 09:00:00 26.04 C 11.76 g/m*3 26.04 C 0 km/h
Sensor: Nr:Datum:Temp:Abs-Feuchte:Windchill:Wind:
Aussen-T/F 2051 10-07-2010 10:00:00 29.44 C 11.53 g/m*3 29.44 C 0 km/h
2052 10-07-2010 11:00:00 31.46 C 9.25 g/m*3 31.46 C 0 km/h
2053 10-07-2010 12:00:00 33.42 C 7.5 g/m*3 33.42 C 0 km/h
2054 10-07-2010 13:00:00 34.8 C 7.82 g/m*3 34.8 C 0 km/h
2055 10-07-2010 14:00:00 34.44 C 7.68 g/m*3 34.44 C 0 km/h
2056 10-07-2010 15:00:00 35.2 C 7.99 g/m*3 35.2 C 0 km/h
2057 10-07-2010 16:00:00 35.62 C 8.17 g/m*3 35.62 C 0 km/h
2058 10-07-2010 17:00:00 35.8 C 8.24 g/m*3 35.8 C 0 km/h
2059 10-07-2010 18:00:00 35.92 C 8.29 g/m*3 35.92 C 0 km/h
2060 10-07-2010 19:00:00 35.38 C 8.06 g/m*3 35.38 C 0 km/h
2061 10-07-2010 20:00:00 33.58 C 8.22 g/m*3 33.58 C 0 km/h
2062 10-07-2010 21:00:00 31.3 C 9.43 g/m*3 31.3 C 0 km/h
2063 10-07-2010 22:00:00 30.44 C 9.94 g/m*3 30.44 C 0 km/h
2064 10-07-2010 23:00:00 30.2 C 9.81 g/m*3 30.2 C 0 km/h
2065 11-07-2010 00:00:00 29.85 C 9.85 g/m*3 29.85 C 0 km/h
2066 11-07-2010 01:00:00 28.52 C 11.19 g/m*3 28.52 C 0 km/h
2067 11-07-2010 02:00:00 24.02 C 15.9 g/m*3 24.02 C 0 km/h
2068 11-07-2010 03:00:00 23.38 C 16.26 g/m*3 23.38 C 0 km/h
2069 11-07-2010 04:00:00 21.98 C 16.44 g/m*3 21.98 C 0 km/h
2070 11-07-2010 05:00:00 22 C 16.23 g/m*3 22 C 0 km/h
2071 11-07-2010 06:00:00 21.84 C 16.08 g/m*3 21.84 C 0 km/h
2072 11-07-2010 07:00:00 22.76 C 15.73 g/m*3 22.76 C 0 km/h
2073 11-07-2010 08:00:00 24.22 C 15.46 g/m*3 24.22 C 0 km/h
2074 11-07-2010 09:00:00 24.42 C 14.79 g/m*3 24.42 C 0 km/h
2075 11-07-2010 10:00:00 26.8 C 12.93 g/m*3 26.8 C 0 km/h
Sensor: Nr:Datum:Temp:Abs-Feuchte:Windchill:Wind:
Aussen-T/F 2076 11-07-2010 11:00:00 28.54 C 12.27 g/m*3 28.54 C 0 km/h
2077 11-07-2010 12:00:00 30.44 C 10.81 g/m*3 30.44 C 0 km/h
2078 11-07-2010 13:00:00 31.66 C 9.15 g/m*3 31.66 C 0 km/h
2079 11-07-2010 14:00:00 32.06 C 8.33 g/m*3 32.06 C 0 km/h
2080 11-07-2010 15:00:00 32.84 C 7.55 g/m*3 32.84 C 0 km/h
2081 11-07-2010 16:00:00 33.7 C 7.39 g/m*3 33.7 C 0 km/h
2082 11-07-2010 17:00:00 34.26 C 7.61 g/m*3 34.26 C 0 km/h
2083 11-07-2010 18:00:00 34.12 C 7.55 g/m*3 34.12 C 0 km/h
2084 11-07-2010 19:00:00 33.92 C 7.47 g/m*3 33.92 C 0 km/h
2085 11-07-2010 20:00:00 33.3 C 7.88 g/m*3 33.3 C 0 km/h
2086 11-07-2010 21:00:00 30.88 C 10.11 g/m*3 30.88 C 0 km/h
2087 11-07-2010 22:00:00 29.82 C 10.87 g/m*3 29.82 C 0 km/h
2088 11-07-2010 23:00:00 28.54 C 11.15 g/m*3 28.54 C 0 km/h
2089 12-07-2010 00:00:00 27.24 C 11.84 g/m*3 27.24 C 0 km/h
2090 12-07-2010 01:00:00 26.02 C 12.33 g/m*3 26.02 C 0 km/h
2091 12-07-2010 02:00:00 25.12 C 12.7 g/m*3 25.12 C 0 km/h
2092 12-07-2010 03:00:00 24.18 C 13.1 g/m*3 24.18 C 0 km/h
2093 12-07-2010 04:00:00 23.32 C 13.06 g/m*3 23.32 C 0 km/h
2094 12-07-2010 05:00:00 22.66 C 13.18 g/m*3 22.66 C 0 km/h
2095 12-07-2010 06:00:00 22.54 C 13.37 g/m*3 22.54 C 0 km/h
2096 12-07-2010 07:00:00 22.86 C 13.62 g/m*3 22.86 C 0 km/h
2097 12-07-2010 08:00:00 23.86 C 13.64 g/m*3 23.86 C 0 km/h
2098 12-07-2010 09:00:00 26.72 C 13.58 g/m*3 26.72 C 0 km/h
2099 12-07-2010 10:00:00 29.96 C 12.53 g/m*3 29.96 C 0 km/h
2100 12-07-2010 11:00:00 31.78 C 9.94 g/m*3 31.78 C 0 km/h
Sensor: Nr:Datum:Temp:Abs-Feuchte:Windchill:Wind:
Aussen-T/F 2101 12-07-2010 12:00:00 31.04 C 8.15 g/m*3 31.04 C 0 km/h
2102 12-07-2010 13:00:00 28.12 C 11.77 g/m*3 28.12 C 0 km/h
2103 12-07-2010 14:00:00 30.7 C 9.45 g/m*3 30.7 C 0 km/h
2104 12-07-2010 15:00:00 31.62 C 7.94 g/m*3 31.62 C 0 km/h
2105 12-07-2010 16:00:00 31.9 C 6.72 g/m*3 31.9 C 0 km/h
2106 12-07-2010 17:00:00 31.54 C 6.59 g/m*3 31.54 C 0 km/h
2107 12-07-2010 18:00:00 30.18 C 7.41 g/m*3 30.18 C 0 km/h
2108 12-07-2010 19:00:00 28.68 C 7.62 g/m*3 28.68 C 0 km/h
2109 12-07-2010 20:00:00 26.96 C 7.86 g/m*3 26.96 C 0 km/h
2110 12-07-2010 21:00:00 25.72 C 8.96 g/m*3 25.72 C 0 km/h
2111 12-07-2010 22:00:00 24.62 C 9.24 g/m*3 24.62 C 0 km/h
2112 12-07-2010 23:00:00 23.48 C 9.72 g/m*3 23.48 C 0 km/h
2113 13-07-2010 00:00:00 22.3 C 10.35 g/m*3 22.3 C 0 km/h
2114 13-07-2010 01:00:00 21.42 C 10.7 g/m*3 21.42 C 0 km/h
2115 13-07-2010 02:00:00 20.66 C 10.92 g/m*3 20.66 C 0 km/h
2116 13-07-2010 03:00:00 19.88 C 11.22 g/m*3 19.88 C 0 km/h
2117 13-07-2010 04:00:00 19.62 C 11.66 g/m*3 19.62 C 0 km/h
2118 13-07-2010 05:00:00 18.72 C 12.25 g/m*3 18.72 C 0 km/h
2119 13-07-2010 06:00:00 18.8 C 12.11 g/m*3 18.8 C 0 km/h
2120 13-07-2010 07:00:00 19.62 C 12.03 g/m*3 19.62 C 0 km/h
2121 13-07-2010 08:00:00 20.92 C 11.96 g/m*3 20.92 C 0 km/h
2122 13-07-2010 09:00:00 22.64 C 11.8 g/m*3 22.64 C 0 km/h
2123 13-07-2010 10:00:00 24.6 C 11.07 g/m*3 24.6 C 0 km/h
2124 13-07-2010 11:00:00 26.1 C 10.28 g/m*3 26.1 C 0 km/h
2125 13-07-2010 12:00:00 29.44 C 8.59 g/m*3 29.44 C 0 km/h
Sensor: Nr:Datum:Temp:Abs-Feuchte:Windchill:Wind:
Aussen-T/F 2126 13-07-2010 13:00:00 29.32 C 8.01 g/m*3 29.32 C 0 km/h
2127 13-07-2010 14:00:00 29.04 C 8.35 g/m*3 29.04 C 0 km/h
2128 13-07-2010 15:00:00 30.72 C 7.31 g/m*3 30.72 C 0 km/h
2129 13-07-2010 16:00:00 31.06 C 6.87 g/m*3 31.06 C 0 km/h
2130 13-07-2010 17:00:00 31.74 C 6.66 g/m*3 31.74 C 0 km/h
2131 13-07-2010 18:00:00 31.86 C 6.7 g/m*3 31.86 C 0 km/h
2132 13-07-2010 19:00:00 31.36 C 6.53 g/m*3 31.36 C 0 km/h
2133 13-07-2010 20:00:00 31.12 C 6.76 g/m*3 31.12 C 0 km/h
2134 13-07-2010 21:00:00 27.84 C 8.03 g/m*3 27.84 C 0 km/h
2135 13-07-2010 22:00:00 25.46 C 8.6 g/m*3 25.46 C 0 km/h
2136 13-07-2010 23:00:00 24.42 C 9.13 g/m*3 24.42 C 0 km/h
2137 14-07-2010 00:00:00 23.68 C 9.61 g/m*3 23.68 C 0 km/h
2138 14-07-2010 01:00:00 23.16 C 10 g/m*3 23.16 C 0 km/h
2139 14-07-2010 02:00:00 22.54 C 10.33 g/m*3 22.54 C 0 km/h
2140 14-07-2010 03:00:00 21.58 C 10.61 g/m*3 21.58 C 0 km/h
2141 14-07-2010 04:00:00 20.72 C 11.03 g/m*3 20.72 C 0 km/h
2142 14-07-2010 05:00:00 20.1 C 11.13 g/m*3 20.1 C 0 km/h
2143 14-07-2010 06:00:00 20.3 C 11.29 g/m*3 20.3 C 0 km/h
2144 14-07-2010 07:00:00 20.58 C 11.58 g/m*3 20.58 C 0 km/h
2145 14-07-2010 08:00:00 21.82 C 11.76 g/m*3 21.82 C 0 km/h
2146 14-07-2010 09:00:00 24.66 C 11.92 g/m*3 24.66 C 0 km/h
2147 14-07-2010 10:00:00 27.88 C 10.48 g/m*3 27.88 C 0 km/h
2148 14-07-2010 11:00:00 30.4 C 9.23 g/m*3 30.4 C 0 km/h
2149 14-07-2010 12:00:00 31.44 C 8.19 g/m*3 31.44 C 0 km/h
2150 14-07-2010 13:00:00 32.42 C 7.39 g/m*3 32.42 C 0 km/h
Sensor: Nr:Datum:Temp:Abs-Feuchte:Windchill:Wind:
Aussen-T/F 2151 14-07-2010 14:00:00 32.94 C 7.1 g/m*3 32.94 C 0 km/h
2152 14-07-2010 15:00:00 33.26 C 7.22 g/m*3 33.26 C 0 km/h
2153 14-07-2010 16:00:00 34.4 C 7.66 g/m*3 34.4 C 0 km/h
2154 14-07-2010 17:00:00 34.5 C 7.7 g/m*3 34.5 C 0 km/h
2155 14-07-2010 18:00:00 34.66 C 7.77 g/m*3 34.66 C 0 km/h
2156 14-07-2010 19:00:00 25.84 C 13.61 g/m*3 25.84 C 0 km/h
2157 14-07-2010 20:00:00 22.34 C 16.51 g/m*3 22.34 C 0 km/h
2158 14-07-2010 21:00:00 21.74 C 15.41 g/m*3 21.74 C 0 km/h
2159 14-07-2010 22:00:00 21.5 C 14.67 g/m*3 21.5 C 0 km/h
2160 14-07-2010 23:00:00 21.28 C 14 g/m*3 21.28 C 0 km/h
2161 15-07-2010 00:00:00 21.04 C 13.44 g/m*3 21.04 C 0 km/h
2162 15-07-2010 01:00:00 20.16 C 11.76 g/m*3 20.16 C 0 km/h
2163 15-07-2010 02:00:00 19.58 C 11.63 g/m*3 19.58 C 0 km/h
2164 15-07-2010 03:00:00 19.32 C 11.06 g/m*3 19.32 C 0 km/h
2165 15-07-2010 04:00:00 18.94 C 11.04 g/m*3 18.94 C 0 km/h
2166 15-07-2010 05:00:00 18.76 C 11.18 g/m*3 18.76 C 0 km/h
2167 15-07-2010 06:00:00 18.9 C 10.98 g/m*3 18.9 C 0 km/h
2168 15-07-2010 07:00:00 18.5 C 11.9 g/m*3 18.5 C 0 km/h
2169 15-07-2010 08:00:00 18.42 C 11.68 g/m*3 18.42 C 0 km/h
2170 15-07-2010 09:00:00 19.58 C 9.07 g/m*3 19.58 C 0 km/h
2171 15-07-2010 10:00:00 21.22 C 7.57 g/m*3 21.22 C 0 km/h
2172 15-07-2010 11:00:00 22.32 C 6.76 g/m*3 22.32 C 0 km/h
2173 15-07-2010 12:00:00 24.42 C 5.84 g/m*3 24.42 C 0 km/h
2174 15-07-2010 13:00:00 26.14 C 5.1 g/m*3 26.14 C 0 km/h
2175 15-07-2010 14:00:00 26.22 C 4.93 g/m*3 26.22 C 0 km/h
Sensor: Nr:Datum:Temp:Abs-Feuchte:Windchill:Wind:
Aussen-T/F 2176 15-07-2010 15:00:00 26.9 C 5.12 g/m*3 26.9 C 0 km/h
2177 15-07-2010 16:00:00 27.82 C 5.39 g/m*3 27.82 C 0 km/h
2178 15-07-2010 17:00:00 28.46 C 5.58 g/m*3 28.46 C 0 km/h
2179 15-07-2010 18:00:00 27.98 C 5.43 g/m*3 27.98 C 0 km/h
2180 15-07-2010 19:00:00 27.26 C 5.22 g/m*3 27.26 C 0 km/h
2181 15-07-2010 20:00:00 26.6 C 5.24 g/m*3 26.6 C 0 km/h
2182 15-07-2010 21:00:00 23.74 C 6.09 g/m*3 23.74 C 0 km/h
2183 15-07-2010 22:00:00 21.46 C 6.4 g/m*3 21.46 C 0 km/h
2184 15-07-2010 23:00:00 19.92 C 6.78 g/m*3 19.92 C 0 km/h
2185 16-07-2010 00:00:00 18.6 C 6.91 g/m*3 18.6 C 0 km/h
2186 16-07-2010 01:00:00 17.76 C 7.3 g/m*3 17.76 C 0 km/h
2187 16-07-2010 02:00:00 16.74 C 7.89 g/m*3 16.74 C 0 km/h
2188 16-07-2010 03:00:00 15.96 C 8.1 g/m*3 15.96 C 0 km/h
2189 16-07-2010 04:00:00 15.22 C 8.16 g/m*3 15.22 C 0 km/h
2190 16-07-2010 05:00:00 14.64 C 8.3 g/m*3 14.64 C 0 km/h
2191 16-07-2010 06:00:00 14.46 C 8.61 g/m*3 14.46 C 0 km/h
2192 16-07-2010 07:00:00 15.16 C 8.88 g/m*3 15.16 C 0 km/h
2193 16-07-2010 08:00:00 16.62 C 9 g/m*3 16.62 C 0 km/h
2194 16-07-2010 09:00:00 19.68 C 9.36 g/m*3 19.68 C 0 km/h
2195 16-07-2010 10:00:00 23.6 C 8.72 g/m*3 23.6 C 0 km/h
2196 16-07-2010 11:00:00 26.26 C 5.83 g/m*3 26.26 C 0 km/h
2197 16-07-2010 12:00:00 28.54 C 5.66 g/m*3 28.54 C 0 km/h
2198 16-07-2010 13:00:00 30.68 C 6.29 g/m*3 30.68 C 0 km/h
2199 16-07-2010 14:00:00 31.06 C 6.42 g/m*3 31.06 C 0 km/h
2200 16-07-2010 15:00:00 31.86 C 6.7 g/m*3 31.86 C 0 km/h
Sensor: Nr:Datum:Temp:Abs-Feuchte:Windchill:Wind:
Aussen-T/F 2201 16-07-2010 16:00:00 32.44 C 6.91 g/m*3 32.44 C 0 km/h
2202 16-07-2010 17:00:00 32.56 C 6.96 g/m*3 32.56 C 0 km/h
2203 16-07-2010 18:00:00 32.72 C 7.01 g/m*3 32.72 C 0 km/h
2204 16-07-2010 19:00:00 31.24 C 6.55 g/m*3 31.24 C 0 km/h
2205 16-07-2010 20:00:00 29.4 C 7.22 g/m*3 29.4 C 0 km/h
2206 16-07-2010 21:00:00 28.3 C 7.46 g/m*3 28.3 C 0 km/h
2207 16-07-2010 22:00:00 26.38 C 7.71 g/m*3 26.38 C 0 km/h
2208 16-07-2010 23:00:00 25.56 C 8.46 g/m*3 25.56 C 0 km/h
2209 17-07-2010 00:00:00 23.3 C 9.12 g/m*3 23.3 C 0 km/h
2210 17-07-2010 01:00:00 20.7 C 11.2 g/m*3 20.7 C 0 km/h
2211 17-07-2010 02:00:00 20.18 C 11.11 g/m*3 20.18 C 0 km/h
2212 17-07-2010 03:00:00 19.88 C 11.88 g/m*3 19.88 C 0 km/h
2213 17-07-2010 04:00:00 19.16 C 12.5 g/m*3 19.16 C 0 km/h
2214 17-07-2010 05:00:00 18.08 C 13.36 g/m*3 18.08 C 0 km/h
2215 17-07-2010 06:00:00 17.68 C 13.38 g/m*3 17.68 C 0 km/h
2216 17-07-2010 07:00:00 17.88 C 13.54 g/m*3 17.88 C 0 km/h
2217 17-07-2010 08:00:00 17.64 C 13.38 g/m*3 17.64 C 0 km/h
2218 17-07-2010 09:00:00 18.54 C 13.51 g/m*3 18.54 C 0 km/h
2219 17-07-2010 10:00:00 19.6 C 12.56 g/m*3 19.6 C 0 km/h
2220 17-07-2010 11:00:00 22.2 C 11.5 g/m*3 22.2 C 0 km/h
2221 17-07-2010 12:00:00 24.66 C 9.08 g/m*3 24.66 C 0 km/h
2222 17-07-2010 13:00:00 26.02 C 7.56 g/m*3 26.02 C 0 km/h
2223 17-07-2010 14:00:00 26.14 C 7.26 g/m*3 26.14 C 0 km/h
2224 17-07-2010 15:00:00 27.18 C 6.5 g/m*3 27.18 C 0 km/h
2225 17-07-2010 16:00:00 26.72 C 6.08 g/m*3 26.72 C 0 km/h
Sensor: Nr:Datum:Temp:Abs-Feuchte:Windchill:Wind:
Aussen-T/F 2226 17-07-2010 17:00:00 25.8 C 7.42 g/m*3 25.8 C 0 km/h
2227 17-07-2010 18:00:00 24 C 7.57 g/m*3 24 C 0 km/h
2228 17-07-2010 19:00:00 24.16 C 7.11 g/m*3 24.16 C 0 km/h
2229 17-07-2010 20:00:00 24.46 C 5.81 g/m*3 24.46 C 0 km/h
2230 17-07-2010 21:00:00 22.26 C 6.15 g/m*3 22.26 C 0 km/h
2231 17-07-2010 22:00:00 21.44 C 6.28 g/m*3 21.44 C 0 km/h
2232 17-07-2010 23:00:00 20.12 C 6.13 g/m*3 20.12 C 0 km/h
2233 18-07-2010 00:00:00 18.64 C 6.06 g/m*3 18.64 C 0 km/h
2234 18-07-2010 01:00:00 17.16 C 6.34 g/m*3 17.16 C 0 km/h
2235 18-07-2010 02:00:00 15.96 C 6.88 g/m*3 15.96 C 0 km/h
2236 18-07-2010 03:00:00 14.8 C 7.14 g/m*3 14.8 C 0 km/h
2237 18-07-2010 04:00:00 13.9 C 7.48 g/m*3 13.9 C 0 km/h
2238 18-07-2010 05:00:00 13 C 7.83 g/m*3 13 C 0 km/h
2239 18-07-2010 06:00:00 12.56 C 8.1 g/m*3 12.56 C 0 km/h
2240 18-07-2010 07:00:00 12.96 C 8.05 g/m*3 12.96 C 0 km/h
2241 18-07-2010 08:00:00 14.54 C 7.9 g/m*3 14.54 C 0 km/h
2242 18-07-2010 09:00:00 17.16 C 7.68 g/m*3 17.16 C 0 km/h
2243 18-07-2010 10:00:00 20.18 C 7.09 g/m*3 20.18 C 0 km/h
2244 18-07-2010 11:00:00 22.12 C 5.75 g/m*3 22.12 C 0 km/h
2245 18-07-2010 12:00:00 25.16 C 4.88 g/m*3 25.16 C 0 km/h
2246 18-07-2010 13:00:00 27.62 C 5.33 g/m*3 27.62 C 0 km/h
2247 18-07-2010 14:00:00 27.34 C 5.24 g/m*3 27.34 C 0 km/h
2248 18-07-2010 15:00:00 29.58 C 5.93 g/m*3 29.58 C 0 km/h
2249 18-07-2010 16:00:00 30.76 C 6.32 g/m*3 30.76 C 0 km/h
2250 18-07-2010 17:00:00 31.26 C 6.49 g/m*3 31.26 C 0 km/h
Sensor: Nr:Datum:Temp:Abs-Feuchte:Windchill:Wind:
Aussen-T/F 2251 18-07-2010 18:00:00 31.26 C 6.49 g/m*3 31.26 C 0 km/h
2252 18-07-2010 19:00:00 30.48 C 6.22 g/m*3 30.48 C 0 km/h
2253 18-07-2010 20:00:00 29.1 C 5.78 g/m*3 29.1 C 0 km/h
2254 18-07-2010 21:00:00 24.12 C 5.39 g/m*3 24.12 C 0 km/h
2255 18-07-2010 22:00:00 21.72 C 5.92 g/m*3 21.72 C 0 km/h
2256 18-07-2010 23:00:00 20.34 C 6.28 g/m*3 20.34 C 0 km/h
2257 19-07-2010 00:00:00 18.92 C 6.36 g/m*3 18.92 C 0 km/h
2258 19-07-2010 01:00:00 17.68 C 6.66 g/m*3 17.68 C 0 km/h
2259 19-07-2010 02:00:00 16.46 C 6.86 g/m*3 16.46 C 0 km/h
2260 19-07-2010 03:00:00 15.48 C 7.1 g/m*3 15.48 C 0 km/h
2261 19-07-2010 04:00:00 14.62 C 7.32 g/m*3 14.62 C 0 km/h
2262 19-07-2010 05:00:00 13.8 C 7.51 g/m*3 13.8 C 0 km/h
2263 19-07-2010 06:00:00 13.58 C 7.88 g/m*3 13.58 C 0 km/h
2264 19-07-2010 07:00:00 14.02 C 8.21 g/m*3 14.02 C 0 km/h
2265 19-07-2010 08:00:00 15.3 C 8.28 g/m*3 15.3 C 0 km/h
2266 19-07-2010 09:00:00 18.52 C 8.55 g/m*3 18.52 C 0 km/h
2267 19-07-2010 10:00:00 22.46 C 8.01 g/m*3 22.46 C 0 km/h
2268 19-07-2010 11:00:00 25.78 C 6.54 g/m*3 25.78 C 0 km/h
2269 19-07-2010 12:00:00 28.82 C 5.8 g/m*3 28.82 C 0 km/h
2270 19-07-2010 13:00:00 31.2 C 6.47 g/m*3 31.2 C 0 km/h
2271 19-07-2010 14:00:00 30.84 C 6.35 g/m*3 30.84 C 0 km/h
2272 19-07-2010 15:00:00 31.7 C 6.64 g/m*3 31.7 C 0 km/h
2273 19-07-2010 16:00:00 32.82 C 7.05 g/m*3 32.82 C 0 km/h
2274 19-07-2010 17:00:00 33.58 C 7.34 g/m*3 33.58 C 0 km/h
2275 19-07-2010 18:00:00 33.5 C 7.31 g/m*3 33.5 C 0 km/h
Sensor: Nr:Datum:Temp:Abs-Feuchte:Windchill:Wind:
Aussen-T/F 2276 19-07-2010 19:00:00 32.84 C 7.06 g/m*3 32.84 C 0 km/h
2277 19-07-2010 20:00:00 31.38 C 6.53 g/m*3 31.38 C 0 km/h
2278 19-07-2010 21:00:00 26.84 C 6.79 g/m*3 26.84 C 0 km/h
2279 19-07-2010 22:00:00 24.12 C 7.05 g/m*3 24.12 C 0 km/h
2280 19-07-2010 23:00:00 22.9 C 7.32 g/m*3 22.9 C 0 km/h
2281 20-07-2010 00:00:00 21.74 C 7.84 g/m*3 21.74 C 0 km/h
2282 20-07-2010 01:00:00 20.42 C 8.08 g/m*3 20.42 C 0 km/h
2283 20-07-2010 02:00:00 19.32 C 8.24 g/m*3 19.32 C 0 km/h
2284 20-07-2010 03:00:00 18.2 C 8.36 g/m*3 18.2 C 0 km/h
2285 20-07-2010 04:00:00 17.24 C 8.48 g/m*3 17.24 C 0 km/h
2286 20-07-2010 05:00:00 16.48 C 8.58 g/m*3 16.48 C 0 km/h
2287 20-07-2010 06:00:00 16.1 C 8.96 g/m*3 16.1 C 0 km/h
2288 20-07-2010 07:00:00 16.78 C 9.25 g/m*3 16.78 C 0 km/h
2289 20-07-2010 08:00:00 18.04 C 9.24 g/m*3 18.04 C 0 km/h
2290 20-07-2010 09:00:00 20.96 C 9.21 g/m*3 20.96 C 0 km/h
2291 20-07-2010 10:00:00 24.8 C 8.29 g/m*3 24.8 C 0 km/h
2292 20-07-2010 11:00:00 27.74 C 6.76 g/m*3 27.74 C 0 km/h
2293 20-07-2010 12:00:00 30.42 C 6.33 g/m*3 30.42 C 0 km/h
2294 20-07-2010 13:00:00 32.22 C 6.83 g/m*3 32.22 C 0 km/h
2295 20-07-2010 14:00:00 31.78 C 6.67 g/m*3 31.78 C 0 km/h
2296 20-07-2010 15:00:00 32.34 C 6.87 g/m*3 32.34 C 0 km/h
2297 20-07-2010 16:00:00 33.06 C 7.14 g/m*3 33.06 C 0 km/h
2298 20-07-2010 17:00:00 33.26 C 7.22 g/m*3 33.26 C 0 km/h
2299 20-07-2010 18:00:00 32.92 C 7.09 g/m*3 32.92 C 0 km/h
2300 20-07-2010 19:00:00 32.02 C 6.76 g/m*3 32.02 C 0 km/h
Sensor: Nr:Datum:Temp:Abs-Feuchte:Windchill:Wind:
Aussen-T/F 2301 20-07-2010 20:00:00 30.72 C 6.37 g/m*3 30.72 C 0 km/h
2302 20-07-2010 21:00:00 26.48 C 6.4 g/m*3 26.48 C 0 km/h
2303 20-07-2010 22:00:00 24.4 C 6.59 g/m*3 24.4 C 0 km/h
2304 20-07-2010 23:00:00 23.48 C 6.93 g/m*3 23.48 C 0 km/h
2305 21-07-2010 00:00:00 21.98 C 7.6 g/m*3 21.98 C 0 km/h
2306 21-07-2010 01:00:00 20.86 C 8.03 g/m*3 20.86 C 0 km/h
2307 21-07-2010 02:00:00 19.68 C 8.31 g/m*3 19.68 C 0 km/h
2308 21-07-2010 03:00:00 18.78 C 8.4 g/m*3 18.78 C 0 km/h
2309 21-07-2010 04:00:00 18.08 C 8.58 g/m*3 18.08 C 0 km/h
2310 21-07-2010 05:00:00 17.38 C 8.76 g/m*3 17.38 C 0 km/h
2311 21-07-2010 06:00:00 17.16 C 8.91 g/m*3 17.16 C 0 km/h
2312 21-07-2010 07:00:00 17.8 C 9.32 g/m*3 17.8 C 0 km/h
2313 21-07-2010 08:00:00 19.2 C 9.07 g/m*3 19.2 C 0 km/h
2314 21-07-2010 09:00:00 22.32 C 9.41 g/m*3 22.32 C 0 km/h
2315 21-07-2010 10:00:00 26.54 C 8.63 g/m*3 26.54 C 0 km/h
2316 21-07-2010 11:00:00 29.66 C 7.38 g/m*3 29.66 C 0 km/h
2317 21-07-2010 12:00:00 31.36 C 6.59 g/m*3 31.36 C 0 km/h
2318 21-07-2010 13:00:00 32.52 C 6.94 g/m*3 32.52 C 0 km/h
2319 21-07-2010 14:00:00 32.58 C 6.96 g/m*3 32.58 C 0 km/h
2320 21-07-2010 15:00:00 32.56 C 6.96 g/m*3 32.56 C 0 km/h
2321 21-07-2010 16:00:00 32.44 C 6.91 g/m*3 32.44 C 0 km/h
2322 21-07-2010 17:00:00 31.5 C 6.77 g/m*3 31.5 C 0 km/h
2323 21-07-2010 18:00:00 30.12 C 7.33 g/m*3 30.12 C 0 km/h
2324 21-07-2010 19:00:00 28.72 C 8.03 g/m*3 28.72 C 0 km/h
2325 21-07-2010 20:00:00 23.58 C 12.15 g/m*3 23.58 C 0 km/h
Sensor: Nr:Datum:Temp:Abs-Feuchte:Windchill:Wind:
Aussen-T/F 2326 21-07-2010 21:00:00 23.02 C 11.85 g/m*3 23.02 C 0 km/h
2327 21-07-2010 22:00:00 23 C 11.76 g/m*3 23 C 0 km/h
2328 21-07-2010 23:00:00 22.88 C 11.47 g/m*3 22.88 C 0 km/h
2329 22-07-2010 00:00:00 22.56 C 11.58 g/m*3 22.56 C 0 km/h
2330 22-07-2010 01:00:00 22.16 C 11.64 g/m*3 22.16 C 0 km/h
2331 22-07-2010 02:00:00 21.28 C 11.51 g/m*3 21.28 C 0 km/h
2332 22-07-2010 03:00:00 20.92 C 11.16 g/m*3 20.92 C 0 km/h
2333 22-07-2010 04:00:00 20.5 C 10.36 g/m*3 20.5 C 0 km/h
2334 22-07-2010 05:00:00 19.9 C 9.83 g/m*3 19.9 C 0 km/h
2335 22-07-2010 06:00:00 18.92 C 10.93 g/m*3 18.92 C 0 km/h
2336 22-07-2010 07:00:00 19.24 C 11.54 g/m*3 19.24 C 0 km/h
2337 22-07-2010 08:00:00 21.04 C 10.94 g/m*3 21.04 C 0 km/h
2338 22-07-2010 09:00:00 22.06 C 10.32 g/m*3 22.06 C 0 km/h
2339 22-07-2010 10:00:00 21.58 C 10.68 g/m*3 21.58 C 0 km/h
2340 22-07-2010 11:00:00 21.78 C 11.84 g/m*3 21.78 C 0 km/h
2341 22-07-2010 12:00:00 22.38 C 11.47 g/m*3 22.38 C 0 km/h
2342 22-07-2010 13:00:00 20.9 C 12.79 g/m*3 20.9 C 0 km/h
2343 22-07-2010 14:00:00 21.26 C 12.53 g/m*3 21.26 C 0 km/h
2344 22-07-2010 15:00:00 21.38 C 12.92 g/m*3 21.38 C 0 km/h
2345 22-07-2010 16:00:00 23.2 C 11.56 g/m*3 23.2 C 0 km/h
2346 22-07-2010 17:00:00 22.04 C 13.31 g/m*3 22.04 C 0 km/h
2347 22-07-2010 18:00:00 23 C 12.09 g/m*3 23 C 0 km/h
2348 22-07-2010 19:00:00 22.68 C 11.91 g/m*3 22.68 C 0 km/h
2349 22-07-2010 20:00:00 21.86 C 12.01 g/m*3 21.86 C 0 km/h
2350 22-07-2010 21:00:00 21.06 C 11.91 g/m*3 21.06 C 0 km/h
Sensor: Nr:Datum:Temp:Abs-Feuchte:Windchill:Wind:
Aussen-T/F 2351 22-07-2010 22:00:00 20.48 C 11.8 g/m*3 20.48 C 0 km/h
2352 22-07-2010 23:00:00 20.2 C 11.82 g/m*3 20.2 C 0 km/h
2353 23-07-2010 00:00:00 20.1 C 12.06 g/m*3 20.1 C 0 km/h
2354 23-07-2010 01:00:00 20 C 12.3 g/m*3 20 C 0 km/h
2355 23-07-2010 02:00:00 19.22 C 12.22 g/m*3 19.22 C 0 km/h
2356 23-07-2010 03:00:00 16.34 C 11.63 g/m*3 16.34 C 0 km/h
2357 23-07-2010 04:00:00 16.04 C 11.69 g/m*3 16.04 C 0 km/h
2358 23-07-2010 05:00:00 15.9 C 11.51 g/m*3 15.9 C 0 km/h
2359 23-07-2010 06:00:00 15.86 C 11.54 g/m*3 15.86 C 0 km/h
2360 23-07-2010 07:00:00 17.26 C 12.26 g/m*3 17.26 C 0 km/h
2361 23-07-2010 08:00:00 18.02 C 12.09 g/m*3 18.02 C 0 km/h
2362 23-07-2010 09:00:00 19.08 C 11.82 g/m*3 19.08 C 0 km/h
2363 23-07-2010 10:00:00 21.4 C 10.46 g/m*3 21.4 C 0 km/h
2364 23-07-2010 11:00:00 24.14 C 9.69 g/m*3 24.14 C 0 km/h
2365 23-07-2010 12:00:00 26.46 C 8.09 g/m*3 26.46 C 0 km/h
2366 23-07-2010 13:00:00 27.82 C 6.62 g/m*3 27.82 C 0 km/h
2367 23-07-2010 14:00:00 29.34 C 6.55 g/m*3 29.34 C 0 km/h
2368 23-07-2010 15:00:00 28.4 C 6.39 g/m*3 28.4 C 0 km/h
2369 23-07-2010 16:00:00 28.54 C 6.33 g/m*3 28.54 C 0 km/h
2370 23-07-2010 17:00:00 22.32 C 9.33 g/m*3 22.32 C 0 km/h
2371 23-07-2010 18:00:00 18.1 C 11.53 g/m*3 18.1 C 0 km/h
2372 23-07-2010 19:00:00 16.96 C 12.18 g/m*3 16.96 C 0 km/h
2373 23-07-2010 20:00:00 15.98 C 12.3 g/m*3 15.98 C 0 km/h
2374 23-07-2010 21:00:00 15.58 C 12.25 g/m*3 15.58 C 0 km/h
2375 23-07-2010 22:00:00 15.125 C 12.02 g/m*3 15.13 C 0 km/h
Sensor: Nr:Datum:Temp:Abs-Feuchte:Windchill:Wind:
Aussen-T/F 2376 23-07-2010 23:00:00 15.1 C 12.08 g/m*3 15.1 C 0 km/h
2377 24-07-2010 00:00:00 15.02 C 12.07 g/m*3 15.02 C 0 km/h
2378 24-07-2010 01:00:00 15.12 C 12.14 g/m*3 15.12 C 0 km/h
2379 24-07-2010 02:00:00 15.26 C 12.38 g/m*3 15.26 C 0 km/h
2380 24-07-2010 03:00:00 15.56 C 12.6 g/m*3 15.56 C 0 km/h
2381 24-07-2010 04:00:00 15.64 C 12.4 g/m*3 15.64 C 0 km/h
2382 24-07-2010 05:00:00 15.54 C 11.95 g/m*3 15.54 C 0 km/h
2383 24-07-2010 06:00:00 15.42 C 11.65 g/m*3 15.42 C 0 km/h
2384 24-07-2010 07:00:00 15.5 C 11.58 g/m*3 15.5 C 0 km/h
2385 24-07-2010 08:00:00 16.16 C 11.31 g/m*3 16.16 C 0 km/h
2386 24-07-2010 09:00:00 17.24 C 10.8 g/m*3 17.24 C 0 km/h
2387 24-07-2010 10:00:00 18.62 C 9.66 g/m*3 18.62 C 0 km/h
2388 24-07-2010 11:00:00 19.44 C 8.83 g/m*3 19.44 C 0 km/h
2389 24-07-2010 12:00:00 20.52 C 8.19 g/m*3 20.52 C 0 km/h
2390 24-07-2010 13:00:00 22.72 C 6.63 g/m*3 22.72 C 0 km/h
2391 24-07-2010 14:00:00 23.48 C 6.17 g/m*3 23.48 C 0 km/h
2392 24-07-2010 15:00:00 24.1 C 5.47 g/m*3 24.1 C 0 km/h
2393 24-07-2010 16:00:00 23.86 C 4.66 g/m*3 23.86 C 0 km/h
2394 24-07-2010 17:00:00 24.36 C 4.44 g/m*3 24.36 C 0 km/h
2395 24-07-2010 18:00:00 23.48 C 4.22 g/m*3 23.48 C 0 km/h
2396 24-07-2010 19:00:00 23.22 C 4.16 g/m*3 23.22 C 0 km/h
2397 24-07-2010 20:00:00 22.72 C 4.05 g/m*3 22.72 C 0 km/h
2398 24-07-2010 21:00:00 19.76 C 4.5 g/m*3 19.76 C 0 km/h
2399 24-07-2010 22:00:00 17.5 C 5.19 g/m*3 17.5 C 0 km/h
2400 24-07-2010 23:00:00 15.92 C 6.1 g/m*3 15.92 C 0 km/h
Sensor: Nr:Datum:Temp:Abs-Feuchte:Windchill:Wind:
Aussen-T/F 2401 25-07-2010 00:00:00 14.54 C 6.58 g/m*3 14.54 C 0 km/h
2402 25-07-2010 01:00:00 13.5 C 6.81 g/m*3 13.5 C 0 km/h
2403 25-07-2010 02:00:00 12.7 C 6.97 g/m*3 12.7 C 0 km/h
2404 25-07-2010 03:00:00 11.86 C 7.06 g/m*3 11.86 C 0 km/h
2405 25-07-2010 04:00:00 10.96 C 7.31 g/m*3 10.96 C 0 km/h
2406 25-07-2010 05:00:00 10.16 C 7.38 g/m*3 10.16 C 0 km/h
2407 25-07-2010 06:00:00 10.04 C 7.4 g/m*3 10.04 C 0 km/h
2408 25-07-2010 07:00:00 10.92 C 7.55 g/m*3 10.92 C 0 km/h
2409 25-07-2010 08:00:00 12.12 C 7.9 g/m*3 12.12 C 0 km/h
2410 25-07-2010 09:00:00 14.94 C 7.61 g/m*3 14.94 C 0 km/h
2411 25-07-2010 10:00:00 17.8 C 6.77 g/m*3 17.8 C 0 km/h
2412 25-07-2010 11:00:00 20.86 C 6.14 g/m*3 20.86 C 0 km/h
2413 25-07-2010 12:00:00 22.94 C 5.9 g/m*3 22.94 C 0 km/h
2414 25-07-2010 13:00:00 23.38 C 6.22 g/m*3 23.38 C 0 km/h
2415 25-07-2010 14:00:00 22.2 C 6.95 g/m*3 22.2 C 0 km/h
2416 25-07-2010 15:00:00 21.58 C 7.01 g/m*3 21.58 C 0 km/h
2417 25-07-2010 16:00:00 21.98 C 7.13 g/m*3 21.98 C 0 km/h
2418 25-07-2010 17:00:00 23.4 C 6.6 g/m*3 23.4 C 0 km/h
2419 25-07-2010 18:00:00 22.26 C 7.53 g/m*3 22.26 C 0 km/h
2420 25-07-2010 19:00:00 20.8 C 7.89 g/m*3 20.8 C 0 km/h
2421 25-07-2010 20:00:00 20.16 C 7.82 g/m*3 20.16 C 0 km/h
2422 25-07-2010 21:00:00 19.08 C 9.43 g/m*3 19.08 C 0 km/h
2423 25-07-2010 22:00:00 18.38 C 10.18 g/m*3 18.38 C 0 km/h
2424 25-07-2010 23:00:00 17.88 C 10.28 g/m*3 17.88 C 0 km/h
2425 26-07-2010 00:00:00 17.56 C 9.93 g/m*3 17.56 C 0 km/h
Sensor: Nr:Datum:Temp:Abs-Feuchte:Windchill:Wind:
Aussen-T/F 2426 26-07-2010 01:00:00 17.26 C 9.99 g/m*3 17.26 C 0 km/h
2427 26-07-2010 02:00:00 16.8 C 10.04 g/m*3 16.8 C 0 km/h
2428 26-07-2010 03:00:00 16.42 C 10.2 g/m*3 16.42 C 0 km/h
2429 26-07-2010 04:00:00 16.24 C 10.59 g/m*3 16.24 C 0 km/h
2430 26-07-2010 05:00:00 15.52 C 11.28 g/m*3 15.52 C 0 km/h
2431 26-07-2010 06:00:00 15.4 C 11.46 g/m*3 15.4 C 0 km/h
2432 26-07-2010 07:00:00 16.02 C 11.95 g/m*3 16.02 C 0 km/h
2433 26-07-2010 08:00:00 16.98 C 11.91 g/m*3 16.98 C 0 km/h
2434 26-07-2010 09:00:00 18.38 C 11.72 g/m*3 18.38 C 0 km/h
2435 26-07-2010 10:00:00 20.24 C 10.76 g/m*3 20.24 C 0 km/h
2436 26-07-2010 11:00:00 20.94 C 10.59 g/m*3 20.94 C 0 km/h
2437 26-07-2010 12:00:00 19.04 C 12.55 g/m*3 19.04 C 0 km/h
2438 26-07-2010 13:00:00 18.16 C 12.72 g/m*3 18.16 C 0 km/h
2439 26-07-2010 14:00:00 17.36 C 13.16 g/m*3 17.36 C 0 km/h
2440 26-07-2010 15:00:00 17.92 C 13.7 g/m*3 17.92 C 0 km/h
2441 26-07-2010 16:00:00 19.68 C 13.4 g/m*3 19.68 C 0 km/h
2442 26-07-2010 17:00:00 19.08 C 11.33 g/m*3 19.08 C 0 km/h
2443 26-07-2010 18:00:00 17.16 C 11.34 g/m*3 17.16 C 0 km/h
2444 26-07-2010 19:00:00 16.92 C 11.61 g/m*3 16.92 C 0 km/h
2445 26-07-2010 20:00:00 16.16 C 11.12 g/m*3 16.16 C 0 km/h
2446 26-07-2010 21:00:00 15.3 C 11.28 g/m*3 15.3 C 0 km/h
2447 26-07-2010 22:00:00 15.22 C 10.86 g/m*3 15.22 C 0 km/h
2448 26-07-2010 23:00:00 15.26 C 10.84 g/m*3 15.26 C 0 km/h
2449 27-07-2010 00:00:00 15.34 C 11.13 g/m*3 15.34 C 0 km/h
2450 27-07-2010 01:00:00 15.48 C 11.2 g/m*3 15.48 C 0 km/h
Sensor: Nr:Datum:Temp:Abs-Feuchte:Windchill:Wind:
Aussen-T/F 2451 27-07-2010 02:00:00 15.6 C 11.04 g/m*3 15.6 C 0 km/h
2452 27-07-2010 03:00:00 15.42 C 10.97 g/m*3 15.42 C 0 km/h
2453 27-07-2010 04:00:00 15.26 C 10.84 g/m*3 15.26 C 0 km/h
2454 27-07-2010 05:00:00 15.14 C 10.84 g/m*3 15.14 C 0 km/h
2455 27-07-2010 06:00:00 15.28 C 10.77 g/m*3 15.28 C 0 km/h
2456 27-07-2010 07:00:00 15.68 C 10.64 g/m*3 15.68 C 0 km/h
2457 27-07-2010 08:00:00 16.22 C 10.6 g/m*3 16.22 C 0 km/h
2458 27-07-2010 09:00:00 16.88 C 10.54 g/m*3 16.88 C 0 km/h
2459 27-07-2010 10:00:00 18.52 C 10.07 g/m*3 18.52 C 0 km/h
2460 27-07-2010 11:00:00 20.18 C 9.57 g/m*3 20.18 C 0 km/h
2461 27-07-2010 12:00:00 22.08 C 9.09 g/m*3 22.08 C 0 km/h
2462 27-07-2010 13:00:00 23.96 C 7.9 g/m*3 23.96 C 0 km/h
2463 27-07-2010 14:00:00 24.42 C 7.66 g/m*3 24.42 C 0 km/h
2464 27-07-2010 15:00:00 25.38 C 7.57 g/m*3 25.38 C 0 km/h
2465 27-07-2010 16:00:00 27.9 C 6.82 g/m*3 27.9 C 0 km/h
2466 27-07-2010 17:00:00 28.32 C 6.2 g/m*3 28.32 C 0 km/h
2467 27-07-2010 18:00:00 25.06 C 7.67 g/m*3 25.06 C 0 km/h
2468 27-07-2010 19:00:00 23.42 C 8.63 g/m*3 23.42 C 0 km/h
2469 27-07-2010 20:00:00 22 C 8.38 g/m*3 22 C 0 km/h
2470 27-07-2010 21:00:00 20.46 C 8.7 g/m*3 20.46 C 0 km/h
2471 27-07-2010 22:00:00 19.12 C 9.16 g/m*3 19.12 C 0 km/h
2472 27-07-2010 23:00:00 18.44 C 9.33 g/m*3 18.44 C 0 km/h
2473 28-07-2010 00:00:00 18.2 C 9.79 g/m*3 18.2 C 0 km/h
2474 28-07-2010 01:00:00 17.16 C 9.85 g/m*3 17.16 C 0 km/h
2475 28-07-2010 02:00:00 16.96 C 10.22 g/m*3 16.96 C 0 km/h
Sensor: Nr:Datum:Temp:Abs-Feuchte:Windchill:Wind:
Aussen-T/F 2476 28-07-2010 03:00:00 17.04 C 10.33 g/m*3 17.04 C 0 km/h
2477 28-07-2010 04:00:00 16.96 C 10.48 g/m*3 16.96 C 0 km/h
2478 28-07-2010 05:00:00 16.84 C 10.58 g/m*3 16.84 C 0 km/h
2479 28-07-2010 06:00:00 17.02 C 10.81 g/m*3 17.02 C 0 km/h
2480 28-07-2010 07:00:00 16.32 C 12.11 g/m*3 16.32 C 0 km/h
2481 28-07-2010 08:00:00 17.1 C 13.01 g/m*3 17.1 C 0 km/h
2482 28-07-2010 09:00:00 17.56 C 12.78 g/m*3 17.56 C 0 km/h
2483 28-07-2010 10:00:00 17.7 C 13.25 g/m*3 17.7 C 0 km/h
2484 28-07-2010 11:00:00 20.26 C 13.58 g/m*3 20.26 C 0 km/h
2485 28-07-2010 12:00:00 21.22 C 13.02 g/m*3 21.22 C 0 km/h
2486 28-07-2010 13:00:00 23.74 C 12.26 g/m*3 23.74 C 0 km/h
2487 28-07-2010 14:00:00 25.74 C 9.31 g/m*3 25.74 C 0 km/h
2488 28-07-2010 15:00:00 26 C 7.69 g/m*3 26 C 0 km/h
2489 28-07-2010 16:00:00 27.78 C 7.04 g/m*3 27.78 C 0 km/h
2490 28-07-2010 17:00:00 28.8 C 6.65 g/m*3 28.8 C 0 km/h
2491 28-07-2010 18:00:00 26.74 C 6.7 g/m*3 26.74 C 0 km/h
2492 28-07-2010 19:00:00 22.5 C 10.07 g/m*3 22.5 C 0 km/h
2493 28-07-2010 20:00:00 21.78 C 10.2 g/m*3 21.78 C 0 km/h
2494 28-07-2010 21:00:00 20.6 C 10.63 g/m*3 20.6 C 0 km/h
2495 28-07-2010 22:00:00 19.78 C 11.26 g/m*3 19.78 C 0 km/h
2496 28-07-2010 23:00:00 18.38 C 13.01 g/m*3 18.38 C 0 km/h
2497 29-07-2010 00:00:00 17.16 C 13.12 g/m*3 17.16 C 0 km/h
2498 29-07-2010 01:00:00 16.06 C 12.63 g/m*3 16.06 C 0 km/h
2499 29-07-2010 02:00:00 15.16 C 12.04 g/m*3 15.16 C 0 km/h
2500 29-07-2010 03:00:00 14.76 C 11.85 g/m*3 14.76 C 0 km/h
Sensor: Nr:Datum:Temp:Abs-Feuchte:Windchill:Wind:
Aussen-T/F 2501 29-07-2010 04:00:00 14.44 C 11.65 g/m*3 14.44 C 0 km/h
2502 29-07-2010 05:00:00 14.34 C 11.6 g/m*3 14.34 C 0 km/h
2503 29-07-2010 06:00:00 14.62 C 11.9 g/m*3 14.62 C 0 km/h
2504 29-07-2010 07:00:00 14.88 C 12.07 g/m*3 14.88 C 0 km/h
2505 29-07-2010 08:00:00 15.38 C 12.47 g/m*3 15.38 C 0 km/h
2506 29-07-2010 09:00:00 15.48 C 12.23 g/m*3 15.48 C 0 km/h
2507 29-07-2010 10:00:00 15.22 C 11.67 g/m*3 15.22 C 0 km/h
2508 29-07-2010 11:00:00 14.64 C 11.42 g/m*3 14.64 C 0 km/h
2509 29-07-2010 12:00:00 17.28 C 12.6 g/m*3 17.28 C 0 km/h
2510 29-07-2010 13:00:00 18.44 C 11.1 g/m*3 18.44 C 0 km/h
2511 29-07-2010 14:00:00 17.76 C 10.93 g/m*3 17.76 C 0 km/h
2512 29-07-2010 15:00:00 18.24 C 10.75 g/m*3 18.24 C 0 km/h
2513 29-07-2010 16:00:00 19.64 C 10.93 g/m*3 19.64 C 0 km/h
2514 29-07-2010 17:00:00 17.12 C 11.16 g/m*3 17.12 C 0 km/h
2515 29-07-2010 18:00:00 17.82 C 11.31 g/m*3 17.82 C 0 km/h
2516 29-07-2010 19:00:00 18.34 C 9.69 g/m*3 18.34 C 0 km/h
2517 29-07-2010 20:00:00 17.6 C 9.51 g/m*3 17.6 C 0 km/h
2518 29-07-2010 21:00:00 16.04 C 9.92 g/m*3 16.04 C 0 km/h
2519 29-07-2010 22:00:00 15.66 C 9.9 g/m*3 15.66 C 0 km/h
2520 29-07-2010 23:00:00 15.7 C 9.61 g/m*3 15.7 C 0 km/h
2521 30-07-2010 00:00:00 15.2 C 9.84 g/m*3 15.2 C 0 km/h
2522 30-07-2010 01:00:00 15.2 C 9.86 g/m*3 15.2 C 0 km/h
2523 30-07-2010 02:00:00 14.74 C 9.89 g/m*3 14.74 C 0 km/h
2524 30-07-2010 03:00:00 14.6 C 10.24 g/m*3 14.6 C 0 km/h
2525 30-07-2010 04:00:00 14.42 C 10.4 g/m*3 14.42 C 0 km/h
Sensor: Nr:Datum:Temp:Abs-Feuchte:Windchill:Wind:
Aussen-T/F 2526 30-07-2010 05:00:00 14.7 C 10.6 g/m*3 14.7 C 0 km/h
2527 30-07-2010 06:00:00 14.76 C 10.51 g/m*3 14.76 C 0 km/h
2528 30-07-2010 07:00:00 15.18 C 10.53 g/m*3 15.18 C 0 km/h
2529 30-07-2010 08:00:00 16.28 C 10.56 g/m*3 16.28 C 0 km/h
2530 30-07-2010 09:00:00 17.26 C 9.79 g/m*3 17.26 C 0 km/h
2531 30-07-2010 10:00:00 19 C 9 g/m*3 19 C 0 km/h
2532 30-07-2010 11:00:00 22 C 8.35 g/m*3 22 C 0 km/h
2533 30-07-2010 12:00:00 21.54 C 8.32 g/m*3 21.54 C 0 km/h
2534 30-07-2010 13:00:00 24 C 7.48 g/m*3 24 C 0 km/h
2535 30-07-2010 14:00:00 24.48 C 7.6 g/m*3 24.48 C 0 km/h
2536 30-07-2010 15:00:00 25.14 C 7.15 g/m*3 25.14 C 0 km/h
2537 30-07-2010 16:00:00 25.94 C 6.6 g/m*3 25.94 C 0 km/h
2538 30-07-2010 17:00:00 26.82 C 6.42 g/m*3 26.82 C 0 km/h
2539 30-07-2010 18:00:00 26.8 C 6.06 g/m*3 26.8 C 0 km/h
2540 30-07-2010 19:00:00 26.02 C 6.97 g/m*3 26.02 C 0 km/h
2541 30-07-2010 20:00:00 22.54 C 7.53 g/m*3 22.54 C 0 km/h
2542 30-07-2010 21:00:00 19.84 C 7.7 g/m*3 19.84 C 0 km/h
2543 30-07-2010 22:00:00 18.5 C 7.47 g/m*3 18.5 C 0 km/h
2544 30-07-2010 23:00:00 17 C 8.54 g/m*3 17 C 0 km/h
2545 31-07-2010 00:00:00 15.92 C 8.73 g/m*3 15.92 C 0 km/h
2546 31-07-2010 01:00:00 14.84 C 8.79 g/m*3 14.84 C 0 km/h
2547 31-07-2010 02:00:00 14.04 C 8.66 g/m*3 14.04 C 0 km/h
2548 31-07-2010 03:00:00 13.34 C 8.64 g/m*3 13.34 C 0 km/h
2549 31-07-2010 04:00:00 12.7 C 8.66 g/m*3 12.7 C 0 km/h
2550 31-07-2010 05:00:00 12.26 C 8.67 g/m*3 12.26 C 0 km/h
Sensor: Nr:Datum:Temp:Abs-Feuchte:Windchill:Wind:
Aussen-T/F 2551 31-07-2010 06:00:00 12.02 C 8.77 g/m*3 12.02 C 0 km/h
2552 31-07-2010 07:00:00 12.6 C 9.12 g/m*3 12.6 C 0 km/h
2553 31-07-2010 08:00:00 13.84 C 9.27 g/m*3 13.84 C 0 km/h
2554 31-07-2010 09:00:00 16.36 C 9.55 g/m*3 16.36 C 0 km/h
2555 31-07-2010 10:00:00 22 C 9.04 g/m*3 22 C 0 km/h
2556 31-07-2010 11:00:00 23.48 C 7.44 g/m*3 23.48 C 0 km/h
2557 31-07-2010 12:00:00 24.12 C 6.83 g/m*3 24.12 C 0 km/h
2558 31-07-2010 13:00:00 25.56 C 6.56 g/m*3 25.56 C 0 km/h
2559 31-07-2010 14:00:00 26.84 C 6.63 g/m*3 26.84 C 0 km/h
2560 31-07-2010 15:00:00 27.88 C 6.32 g/m*3 27.88 C 0 km/h
2561 31-07-2010 16:00:00 29.44 C 6 g/m*3 29.44 C 0 km/h
2562 31-07-2010 17:00:00 29.84 C 6.01 g/m*3 29.84 C 0 km/h
2563 31-07-2010 18:00:00 29.86 C 6.08 g/m*3 29.86 C 0 km/h
2564 31-07-2010 19:00:00 27.88 C 7.24 g/m*3 27.88 C 0 km/h
2565 31-07-2010 20:00:00 24.6 C 8.19 g/m*3 24.6 C 0 km/h
2566 31-07-2010 21:00:00 23.04 C 8.41 g/m*3 23.04 C 0 km/h
2567 31-07-2010 22:00:00 22.02 C 9.17 g/m*3 22.02 C 0 km/h
2568 31-07-2010 23:00:00 20.5 C 11.74 g/m*3 20.5 C 0 km/h
2569 01-08-2010 00:00:00 19.4 C 12.38 g/m*3 19.4 C 0 km/h
2570 01-08-2010 01:00:00 18.26 C 13.1 g/m*3 18.26 C 0 km/h
2571 01-08-2010 02:00:00 18.1 C 13.38 g/m*3 18.1 C 0 km/h
2572 01-08-2010 03:00:00 17.98 C 13.16 g/m*3 17.98 C 0 km/h
2573 01-08-2010 04:00:00 17.84 C 12.93 g/m*3 17.84 C 0 km/h
2574 01-08-2010 05:00:00 17.72 C 12.78 g/m*3 17.72 C 0 km/h
2575 01-08-2010 06:00:00 17.42 C 13.15 g/m*3 17.42 C 0 km/h
Sensor: Nr:Datum:Temp:Abs-Feuchte:Windchill:Wind:
Aussen-T/F 2576 01-08-2010 07:00:00 18.34 C 13.73 g/m*3 18.34 C 0 km/h
2577 01-08-2010 08:00:00 19.68 C 13.77 g/m*3 19.68 C 0 km/h
2578 01-08-2010 09:00:00 20.86 C 13.56 g/m*3 20.86 C 0 km/h
2579 01-08-2010 10:00:00 21.94 C 13.58 g/m*3 21.94 C 0 km/h
2580 01-08-2010 11:00:00 24.06 C 12.92 g/m*3 24.06 C 0 km/h
2581 01-08-2010 12:00:00 25.46 C 10.72 g/m*3 25.46 C 0 km/h
2582 01-08-2010 13:00:00 27.84 C 9.43 g/m*3 27.84 C 0 km/h
2583 01-08-2010 14:00:00 29.02 C 7.94 g/m*3 29.02 C 0 km/h
2584 01-08-2010 15:00:00 30.04 C 7.23 g/m*3 30.04 C 0 km/h
2585 01-08-2010 16:00:00 30.66 C 7.1 g/m*3 30.66 C 0 km/h
2586 01-08-2010 17:00:00 30.1 C 7.44 g/m*3 30.1 C 0 km/h
2587 01-08-2010 18:00:00 28.36 C 8.38 g/m*3 28.36 C 0 km/h
2588 01-08-2010 19:00:00 25.88 C 9.48 g/m*3 25.88 C 0 km/h
2589 01-08-2010 20:00:00 24.64 C 10.24 g/m*3 24.64 C 0 km/h
2590 01-08-2010 21:00:00 23.16 C 9.83 g/m*3 23.16 C 0 km/h
2591 01-08-2010 22:00:00 21.96 C 9.53 g/m*3 21.96 C 0 km/h
2592 01-08-2010 23:00:00 21.08 C 9.97 g/m*3 21.08 C 0 km/h
2593 02-08-2010 00:00:00 19.74 C 10.01 g/m*3 19.74 C 0 km/h
2594 02-08-2010 01:00:00 19.24 C 10.28 g/m*3 19.24 C 0 km/h
2595 02-08-2010 02:00:00 18.64 C 10.53 g/m*3 18.64 C 0 km/h
2596 02-08-2010 03:00:00 17.94 C 10.62 g/m*3 17.94 C 0 km/h
2597 02-08-2010 04:00:00 17.1 C 10.86 g/m*3 17.1 C 0 km/h
2598 02-08-2010 05:00:00 16.32 C 10.64 g/m*3 16.32 C 0 km/h
2599 02-08-2010 06:00:00 16.48 C 10.91 g/m*3 16.48 C 0 km/h
2600 02-08-2010 07:00:00 16.38 C 10.96 g/m*3 16.38 C 0 km/h
Sensor: Nr:Datum:Temp:Abs-Feuchte:Windchill:Wind:
Aussen-T/F 2601 02-08-2010 08:00:00 16.86 C 11.16 g/m*3 16.86 C 0 km/h
2602 02-08-2010 09:00:00 18.68 C 11.16 g/m*3 18.68 C 0 km/h
2603 02-08-2010 10:00:00 20.88 C 10.59 g/m*3 20.88 C 0 km/h
2604 02-08-2010 11:00:00 23.84 C 9.31 g/m*3 23.84 C 0 km/h
2605 02-08-2010 12:00:00 25.54 C 8.16 g/m*3 25.54 C 0 km/h
2606 02-08-2010 13:00:00 23.28 C 8.65 g/m*3 23.28 C 0 km/h
2607 02-08-2010 14:00:00 20.48 C 11.23 g/m*3 20.48 C 0 km/h
2608 02-08-2010 15:00:00 21.32 C 11.23 g/m*3 21.32 C 0 km/h
2609 02-08-2010 16:00:00 23.06 C 10.93 g/m*3 23.06 C 0 km/h
2610 02-08-2010 17:00:00 24.2 C 9.77 g/m*3 24.2 C 0 km/h
2611 02-08-2010 18:00:00 21.28 C 11.17 g/m*3 21.28 C 0 km/h
2612 02-08-2010 19:00:00 20.02 C 12.35 g/m*3 20.02 C 0 km/h
2613 02-08-2010 20:00:00 18.6 C 13.5 g/m*3 18.6 C 0 km/h
2614 02-08-2010 21:00:00 17.58 C 13.45 g/m*3 17.58 C 0 km/h
2615 02-08-2010 22:00:00 17.12 C 13.32 g/m*3 17.12 C 0 km/h
2616 02-08-2010 23:00:00 16.04 C 12.43 g/m*3 16.04 C 0 km/h
2617 03-08-2010 00:00:00 15.94 C 12.08 g/m*3 15.94 C 0 km/h
2618 03-08-2010 01:00:00 15.96 C 12.02 g/m*3 15.96 C 0 km/h
2619 03-08-2010 02:00:00 15.46 C 11.76 g/m*3 15.46 C 0 km/h
2620 03-08-2010 03:00:00 15.26 C 12.06 g/m*3 15.26 C 0 km/h
2621 03-08-2010 04:00:00 15.02 C 12.04 g/m*3 15.02 C 0 km/h
2622 03-08-2010 05:00:00 14.96 C 12.08 g/m*3 14.96 C 0 km/h
2623 03-08-2010 06:00:00 14.62 C 11.9 g/m*3 14.62 C 0 km/h
2624 03-08-2010 07:00:00 15.06 C 12.23 g/m*3 15.06 C 0 km/h
2625 03-08-2010 08:00:00 15.96 C 12.37 g/m*3 15.96 C 0 km/h
Sensor: Nr:Datum:Temp:Abs-Feuchte:Windchill:Wind:
Aussen-T/F 2626 03-08-2010 09:00:00 16.78 C 11.71 g/m*3 16.78 C 0 km/h
2627 03-08-2010 10:00:00 17.64 C 11.03 g/m*3 17.64 C 0 km/h
2628 03-08-2010 11:00:00 18.94 C 9.58 g/m*3 18.94 C 0 km/h
2629 03-08-2010 12:00:00 21.22 C 7.94 g/m*3 21.22 C 0 km/h
2630 03-08-2010 13:00:00 21.34 C 7.66 g/m*3 21.34 C 0 km/h
2631 03-08-2010 14:00:00 21.88 C 8.29 g/m*3 21.88 C 0 km/h
2632 03-08-2010 15:00:00 24.2 C 6.29 g/m*3 24.2 C 0 km/h
2633 03-08-2010 16:00:00 25.38 C 5.31 g/m*3 25.38 C 0 km/h
2634 03-08-2010 17:00:00 25.84 C 4.97 g/m*3 25.84 C 0 km/h
2635 03-08-2010 18:00:00 26.12 C 5.15 g/m*3 26.12 C 0 km/h
2636 03-08-2010 19:00:00 23.6 C 5.91 g/m*3 23.6 C 0 km/h
2637 03-08-2010 20:00:00 21.72 C 7.22 g/m*3 21.72 C 0 km/h
2638 03-08-2010 21:00:00 18.32 C 7.61 g/m*3 18.32 C 0 km/h
2639 03-08-2010 22:00:00 17.26 C 8.29 g/m*3 17.26 C 0 km/h
2640 03-08-2010 23:00:00 16.12 C 8.51 g/m*3 16.12 C 0 km/h
2641 04-08-2010 00:00:00 15.44 C 8.98 g/m*3 15.44 C 0 km/h
2642 04-08-2010 01:00:00 15.68 C 9.22 g/m*3 15.68 C 0 km/h
2643 04-08-2010 02:00:00 15.42 C 9.71 g/m*3 15.42 C 0 km/h
2644 04-08-2010 03:00:00 15.36 C 9.7 g/m*3 15.36 C 0 km/h
2645 04-08-2010 04:00:00 15.2 C 9.53 g/m*3 15.2 C 0 km/h
2646 04-08-2010 05:00:00 15.14 C 9.57 g/m*3 15.14 C 0 km/h
2647 04-08-2010 06:00:00 15.28 C 9.78 g/m*3 15.28 C 0 km/h
2648 04-08-2010 07:00:00 15.88 C 10.01 g/m*3 15.88 C 0 km/h
2649 04-08-2010 08:00:00 16.86 C 9.96 g/m*3 16.86 C 0 km/h
2650 04-08-2010 09:00:00 18.8 C 9.86 g/m*3 18.8 C 0 km/h
Sensor: Nr:Datum:Temp:Abs-Feuchte:Windchill:Wind:
Aussen-T/F 2651 04-08-2010 10:00:00 21.08 C 9.13 g/m*3 21.08 C 0 km/h
2652 04-08-2010 11:00:00 22.5 C 8.11 g/m*3 22.5 C 0 km/h
2653 04-08-2010 12:00:00 23.72 C 7.02 g/m*3 23.72 C 0 km/h
2654 04-08-2010 13:00:00 24.98 C 6.39 g/m*3 24.98 C 0 km/h
2655 04-08-2010 14:00:00 24.56 C 6.65 g/m*3 24.56 C 0 km/h
2656 04-08-2010 15:00:00 23.88 C 6.83 g/m*3 23.88 C 0 km/h
2657 04-08-2010 16:00:00 23.36 C 7.01 g/m*3 23.36 C 0 km/h
2658 04-08-2010 17:00:00 23.1 C 7.23 g/m*3 23.1 C 0 km/h
2659 04-08-2010 18:00:00 23.32 C 7.37 g/m*3 23.32 C 0 km/h
2660 04-08-2010 19:00:00 22.44 C 7.84 g/m*3 22.44 C 0 km/h
2661 04-08-2010 20:00:00 21.14 C 8.98 g/m*3 21.14 C 0 km/h
2662 04-08-2010 21:00:00 20.1 C 9.11 g/m*3 20.1 C 0 km/h
2663 04-08-2010 22:00:00 19.325 C 10.09 g/m*3 19.33 C 0 km/h
2664 04-08-2010 23:00:00 18.32 C 11.46 g/m*3 18.32 C 0 km/h
2665 05-08-2010 00:00:00 16.78 C 12.37 g/m*3 16.78 C 0 km/h
2666 05-08-2010 01:00:00 16.28 C 12.44 g/m*3 16.28 C 0 km/h
2667 05-08-2010 02:00:00 15.82 C 12.37 g/m*3 15.82 C 0 km/h
2668 05-08-2010 03:00:00 15.54 C 12.3 g/m*3 15.54 C 0 km/h
2669 05-08-2010 04:00:00 15.3 C 12.14 g/m*3 15.3 C 0 km/h
2670 05-08-2010 05:00:00 15.32 C 12.21 g/m*3 15.32 C 0 km/h
2671 05-08-2010 06:00:00 15.68 C 12.56 g/m*3 15.68 C 0 km/h
2672 05-08-2010 07:00:00 15.72 C 12.57 g/m*3 15.72 C 0 km/h
2673 05-08-2010 08:00:00 16.2 C 12.55 g/m*3 16.2 C 0 km/h
2674 05-08-2010 09:00:00 16.84 C 11.44 g/m*3 16.84 C 0 km/h
2675 05-08-2010 10:00:00 17.46 C 10.38 g/m*3 17.46 C 0 km/h
Sensor: Nr:Datum:Temp:Abs-Feuchte:Windchill:Wind:
Aussen-T/F 2676 05-08-2010 11:00:00 18.36 C 9.67 g/m*3 18.36 C 0 km/h
2677 05-08-2010 12:00:00 18.42 C 9.35 g/m*3 18.42 C 0 km/h
2678 05-08-2010 13:00:00 18.98 C 8.2 g/m*3 18.98 C 0 km/h
2679 05-08-2010 14:00:00 21.28 C 7.56 g/m*3 21.28 C 0 km/h
2680 05-08-2010 15:00:00 23 C 6.41 g/m*3 23 C 0 km/h
2681 05-08-2010 16:00:00 25.08 C 5.69 g/m*3 25.08 C 0 km/h
2682 05-08-2010 17:00:00 23.98 C 5.3 g/m*3 23.98 C 0 km/h
2683 05-08-2010 18:00:00 22.7 C 5.62 g/m*3 22.7 C 0 km/h
2684 05-08-2010 19:00:00 21.26 C 6.17 g/m*3 21.26 C 0 km/h
2685 05-08-2010 20:00:00 20.22 C 6.9 g/m*3 20.22 C 0 km/h
2686 05-08-2010 21:00:00 18.94 C 7.15 g/m*3 18.94 C 0 km/h
2687 05-08-2010 22:00:00 17.7 C 7.48 g/m*3 17.7 C 0 km/h
2688 05-08-2010 23:00:00 17 C 8.1 g/m*3 17 C 0 km/h
2689 06-08-2010 00:00:00 16.02 C 8.48 g/m*3 16.02 C 0 km/h
2690 06-08-2010 01:00:00 15.26 C 8.62 g/m*3 15.26 C 0 km/h
2691 06-08-2010 02:00:00 14.52 C 8.87 g/m*3 14.52 C 0 km/h
2692 06-08-2010 03:00:00 13.96 C 8.86 g/m*3 13.96 C 0 km/h
2693 06-08-2010 04:00:00 13.44 C 9.3 g/m*3 13.44 C 0 km/h
2694 06-08-2010 05:00:00 12.96 C 9.34 g/m*3 12.96 C 0 km/h
2695 06-08-2010 06:00:00 13.34 C 9.29 g/m*3 13.34 C 0 km/h
2696 06-08-2010 07:00:00 13.18 C 9.27 g/m*3 13.18 C 0 km/h
2697 06-08-2010 08:00:00 13.48 C 9.49 g/m*3 13.48 C 0 km/h
2698 06-08-2010 09:00:00 15.46 C 9.44 g/m*3 15.46 C 0 km/h
2699 06-08-2010 10:00:00 17.84 C 8.31 g/m*3 17.84 C 0 km/h
2700 06-08-2010 11:00:00 19.84 C 7.22 g/m*3 19.84 C 0 km/h
Sensor: Nr:Datum:Temp:Abs-Feuchte:Windchill:Wind:
Aussen-T/F 2701 06-08-2010 12:00:00 21.34 C 6.17 g/m*3 21.34 C 0 km/h
2702 06-08-2010 13:00:00 23.7 C 4.79 g/m*3 23.7 C 0 km/h
2703 06-08-2010 14:00:00 24.84 C 4.56 g/m*3 24.84 C 0 km/h
2704 06-08-2010 15:00:00 25.28 C 4.68 g/m*3 25.28 C 0 km/h
2705 06-08-2010 16:00:00 28.1 C 5.47 g/m*3 28.1 C 0 km/h
2706 06-08-2010 17:00:00 24.86 C 7.63 g/m*3 24.86 C 0 km/h
2707 06-08-2010 18:00:00 26.42 C 4.98 g/m*3 26.42 C 0 km/h
2708 06-08-2010 19:00:00 26.2 C 4.92 g/m*3 26.2 C 0 km/h
2709 06-08-2010 20:00:00 23.66 C 5.29 g/m*3 23.66 C 0 km/h
2710 06-08-2010 21:00:00 19.3 C 6.14 g/m*3 19.3 C 0 km/h
2711 06-08-2010 22:00:00 17.72 C 6.34 g/m*3 17.72 C 0 km/h
2712 06-08-2010 23:00:00 16.4 C 6.67 g/m*3 16.4 C 0 km/h
2713 07-08-2010 00:00:00 15.04 C 7.15 g/m*3 15.04 C 0 km/h
2714 07-08-2010 01:00:00 13.94 C 7.55 g/m*3 13.94 C 0 km/h
2715 07-08-2010 02:00:00 13 C 7.89 g/m*3 13 C 0 km/h
2716 07-08-2010 03:00:00 12.32 C 7.74 g/m*3 12.32 C 0 km/h
2717 07-08-2010 04:00:00 11.64 C 7.71 g/m*3 11.64 C 0 km/h
2718 07-08-2010 05:00:00 11.06 C 7.7 g/m*3 11.06 C 0 km/h
2719 07-08-2010 06:00:00 10.48 C 7.77 g/m*3 10.48 C 0 km/h
2720 07-08-2010 07:00:00 10.7 C 7.96 g/m*3 10.7 C 0 km/h
2721 07-08-2010 08:00:00 11.74 C 8.07 g/m*3 11.74 C 0 km/h
2722 07-08-2010 09:00:00 14.06 C 8.4 g/m*3 14.06 C 0 km/h
2723 07-08-2010 10:00:00 18.22 C 8.5 g/m*3 18.22 C 0 km/h
2724 07-08-2010 11:00:00 21.26 C 6.36 g/m*3 21.26 C 0 km/h
2725 07-08-2010 12:00:00 22.86 C 5.46 g/m*3 22.86 C 0 km/h
Sensor: Nr:Datum:Temp:Abs-Feuchte:Windchill:Wind:
Aussen-T/F 2726 07-08-2010 13:00:00 25.48 C 4.87 g/m*3 25.48 C 0 km/h
2727 07-08-2010 14:00:00 26.66 C 5.05 g/m*3 26.66 C 0 km/h
2728 07-08-2010 15:00:00 27.78 C 5.37 g/m*3 27.78 C 0 km/h
2729 07-08-2010 16:00:00 29.2 C 5.81 g/m*3 29.2 C 0 km/h
2730 07-08-2010 17:00:00 29.3 C 5.84 g/m*3 29.3 C 0 km/h
2731 07-08-2010 18:00:00 27.4 C 6.26 g/m*3 27.4 C 0 km/h
2732 07-08-2010 19:00:00 25.16 C 6.83 g/m*3 25.16 C 0 km/h
2733 07-08-2010 20:00:00 23.86 C 6.99 g/m*3 23.86 C 0 km/h
2734 07-08-2010 21:00:00 22.46 C 7.05 g/m*3 22.46 C 0 km/h
2735 07-08-2010 22:00:00 21.96 C 7.4 g/m*3 21.96 C 0 km/h
2736 07-08-2010 23:00:00 21.6 C 7.74 g/m*3 21.6 C 0 km/h
2737 08-08-2010 00:00:00 21.04 C 8.12 g/m*3 21.04 C 0 km/h
2738 08-08-2010 01:00:00 20.16 C 8.44 g/m*3 20.16 C 0 km/h
2739 08-08-2010 02:00:00 19.82 C 9.44 g/m*3 19.82 C 0 km/h
2740 08-08-2010 03:00:00 18.68 C 10.01 g/m*3 18.68 C 0 km/h
2741 08-08-2010 04:00:00 18.36 C 10.39 g/m*3 18.36 C 0 km/h
2742 08-08-2010 05:00:00 17.56 C 11.46 g/m*3 17.56 C 0 km/h
2743 08-08-2010 06:00:00 16.68 C 12.49 g/m*3 16.68 C 0 km/h
2744 08-08-2010 07:00:00 16.66 C 12.96 g/m*3 16.66 C 0 km/h
2745 08-08-2010 08:00:00 17.2 C 13.47 g/m*3 17.2 C 0 km/h
2746 08-08-2010 09:00:00 17.64 C 13.35 g/m*3 17.64 C 0 km/h
2747 08-08-2010 10:00:00 18.46 C 12.66 g/m*3 18.46 C 0 km/h
2748 08-08-2010 11:00:00 16.48 C 12.15 g/m*3 16.48 C 0 km/h
2749 08-08-2010 12:00:00 16.58 C 12.56 g/m*3 16.58 C 0 km/h
2750 08-08-2010 13:00:00 17.16 C 12.86 g/m*3 17.16 C 0 km/h
Sensor: Nr:Datum:Temp:Abs-Feuchte:Windchill:Wind:
Aussen-T/F 2751 08-08-2010 14:00:00 18.98 C 12.57 g/m*3 18.98 C 0 km/h
2752 08-08-2010 15:00:00 20.18 C 12.5 g/m*3 20.18 C 0 km/h
2753 08-08-2010 16:00:00 19.94 C 12.36 g/m*3 19.94 C 0 km/h
2754 08-08-2010 17:00:00 21.68 C 12 g/m*3 21.68 C 0 km/h
2755 08-08-2010 18:00:00 21.42 C 10.21 g/m*3 21.42 C 0 km/h
2756 08-08-2010 19:00:00 19.98 C 10.77 g/m*3 19.98 C 0 km/h
2757 08-08-2010 20:00:00 17.72 C 11.81 g/m*3 17.72 C 0 km/h
2758 08-08-2010 21:00:00 17.46 C 11.42 g/m*3 17.46 C 0 km/h
2759 08-08-2010 22:00:00 17.1 C 11.5 g/m*3 17.1 C 0 km/h
2760 08-08-2010 23:00:00 16.7 C 11.68 g/m*3 16.7 C 0 km/h
2761 09-08-2010 00:00:00 16.42 C 12.05 g/m*3 16.42 C 0 km/h
2762 09-08-2010 01:00:00 16.44 C 12.17 g/m*3 16.44 C 0 km/h
2763 09-08-2010 02:00:00 15.6 C 11.68 g/m*3 15.6 C 0 km/h
2764 09-08-2010 03:00:00 15.6 C 11.7 g/m*3 15.6 C 0 km/h
2765 09-08-2010 04:00:00 15.74 C 11.4 g/m*3 15.74 C 0 km/h
2766 09-08-2010 05:00:00 14.84 C 10.97 g/m*3 14.84 C 0 km/h
2767 09-08-2010 06:00:00 14.6 C 11.31 g/m*3 14.6 C 0 km/h
2768 09-08-2010 07:00:00 14.6 C 11.34 g/m*3 14.6 C 0 km/h
2769 09-08-2010 08:00:00 15.22 C 11.05 g/m*3 15.22 C 0 km/h
2770 09-08-2010 09:00:00 15.8 C 10.82 g/m*3 15.8 C 0 km/h
2771 09-08-2010 10:00:00 17.4 C 10.55 g/m*3 17.4 C 0 km/h
2772 09-08-2010 11:00:00 19.6 C 9.25 g/m*3 19.6 C 0 km/h
2773 09-08-2010 12:00:00 21.3 C 8.61 g/m*3 21.3 C 0 km/h
2774 09-08-2010 13:00:00 24.36 C 8.17 g/m*3 24.36 C 0 km/h
2775 09-08-2010 14:00:00 24.1 C 7.83 g/m*3 24.1 C 0 km/h
Sensor: Nr:Datum:Temp:Abs-Feuchte:Windchill:Wind:
Aussen-T/F 2776 09-08-2010 15:00:00 25.54 C 7.59 g/m*3 25.54 C 0 km/h
2777 09-08-2010 16:00:00 26.18 C 6.84 g/m*3 26.18 C 0 km/h
2778 09-08-2010 17:00:00 26.22 C 8.08 g/m*3 26.22 C 0 km/h
2779 09-08-2010 18:00:00 27.5 C 7.88 g/m*3 27.5 C 0 km/h
2780 09-08-2010 19:00:00 23.52 C 8.81 g/m*3 23.52 C 0 km/h
2781 09-08-2010 20:00:00 21.26 C 8.55 g/m*3 21.26 C 0 km/h
2782 09-08-2010 21:00:00 19.76 C 8.79 g/m*3 19.76 C 0 km/h
2783 09-08-2010 22:00:00 18.64 C 8.97 g/m*3 18.64 C 0 km/h
2784 09-08-2010 23:00:00 18.12 C 9.25 g/m*3 18.12 C 0 km/h
2785 10-08-2010 00:00:00 17.62 C 9.79 g/m*3 17.62 C 0 km/h
2786 10-08-2010 01:00:00 17.52 C 10.15 g/m*3 17.52 C 0 km/h
2787 10-08-2010 02:00:00 17.38 C 10.04 g/m*3 17.38 C 0 km/h
2788 10-08-2010 03:00:00 17.14 C 10.1 g/m*3 17.14 C 0 km/h
2789 10-08-2010 04:00:00 16.86 C 10.24 g/m*3 16.86 C 0 km/h
2790 10-08-2010 05:00:00 15.62 C 10.09 g/m*3 15.62 C 0 km/h
2791 10-08-2010 06:00:00 14.66 C 9.92 g/m*3 14.66 C 0 km/h
2792 10-08-2010 07:00:00 14.88 C 10.31 g/m*3 14.88 C 0 km/h
2793 10-08-2010 08:00:00 15.84 C 10.71 g/m*3 15.84 C 0 km/h
2794 10-08-2010 09:00:00 18.2 C 10.6 g/m*3 18.2 C 0 km/h
2795 10-08-2010 10:00:00 20.92 C 11.01 g/m*3 20.92 C 0 km/h
2796 10-08-2010 11:00:00 23.74 C 9.52 g/m*3 23.74 C 0 km/h
2797 10-08-2010 12:00:00 25.9 C 6.83 g/m*3 25.9 C 0 km/h
2798 10-08-2010 13:00:00 28.16 C 5.98 g/m*3 28.16 C 0 km/h
2799 10-08-2010 14:00:00 29.04 C 6.22 g/m*3 29.04 C 0 km/h
2800 10-08-2010 15:00:00 28.46 C 7.36 g/m*3 28.46 C 0 km/h
Sensor: Nr:Datum:Temp:Abs-Feuchte:Windchill:Wind:
Aussen-T/F 2801 10-08-2010 16:00:00 29.88 C 6.51 g/m*3 29.88 C 0 km/h
2802 10-08-2010 17:00:00 29.94 C 6.47 g/m*3 29.94 C 0 km/h
2803 10-08-2010 18:00:00 29.68 C 6.74 g/m*3 29.68 C 0 km/h
2804 10-08-2010 19:00:00 26.94 C 8.16 g/m*3 26.94 C 0 km/h
2805 10-08-2010 20:00:00 24.76 C 8.27 g/m*3 24.76 C 0 km/h
2806 10-08-2010 21:00:00 23.36 C 8.77 g/m*3 23.36 C 0 km/h
2807 10-08-2010 22:00:00 22.86 C 8.93 g/m*3 22.86 C 0 km/h
2808 10-08-2010 23:00:00 21.9 C 9.26 g/m*3 21.9 C 0 km/h
2809 11-08-2010 00:00:00 21.46 C 9.67 g/m*3 21.46 C 0 km/h
2810 11-08-2010 01:00:00 20.54 C 10.56 g/m*3 20.54 C 0 km/h
2811 11-08-2010 02:00:00 18.38 C 12.32 g/m*3 18.38 C 0 km/h
2812 11-08-2010 03:00:00 17.64 C 13.14 g/m*3 17.64 C 0 km/h
2813 11-08-2010 04:00:00 17.52 C 13.4 g/m*3 17.52 C 0 km/h
2814 11-08-2010 05:00:00 17.42 C 13.24 g/m*3 17.42 C 0 km/h
2815 11-08-2010 06:00:00 17.4 C 13.04 g/m*3 17.4 C 0 km/h
2816 11-08-2010 07:00:00 17.62 C 13.03 g/m*3 17.62 C 0 km/h
2817 11-08-2010 08:00:00 18.68 C 13.02 g/m*3 18.68 C 0 km/h
2818 11-08-2010 09:00:00 19.64 C 11.51 g/m*3 19.64 C 0 km/h
2819 11-08-2010 10:00:00 20.8 C 11.08 g/m*3 20.8 C 0 km/h
2820 11-08-2010 11:00:00 20.62 C 11.18 g/m*3 20.62 C 0 km/h
2821 11-08-2010 12:00:00 22.46 C 11 g/m*3 22.46 C 0 km/h
2822 11-08-2010 13:00:00 23.8 C 10.37 g/m*3 23.8 C 0 km/h
2823 11-08-2010 14:00:00 24.4 C 10.1 g/m*3 24.4 C 0 km/h
2824 11-08-2010 15:00:00 25.56 C 9.88 g/m*3 25.56 C 0 km/h
2825 11-08-2010 16:00:00 22.88 C 12 g/m*3 22.88 C 0 km/h
Sensor: Nr:Datum:Temp:Abs-Feuchte:Windchill:Wind:
Aussen-T/F 2826 11-08-2010 17:00:00 21.74 C 14 g/m*3 21.74 C 0 km/h
2827 11-08-2010 18:00:00 22.86 C 14.31 g/m*3 22.86 C 0 km/h
2828 11-08-2010 19:00:00 21.28 C 13.7 g/m*3 21.28 C 0 km/h
2829 11-08-2010 20:00:00 19.56 C 13.57 g/m*3 19.56 C 0 km/h
2830 11-08-2010 21:00:00 18.84 C 14.4 g/m*3 18.84 C 0 km/h
2831 11-08-2010 22:00:00 18.48 C 14.38 g/m*3 18.48 C 0 km/h
2832 11-08-2010 23:00:00 18.3 C 14.38 g/m*3 18.3 C 0 km/h
2833 12-08-2010 00:00:00 17.88 C 14.27 g/m*3 17.88 C 0 km/h
2834 12-08-2010 01:00:00 17.52 C 14.03 g/m*3 17.52 C 0 km/h
2835 12-08-2010 02:00:00 17.16 C 13.73 g/m*3 17.16 C 0 km/h
2836 12-08-2010 03:00:00 16.86 C 13.49 g/m*3 16.86 C 0 km/h
2837 12-08-2010 04:00:00 16.46 C 13.22 g/m*3 16.46 C 0 km/h
2838 12-08-2010 05:00:00 16.48 C 13.3 g/m*3 16.48 C 0 km/h
2839 12-08-2010 06:00:00 16.72 C 13.52 g/m*3 16.72 C 0 km/h
2840 12-08-2010 07:00:00 16.86 C 13.6 g/m*3 16.86 C 0 km/h
2841 12-08-2010 08:00:00 16.64 C 12.89 g/m*3 16.64 C 0 km/h
2842 12-08-2010 09:00:00 17.72 C 13.44 g/m*3 17.72 C 0 km/h
2843 12-08-2010 10:00:00 18.58 C 12.24 g/m*3 18.58 C 0 km/h
2844 12-08-2010 11:00:00 18.62 C 12.17 g/m*3 18.62 C 0 km/h
2845 12-08-2010 12:00:00 19.56 C 11.25 g/m*3 19.56 C 0 km/h
2846 12-08-2010 13:00:00 20.26 C 9.58 g/m*3 20.26 C 0 km/h
2847 12-08-2010 14:00:00 20.3 C 9.04 g/m*3 20.3 C 0 km/h
2848 12-08-2010 15:00:00 23.02 C 8.4 g/m*3 23.02 C 0 km/h
2849 12-08-2010 16:00:00 22.56 C 7.14 g/m*3 22.56 C 0 km/h
2850 12-08-2010 17:00:00 25.42 C 5.89 g/m*3 25.42 C 0 km/h
Sensor: Nr:Datum:Temp:Abs-Feuchte:Windchill:Wind:
Aussen-T/F 2851 12-08-2010 18:00:00 23.3 C 6.65 g/m*3 23.3 C 0 km/h
2852 12-08-2010 19:00:00 21.68 C 8.23 g/m*3 21.68 C 0 km/h
2853 12-08-2010 20:00:00 20.1 C 8.45 g/m*3 20.1 C 0 km/h
2854 12-08-2010 21:00:00 19.14 C 7.99 g/m*3 19.14 C 0 km/h
2855 12-08-2010 22:00:00 18.44 C 8.58 g/m*3 18.44 C 0 km/h
2856 12-08-2010 23:00:00 17.34 C 9.19 g/m*3 17.34 C 0 km/h
2857 13-08-2010 00:00:00 16.82 C 9.42 g/m*3 16.82 C 0 km/h
2858 13-08-2010 01:00:00 16.18 C 9.26 g/m*3 16.18 C 0 km/h
2859 13-08-2010 02:00:00 15.82 C 9.68 g/m*3 15.82 C 0 km/h
2860 13-08-2010 03:00:00 15.34 C 9.84 g/m*3 15.34 C 0 km/h
2861 13-08-2010 04:00:00 15.04 C 10 g/m*3 15.04 C 0 km/h
2862 13-08-2010 05:00:00 14.76 C 9.98 g/m*3 14.76 C 0 km/h
2863 13-08-2010 06:00:00 14.7 C 10.05 g/m*3 14.7 C 0 km/h
2864 13-08-2010 07:00:00 15.02 C 10.12 g/m*3 15.02 C 0 km/h
2865 13-08-2010 08:00:00 15.16 C 10.33 g/m*3 15.16 C 0 km/h
2866 13-08-2010 09:00:00 16.26 C 10.3 g/m*3 16.26 C 0 km/h
2867 13-08-2010 10:00:00 18.84 C 9.65 g/m*3 18.84 C 0 km/h
2868 13-08-2010 11:00:00 21.24 C 8.4 g/m*3 21.24 C 0 km/h
2869 13-08-2010 12:00:00 22.2 C 7.74 g/m*3 22.2 C 0 km/h
2870 13-08-2010 13:00:00 23 C 6.99 g/m*3 23 C 0 km/h
2871 13-08-2010 14:00:00 23.92 C 6.5 g/m*3 23.92 C 0 km/h
2872 13-08-2010 15:00:00 24.42 C 6.02 g/m*3 24.42 C 0 km/h
2873 13-08-2010 16:00:00 24.24 C 6.75 g/m*3 24.24 C 0 km/h
2874 13-08-2010 17:00:00 23.66 C 7.43 g/m*3 23.66 C 0 km/h
2875 13-08-2010 18:00:00 22.5 C 8.15 g/m*3 22.5 C 0 km/h
Sensor: Nr:Datum:Temp:Abs-Feuchte:Windchill:Wind:
Aussen-T/F 2876 13-08-2010 19:00:00 21.84 C 7.88 g/m*3 21.84 C 0 km/h
2877 13-08-2010 20:00:00 19.9 C 7.94 g/m*3 19.9 C 0 km/h
2878 13-08-2010 21:00:00 17.66 C 7.83 g/m*3 17.66 C 0 km/h
2879 13-08-2010 22:00:00 16.72 C 8.2 g/m*3 16.72 C 0 km/h
2880 13-08-2010 23:00:00 15.44 C 8.64 g/m*3 15.44 C 0 km/h
2881 14-08-2010 00:00:00 14.7 C 8.91 g/m*3 14.7 C 0 km/h
2882 14-08-2010 01:00:00 13.98 C 9.11 g/m*3 13.98 C 0 km/h
2883 14-08-2010 02:00:00 13.32 C 9 g/m*3 13.32 C 0 km/h
2884 14-08-2010 03:00:00 12.6 C 8.87 g/m*3 12.6 C 0 km/h
2885 14-08-2010 04:00:00 12.06 C 8.75 g/m*3 12.06 C 0 km/h
2886 14-08-2010 05:00:00 11.62 C 8.76 g/m*3 11.62 C 0 km/h
2887 14-08-2010 06:00:00 11.12 C 8.73 g/m*3 11.12 C 0 km/h
2888 14-08-2010 07:00:00 11.28 C 8.9 g/m*3 11.28 C 0 km/h
2889 14-08-2010 08:00:00 12.32 C 9.42 g/m*3 12.32 C 0 km/h
2890 14-08-2010 09:00:00 14.4 C 9.94 g/m*3 14.4 C 0 km/h
2891 14-08-2010 10:00:00 17.62 C 10.39 g/m*3 17.62 C 0 km/h
2892 14-08-2010 11:00:00 20.68 C 10.36 g/m*3 20.68 C 0 km/h
2893 14-08-2010 12:00:00 22.96 C 9.19 g/m*3 22.96 C 0 km/h
2894 14-08-2010 13:00:00 26.24 C 7.4 g/m*3 26.24 C 0 km/h
2895 14-08-2010 14:00:00 27.62 C 6.98 g/m*3 27.62 C 0 km/h
2896 14-08-2010 15:00:00 28.04 C 6.7 g/m*3 28.04 C 0 km/h
2897 14-08-2010 16:00:00 30.1 C 6.46 g/m*3 30.1 C 0 km/h
2898 14-08-2010 17:00:00 30.88 C 6.36 g/m*3 30.88 C 0 km/h
2899 14-08-2010 18:00:00 31.22 C 6.48 g/m*3 31.22 C 0 km/h
2900 14-08-2010 19:00:00 27.86 C 7.56 g/m*3 27.86 C 0 km/h
Sensor: Nr:Datum:Temp:Abs-Feuchte:Windchill:Wind:
Aussen-T/F 2901 14-08-2010 20:00:00 24.86 C 8.18 g/m*3 24.86 C 0 km/h
2902 14-08-2010 21:00:00 22.14 C 8.73 g/m*3 22.14 C 0 km/h
2903 14-08-2010 22:00:00 21.24 C 9.14 g/m*3 21.24 C 0 km/h
2904 14-08-2010 23:00:00 20.36 C 9.14 g/m*3 20.36 C 0 km/h
2905 15-08-2010 00:00:00 19.74 C 8.82 g/m*3 19.74 C 0 km/h
2906 15-08-2010 01:00:00 19.38 C 8.73 g/m*3 19.38 C 0 km/h
2907 15-08-2010 02:00:00 18.98 C 8.98 g/m*3 18.98 C 0 km/h
2908 15-08-2010 03:00:00 18.6 C 9.29 g/m*3 18.6 C 0 km/h
2909 15-08-2010 04:00:00 18.14 C 9.14 g/m*3 18.14 C 0 km/h
2910 15-08-2010 05:00:00 18.06 C 8.88 g/m*3 18.06 C 0 km/h
2911 15-08-2010 06:00:00 17.9 C 9.04 g/m*3 17.9 C 0 km/h
2912 15-08-2010 07:00:00 17.1 C 9.69 g/m*3 17.1 C 0 km/h
2913 15-08-2010 08:00:00 15.24 C 11.48 g/m*3 15.24 C 0 km/h
2914 15-08-2010 09:00:00 15.2 C 11.99 g/m*3 15.2 C 0 km/h
2915 15-08-2010 10:00:00 15.48 C 12.44 g/m*3 15.48 C 0 km/h
2916 15-08-2010 11:00:00 15.82 C 12.8 g/m*3 15.82 C 0 km/h
2917 15-08-2010 12:00:00 16.04 C 12.97 g/m*3 16.04 C 0 km/h
2918 15-08-2010 13:00:00 16.14 C 13.05 g/m*3 16.14 C 0 km/h
2919 15-08-2010 14:00:00 16.44 C 13.29 g/m*3 16.44 C 0 km/h
2920 15-08-2010 15:00:00 16.4 C 13.26 g/m*3 16.4 C 0 km/h
2921 15-08-2010 16:00:00 16.48 C 13.32 g/m*3 16.48 C 0 km/h
2922 15-08-2010 17:00:00 16.68 C 13.48 g/m*3 16.68 C 0 km/h
2923 15-08-2010 18:00:00 16.6 C 13.42 g/m*3 16.6 C 0 km/h
2924 15-08-2010 19:00:00 16.6 C 13.42 g/m*3 16.6 C 0 km/h
2925 15-08-2010 20:00:00 16.38 C 13.24 g/m*3 16.38 C 0 km/h
Sensor: Nr:Datum:Temp:Abs-Feuchte:Windchill:Wind:
Aussen-T/F 2926 15-08-2010 21:00:00 16.24 C 13.13 g/m*3 16.24 C 0 km/h
2927 15-08-2010 22:00:00 16.14 C 13.05 g/m*3 16.14 C 0 km/h
2928 15-08-2010 23:00:00 15.5 C 12.56 g/m*3 15.5 C 0 km/h
2929 16-08-2010 00:00:00 14.9 C 12.11 g/m*3 14.9 C 0 km/h
2930 16-08-2010 01:00:00 14.72 C 11.87 g/m*3 14.72 C 0 km/h
2931 16-08-2010 02:00:00 14.6 C 11.61 g/m*3 14.6 C 0 km/h
2932 16-08-2010 03:00:00 14.6 C 11.64 g/m*3 14.6 C 0 km/h
2933 16-08-2010 04:00:00 14.5 C 11.34 g/m*3 14.5 C 0 km/h
2934 16-08-2010 05:00:00 14.5 C 11.39 g/m*3 14.5 C 0 km/h
2935 16-08-2010 06:00:00 14.54 C 11.37 g/m*3 14.54 C 0 km/h
2936 16-08-2010 07:00:00 14.84 C 11.45 g/m*3 14.84 C 0 km/h
2937 16-08-2010 08:00:00 15.92 C 11.44 g/m*3 15.92 C 0 km/h
2938 16-08-2010 09:00:00 17.4 C 11.09 g/m*3 17.4 C 0 km/h
2939 16-08-2010 10:00:00 17.2 C 10.84 g/m*3 17.2 C 0 km/h
2940 16-08-2010 11:00:00 17.7 C 11.09 g/m*3 17.7 C 0 km/h
2941 16-08-2010 12:00:00 17.76 C 11.45 g/m*3 17.76 C 0 km/h
2942 16-08-2010 13:00:00 18.38 C 10.59 g/m*3 18.38 C 0 km/h
2943 16-08-2010 14:00:00 19.88 C 9.88 g/m*3 19.88 C 0 km/h
2944 16-08-2010 15:00:00 19.72 C 9.42 g/m*3 19.72 C 0 km/h
2945 16-08-2010 16:00:00 19.76 C 9.75 g/m*3 19.76 C 0 km/h
2946 16-08-2010 17:00:00 19.96 C 9.79 g/m*3 19.96 C 0 km/h
2947 16-08-2010 18:00:00 19.76 C 9.65 g/m*3 19.76 C 0 km/h
2948 16-08-2010 19:00:00 18.6 C 10.06 g/m*3 18.6 C 0 km/h
2949 16-08-2010 20:00:00 17.9 C 10.63 g/m*3 17.9 C 0 km/h
2950 16-08-2010 21:00:00 17.44 C 11.32 g/m*3 17.44 C 0 km/h
Sensor: Nr:Datum:Temp:Abs-Feuchte:Windchill:Wind:
Aussen-T/F 2951 16-08-2010 22:00:00 17.58 C 11.83 g/m*3 17.58 C 0 km/h
2952 16-08-2010 23:00:00 17.76 C 12.05 g/m*3 17.76 C 0 km/h
2953 17-08-2010 00:00:00 17.62 C 11.95 g/m*3 17.62 C 0 km/h
2954 17-08-2010 01:00:00 16.68 C 12.29 g/m*3 16.68 C 0 km/h
2955 17-08-2010 02:00:00 16.48 C 12.37 g/m*3 16.48 C 0 km/h
2956 17-08-2010 03:00:00 16.42 C 11.79 g/m*3 16.42 C 0 km/h
2957 17-08-2010 04:00:00 16.42 C 11.18 g/m*3 16.42 C 0 km/h
2958 17-08-2010 05:00:00 15.62 C 11.34 g/m*3 15.62 C 0 km/h
2959 17-08-2010 06:00:00 15.84 C 11.23 g/m*3 15.84 C 0 km/h
2960 17-08-2010 07:00:00 16.36 C 10.83 g/m*3 16.36 C 0 km/h
2961 17-08-2010 08:00:00 16.72 C 10.33 g/m*3 16.72 C 0 km/h
2962 17-08-2010 09:00:00 16.98 C 9.65 g/m*3 16.98 C 0 km/h
2963 17-08-2010 10:00:00 17.06 C 9.35 g/m*3 17.06 C 0 km/h
2964 17-08-2010 11:00:00 17.58 C 9.2 g/m*3 17.58 C 0 km/h
2965 17-08-2010 12:00:00 16.62 C 10.13 g/m*3 16.62 C 0 km/h
2966 17-08-2010 13:00:00 17.3 C 11.73 g/m*3 17.3 C 0 km/h
2967 17-08-2010 14:00:00 17.74 C 9.16 g/m*3 17.74 C 0 km/h
2968 17-08-2010 15:00:00 17.08 C 8.75 g/m*3 17.08 C 0 km/h
2969 17-08-2010 16:00:00 14.7 C 9.74 g/m*3 14.7 C 0 km/h
2970 17-08-2010 17:00:00 14.42 C 9.98 g/m*3 14.42 C 0 km/h
2971 17-08-2010 18:00:00 14.8 C 11 g/m*3 14.8 C 0 km/h
2972 17-08-2010 19:00:00 14.84 C 11.05 g/m*3 14.84 C 0 km/h
2973 17-08-2010 20:00:00 14.32 C 11.02 g/m*3 14.32 C 0 km/h
2974 17-08-2010 21:00:00 14.38 C 11.31 g/m*3 14.38 C 0 km/h
2975 17-08-2010 22:00:00 14.62 C 10.75 g/m*3 14.62 C 0 km/h
Sensor: Nr:Datum:Temp:Abs-Feuchte:Windchill:Wind:
Aussen-T/F 2976 17-08-2010 23:00:00 15 C 10.05 g/m*3 15 C 0 km/h
2977 18-08-2010 00:00:00 15.52 C 9.66 g/m*3 15.52 C 0 km/h
2978 18-08-2010 01:00:00 15.76 C 9.43 g/m*3 15.76 C 0 km/h
2979 18-08-2010 02:00:00 15.54 C 9.43 g/m*3 15.54 C 0 km/h
2980 18-08-2010 03:00:00 15.46 C 9.49 g/m*3 15.46 C 0 km/h
2981 18-08-2010 04:00:00 15.2 C 9.55 g/m*3 15.2 C 0 km/h
2982 18-08-2010 05:00:00 14.96 C 9.8 g/m*3 14.96 C 0 km/h
2983 18-08-2010 06:00:00 15.08 C 9.56 g/m*3 15.08 C 0 km/h
2984 18-08-2010 07:00:00 15.44 C 9.69 g/m*3 15.44 C 0 km/h
2985 18-08-2010 08:00:00 16.16 C 9.88 g/m*3 16.16 C 0 km/h
2986 18-08-2010 09:00:00 17.1 C 10.16 g/m*3 17.1 C 0 km/h
2987 18-08-2010 10:00:00 18.16 C 10.2 g/m*3 18.16 C 0 km/h
2988 18-08-2010 11:00:00 18.7 C 10.18 g/m*3 18.7 C 0 km/h
2989 18-08-2010 12:00:00 18.82 C 10.67 g/m*3 18.82 C 0 km/h
2990 18-08-2010 13:00:00 20.8 C 10.25 g/m*3 20.8 C 0 km/h
2991 18-08-2010 14:00:00 22.84 C 9.04 g/m*3 22.84 C 0 km/h
2992 18-08-2010 15:00:00 22.24 C 9.01 g/m*3 22.24 C 0 km/h
2993 18-08-2010 16:00:00 23.68 C 9.02 g/m*3 23.68 C 0 km/h
2994 18-08-2010 17:00:00 23.88 C 8.86 g/m*3 23.88 C 0 km/h
2995 18-08-2010 18:00:00 22.36 C 9.15 g/m*3 22.36 C 0 km/h
2996 18-08-2010 19:00:00 20.68 C 9.35 g/m*3 20.68 C 0 km/h
2997 18-08-2010 20:00:00 19.44 C 10 g/m*3 19.44 C 0 km/h
2998 18-08-2010 21:00:00 18.82 C 10.19 g/m*3 18.82 C 0 km/h
2999 18-08-2010 22:00:00 17.6 C 10.59 g/m*3 17.6 C 0 km/h
3000 18-08-2010 23:00:00 17.58 C 10.19 g/m*3 17.58 C 0 km/h
Sensor: Nr:Datum:Temp:Abs-Feuchte:Windchill:Wind:
Aussen-T/F 3001 19-08-2010 00:00:00 17.36 C 9.14 g/m*3 17.36 C 0 km/h
3002 19-08-2010 01:00:00 16.86 C 9.18 g/m*3 16.86 C 0 km/h
3003 19-08-2010 02:00:00 16.32 C 8.81 g/m*3 16.32 C 0 km/h
3004 19-08-2010 03:00:00 15.9 C 9.21 g/m*3 15.9 C 0 km/h
3005 19-08-2010 04:00:00 15.54 C 9.38 g/m*3 15.54 C 0 km/h
3006 19-08-2010 05:00:00 15.1 C 9.31 g/m*3 15.1 C 0 km/h
3007 19-08-2010 06:00:00 14.18 C 8.9 g/m*3 14.18 C 0 km/h
3008 19-08-2010 07:00:00 13.92 C 8.21 g/m*3 13.92 C 0 km/h
3009 19-08-2010 08:00:00 14.78 C 8.05 g/m*3 14.78 C 0 km/h
3010 19-08-2010 09:00:00 15.72 C 8.06 g/m*3 15.72 C 0 km/h
3011 19-08-2010 10:00:00 17.9 C 7.7 g/m*3 17.9 C 0 km/h
3012 19-08-2010 11:00:00 20 C 7.26 g/m*3 20 C 0 km/h
3013 19-08-2010 12:00:00 21.44 C 6.65 g/m*3 21.44 C 0 km/h
3014 19-08-2010 13:00:00 22.64 C 6.16 g/m*3 22.64 C 0 km/h
3015 19-08-2010 14:00:00 23.04 C 6.02 g/m*3 23.04 C 0 km/h
3016 19-08-2010 15:00:00 23.74 C 6.22 g/m*3 23.74 C 0 km/h
3017 19-08-2010 16:00:00 23.28 C 7.64 g/m*3 23.28 C 0 km/h
3018 19-08-2010 17:00:00 23.9 C 7.53 g/m*3 23.9 C 0 km/h
3019 19-08-2010 18:00:00 25.42 C 5.75 g/m*3 25.42 C 0 km/h
3020 19-08-2010 19:00:00 25.24 C 6.63 g/m*3 25.24 C 0 km/h
3021 19-08-2010 20:00:00 20.5 C 7.15 g/m*3 20.5 C 0 km/h
3022 19-08-2010 21:00:00 18.08 C 7.78 g/m*3 18.08 C 0 km/h
3023 19-08-2010 22:00:00 16.86 C 8.01 g/m*3 16.86 C 0 km/h
3024 19-08-2010 23:00:00 15.62 C 8.36 g/m*3 15.62 C 0 km/h
3025 20-08-2010 00:00:00 14.72 C 8.55 g/m*3 14.72 C 0 km/h
Sensor: Nr:Datum:Temp:Abs-Feuchte:Windchill:Wind:
Aussen-T/F 3026 20-08-2010 01:00:00 14.04 C 8.61 g/m*3 14.04 C 0 km/h
3027 20-08-2010 02:00:00 13.34 C 8.59 g/m*3 13.34 C 0 km/h
3028 20-08-2010 03:00:00 12.8 C 8.62 g/m*3 12.8 C 0 km/h
3029 20-08-2010 04:00:00 12.26 C 8.58 g/m*3 12.26 C 0 km/h
3030 20-08-2010 05:00:00 11.9 C 8.56 g/m*3 11.9 C 0 km/h
3031 20-08-2010 06:00:00 11.48 C 8.54 g/m*3 11.48 C 0 km/h
3032 20-08-2010 07:00:00 11.76 C 8.78 g/m*3 11.76 C 0 km/h
3033 20-08-2010 08:00:00 12.54 C 9.19 g/m*3 12.54 C 0 km/h
3034 20-08-2010 09:00:00 14.5 C 9.85 g/m*3 14.5 C 0 km/h
3035 20-08-2010 10:00:00 18.02 C 10.3 g/m*3 18.02 C 0 km/h
3036 20-08-2010 11:00:00 20.98 C 10.87 g/m*3 20.98 C 0 km/h
3037 20-08-2010 12:00:00 23.76 C 10.86 g/m*3 23.76 C 0 km/h
3038 20-08-2010 13:00:00 26.76 C 9.04 g/m*3 26.76 C 0 km/h
3039 20-08-2010 14:00:00 28.36 C 7.82 g/m*3 28.36 C 0 km/h
3040 20-08-2010 15:00:00 29.54 C 7.45 g/m*3 29.54 C 0 km/h
3041 20-08-2010 16:00:00 30.72 C 7.57 g/m*3 30.72 C 0 km/h
3042 20-08-2010 17:00:00 31.16 C 7.29 g/m*3 31.16 C 0 km/h
3043 20-08-2010 18:00:00 31.22 C 7.64 g/m*3 31.22 C 0 km/h
3044 20-08-2010 19:00:00 29.58 C 8.42 g/m*3 29.58 C 0 km/h
3045 20-08-2010 20:00:00 25.1 C 9.07 g/m*3 25.1 C 0 km/h
3046 20-08-2010 21:00:00 23.08 C 9.58 g/m*3 23.08 C 0 km/h
3047 20-08-2010 22:00:00 22.025 C 10.2 g/m*3 22.03 C 0 km/h
3048 20-08-2010 23:00:00 20.9 C 10.64 g/m*3 20.9 C 0 km/h
3049 21-08-2010 00:00:00 19.76 C 10.77 g/m*3 19.76 C 0 km/h
3050 21-08-2010 01:00:00 18.84 C 11.01 g/m*3 18.84 C 0 km/h
Sensor: Nr:Datum:Temp:Abs-Feuchte:Windchill:Wind:
Aussen-T/F 3051 21-08-2010 02:00:00 18.16 C 11.04 g/m*3 18.16 C 0 km/h
3052 21-08-2010 03:00:00 17.66 C 11.11 g/m*3 17.66 C 0 km/h
3053 21-08-2010 04:00:00 17.06 C 11.12 g/m*3 17.06 C 0 km/h
3054 21-08-2010 05:00:00 16.46 C 10.95 g/m*3 16.46 C 0 km/h
3055 21-08-2010 06:00:00 16.04 C 10.9 g/m*3 16.04 C 0 km/h
3056 21-08-2010 07:00:00 16 C 11.06 g/m*3 16 C 0 km/h
3057 21-08-2010 08:00:00 16.78 C 11.54 g/m*3 16.78 C 0 km/h
3058 21-08-2010 09:00:00 18.42 C 12.22 g/m*3 18.42 C 0 km/h
3059 21-08-2010 10:00:00 21.4 C 12.86 g/m*3 21.4 C 0 km/h
3060 21-08-2010 11:00:00 24.76 C 12.17 g/m*3 24.76 C 0 km/h
3061 21-08-2010 12:00:00 27.54 C 9.81 g/m*3 27.54 C 0 km/h
3062 21-08-2010 13:00:00 29.12 C 9.19 g/m*3 29.12 C 0 km/h
3063 21-08-2010 14:00:00 30.42 C 8.69 g/m*3 30.42 C 0 km/h
3064 21-08-2010 15:00:00 31.28 C 8.51 g/m*3 31.28 C 0 km/h
3065 21-08-2010 16:00:00 32.14 C 7.89 g/m*3 32.14 C 0 km/h
3066 21-08-2010 17:00:00 32.38 C 7.58 g/m*3 32.38 C 0 km/h
3067 21-08-2010 18:00:00 32.42 C 7.39 g/m*3 32.42 C 0 km/h
3068 21-08-2010 19:00:00 31.66 C 7.96 g/m*3 31.66 C 0 km/h
3069 21-08-2010 20:00:00 28.82 C 9.33 g/m*3 28.82 C 0 km/h
3070 21-08-2010 21:00:00 25.72 C 10.26 g/m*3 25.72 C 0 km/h
3071 21-08-2010 22:00:00 24.34 C 10.87 g/m*3 24.34 C 0 km/h
3072 21-08-2010 23:00:00 23.16 C 11.24 g/m*3 23.16 C 0 km/h
3073 22-08-2010 00:00:00 22 C 11.45 g/m*3 22 C 0 km/h
3074 22-08-2010 01:00:00 21.04 C 11.68 g/m*3 21.04 C 0 km/h
3075 22-08-2010 02:00:00 20.14 C 11.88 g/m*3 20.14 C 0 km/h
Sensor: Nr:Datum:Temp:Abs-Feuchte:Windchill:Wind:
Aussen-T/F 3076 22-08-2010 03:00:00 19.52 C 12.1 g/m*3 19.52 C 0 km/h
3077 22-08-2010 04:00:00 19.16 C 12.11 g/m*3 19.16 C 0 km/h
3078 22-08-2010 05:00:00 18.54 C 12.08 g/m*3 18.54 C 0 km/h
3079 22-08-2010 06:00:00 18 C 12.01 g/m*3 18 C 0 km/h
3080 22-08-2010 07:00:00 18.3 C 12.2 g/m*3 18.3 C 0 km/h
3081 22-08-2010 08:00:00 18.96 C 12.62 g/m*3 18.96 C 0 km/h
3082 22-08-2010 09:00:00 20.32 C 12.64 g/m*3 20.32 C 0 km/h
3083 22-08-2010 10:00:00 23.1 C 12.69 g/m*3 23.1 C 0 km/h
3084 22-08-2010 11:00:00 24.88 C 12.71 g/m*3 24.88 C 0 km/h
3085 22-08-2010 12:00:00 27.46 C 11.67 g/m*3 27.46 C 0 km/h
3086 22-08-2010 13:00:00 28.44 C 10.53 g/m*3 28.44 C 0 km/h
3087 22-08-2010 14:00:00 28.74 C 10.48 g/m*3 28.74 C 0 km/h
3088 22-08-2010 15:00:00 25.76 C 12.2 g/m*3 25.76 C 0 km/h
3089 22-08-2010 16:00:00 27.8 C 11.89 g/m*3 27.8 C 0 km/h
3090 22-08-2010 17:00:00 26.68 C 11.88 g/m*3 26.68 C 0 km/h
3091 22-08-2010 18:00:00 26.28 C 11.72 g/m*3 26.28 C 0 km/h
3092 22-08-2010 19:00:00 25.52 C 11.57 g/m*3 25.52 C 0 km/h
3093 22-08-2010 20:00:00 24.42 C 10.65 g/m*3 24.42 C 0 km/h
3094 22-08-2010 21:00:00 23.16 C 11.49 g/m*3 23.16 C 0 km/h
3095 22-08-2010 22:00:00 22.66 C 11.69 g/m*3 22.66 C 0 km/h
3096 22-08-2010 23:00:00 21.52 C 11.89 g/m*3 21.52 C 0 km/h
3097 23-08-2010 00:00:00 20.88 C 12.01 g/m*3 20.88 C 0 km/h
3098 23-08-2010 01:00:00 20.38 C 12.16 g/m*3 20.38 C 0 km/h
3099 23-08-2010 02:00:00 20.02 C 12.32 g/m*3 20.02 C 0 km/h
3100 23-08-2010 03:00:00 19.82 C 12.31 g/m*3 19.82 C 0 km/h
Sensor: Nr:Datum:Temp:Abs-Feuchte:Windchill:Wind:
Aussen-T/F 3101 23-08-2010 04:00:00 19.52 C 12.33 g/m*3 19.52 C 0 km/h
3102 23-08-2010 05:00:00 19.44 C 12.21 g/m*3 19.44 C 0 km/h
3103 23-08-2010 06:00:00 19.48 C 12.34 g/m*3 19.48 C 0 km/h
3104 23-08-2010 07:00:00 19.92 C 12.49 g/m*3 19.92 C 0 km/h
3105 23-08-2010 08:00:00 19.74 C 13.31 g/m*3 19.74 C 0 km/h
3106 23-08-2010 09:00:00 19.44 C 14.52 g/m*3 19.44 C 0 km/h
3107 23-08-2010 10:00:00 20.64 C 15.07 g/m*3 20.64 C 0 km/h
3108 23-08-2010 11:00:00 22.26 C 14.78 g/m*3 22.26 C 0 km/h
3109 23-08-2010 12:00:00 23.08 C 15.61 g/m*3 23.08 C 0 km/h
3110 23-08-2010 13:00:00 23.68 C 14.36 g/m*3 23.68 C 0 km/h
3111 23-08-2010 14:00:00 24.34 C 14.28 g/m*3 24.34 C 0 km/h
3112 23-08-2010 15:00:00 25.86 C 12.32 g/m*3 25.86 C 0 km/h
3113 23-08-2010 16:00:00 25.94 C 11.4 g/m*3 25.94 C 0 km/h
3114 23-08-2010 17:00:00 23.58 C 11.98 g/m*3 23.58 C 0 km/h
3115 23-08-2010 18:00:00 21.12 C 13.76 g/m*3 21.12 C 0 km/h
3116 23-08-2010 19:00:00 20.76 C 13.77 g/m*3 20.76 C 0 km/h
3117 23-08-2010 20:00:00 20.34 C 12.94 g/m*3 20.34 C 0 km/h
3118 23-08-2010 21:00:00 19.8 C 12.61 g/m*3 19.8 C 0 km/h
3119 23-08-2010 22:00:00 19.58 C 12.24 g/m*3 19.58 C 0 km/h
3120 23-08-2010 23:00:00 19.3 C 11.94 g/m*3 19.3 C 0 km/h
3121 24-08-2010 00:00:00 19.18 C 12.09 g/m*3 19.18 C 0 km/h
3122 24-08-2010 01:00:00 19.2 C 12.43 g/m*3 19.2 C 0 km/h
3123 24-08-2010 02:00:00 19.68 C 12.28 g/m*3 19.68 C 0 km/h
3124 24-08-2010 03:00:00 18.34 C 11.85 g/m*3 18.34 C 0 km/h
3125 24-08-2010 04:00:00 18.06 C 9.53 g/m*3 18.06 C 0 km/h
Sensor: Nr:Datum:Temp:Abs-Feuchte:Windchill:Wind:
Aussen-T/F 3126 24-08-2010 05:00:00 17.24 C 9.51 g/m*3 17.24 C 0 km/h
3127 24-08-2010 06:00:00 17.08 C 9.48 g/m*3 17.08 C 0 km/h
3128 24-08-2010 07:00:00 16.44 C 9.23 g/m*3 16.44 C 0 km/h
3129 24-08-2010 08:00:00 16.16 C 8.45 g/m*3 16.16 C 0 km/h
3130 24-08-2010 09:00:00 16.76 C 7.3 g/m*3 16.76 C 0 km/h
3131 24-08-2010 10:00:00 17.88 C 7.23 g/m*3 17.88 C 0 km/h
3132 24-08-2010 11:00:00 19.08 C 6.88 g/m*3 19.08 C 0 km/h
3133 24-08-2010 12:00:00 20.04 C 6.34 g/m*3 20.04 C 0 km/h
3134 24-08-2010 13:00:00 21 C 5.94 g/m*3 21 C 0 km/h
3135 24-08-2010 14:00:00 21.46 C 5.49 g/m*3 21.46 C 0 km/h
3136 24-08-2010 15:00:00 21.82 C 5.11 g/m*3 21.82 C 0 km/h
3137 24-08-2010 16:00:00 23.04 C 4.61 g/m*3 23.04 C 0 km/h
3138 24-08-2010 17:00:00 23.22 C 4.7 g/m*3 23.22 C 0 km/h
3139 24-08-2010 18:00:00 22.92 C 5.11 g/m*3 22.92 C 0 km/h
3140 24-08-2010 19:00:00 21.68 C 5.18 g/m*3 21.68 C 0 km/h
3141 24-08-2010 20:00:00 19.76 C 5.79 g/m*3 19.76 C 0 km/h
3142 24-08-2010 21:00:00 18.28 C 6.12 g/m*3 18.28 C 0 km/h
3143 24-08-2010 22:00:00 17.4 C 6.28 g/m*3 17.4 C 0 km/h
3144 24-08-2010 23:00:00 16.78 C 6.43 g/m*3 16.78 C 0 km/h
3145 25-08-2010 00:00:00 16.16 C 6.55 g/m*3 16.16 C 0 km/h
3146 25-08-2010 01:00:00 15.52 C 6.8 g/m*3 15.52 C 0 km/h
3147 25-08-2010 02:00:00 14.66 C 7.11 g/m*3 14.66 C 0 km/h
3148 25-08-2010 03:00:00 13.76 C 7.56 g/m*3 13.76 C 0 km/h
3149 25-08-2010 04:00:00 13.4 C 7.7 g/m*3 13.4 C 0 km/h
3150 25-08-2010 05:00:00 13.38 C 7.52 g/m*3 13.38 C 0 km/h
Sensor: Nr:Datum:Temp:Abs-Feuchte:Windchill:Wind:
Aussen-T/F 3151 25-08-2010 06:00:00 12.94 C 7.71 g/m*3 12.94 C 0 km/h
3152 25-08-2010 07:00:00 12.76 C 7.84 g/m*3 12.76 C 0 km/h
3153 25-08-2010 08:00:00 13.54 C 7.86 g/m*3 13.54 C 0 km/h
3154 25-08-2010 09:00:00 14.92 C 7.91 g/m*3 14.92 C 0 km/h
3155 25-08-2010 10:00:00 16.3 C 7.8 g/m*3 16.3 C 0 km/h
3156 25-08-2010 11:00:00 17.9 C 7.82 g/m*3 17.9 C 0 km/h
3157 25-08-2010 12:00:00 20 C 7.19 g/m*3 20 C 0 km/h
3158 25-08-2010 13:00:00 20.82 C 6.67 g/m*3 20.82 C 0 km/h
3159 25-08-2010 14:00:00 21.46 C 6.43 g/m*3 21.46 C 0 km/h
3160 25-08-2010 15:00:00 23.54 C 6.1 g/m*3 23.54 C 0 km/h
3161 25-08-2010 16:00:00 24.46 C 5.67 g/m*3 24.46 C 0 km/h
3162 25-08-2010 17:00:00 23.2 C 6.65 g/m*3 23.2 C 0 km/h
3163 25-08-2010 18:00:00 21.9 C 7.1 g/m*3 21.9 C 0 km/h
3164 25-08-2010 19:00:00 20.22 C 7.91 g/m*3 20.22 C 0 km/h
3165 25-08-2010 20:00:00 19.04 C 8.23 g/m*3 19.04 C 0 km/h
3166 25-08-2010 21:00:00 18.12 C 8.35 g/m*3 18.12 C 0 km/h
3167 25-08-2010 22:00:00 17.56 C 8.5 g/m*3 17.56 C 0 km/h
3168 25-08-2010 23:00:00 17.3 C 8.81 g/m*3 17.3 C 0 km/h
3169 26-08-2010 00:00:00 17.28 C 9.06 g/m*3 17.28 C 0 km/h
3170 26-08-2010 01:00:00 17.48 C 9.11 g/m*3 17.48 C 0 km/h
3171 26-08-2010 02:00:00 16.88 C 9.97 g/m*3 16.88 C 0 km/h
3172 26-08-2010 03:00:00 16.86 C 10.04 g/m*3 16.86 C 0 km/h
3173 26-08-2010 04:00:00 16.94 C 9.86 g/m*3 16.94 C 0 km/h
3174 26-08-2010 05:00:00 18.28 C 10.31 g/m*3 18.28 C 0 km/h
3175 26-08-2010 06:00:00 18.18 C 10.53 g/m*3 18.18 C 0 km/h
Sensor: Nr:Datum:Temp:Abs-Feuchte:Windchill:Wind:
Aussen-T/F 3176 26-08-2010 07:00:00 19.26 C 10.69 g/m*3 19.26 C 0 km/h
3177 26-08-2010 08:00:00 20.2 C 11.12 g/m*3 20.2 C 0 km/h
3178 26-08-2010 09:00:00 21.52 C 11.33 g/m*3 21.52 C 0 km/h
3179 26-08-2010 10:00:00 22.76 C 11.19 g/m*3 22.76 C 0 km/h
3180 26-08-2010 11:00:00 23.76 C 11.16 g/m*3 23.76 C 0 km/h
3181 26-08-2010 12:00:00 23.54 C 11.15 g/m*3 23.54 C 0 km/h
3182 26-08-2010 13:00:00 22.96 C 11.2 g/m*3 22.96 C 0 km/h
3183 26-08-2010 14:00:00 23.8 C 11.19 g/m*3 23.8 C 0 km/h
3184 26-08-2010 15:00:00 23.68 C 11.32 g/m*3 23.68 C 0 km/h
3185 26-08-2010 16:00:00 23.94 C 11.28 g/m*3 23.94 C 0 km/h
3186 26-08-2010 17:00:00 23.62 C 11.29 g/m*3 23.62 C 0 km/h
3187 26-08-2010 18:00:00 23.18 C 11.67 g/m*3 23.18 C 0 km/h
3188 26-08-2010 19:00:00 21.66 C 13.36 g/m*3 21.66 C 0 km/h
3189 26-08-2010 20:00:00 20.94 C 14.49 g/m*3 20.94 C 0 km/h
3190 26-08-2010 21:00:00 20.42 C 14.03 g/m*3 20.42 C 0 km/h
3191 26-08-2010 22:00:00 19.76 C 14.62 g/m*3 19.76 C 0 km/h
3192 26-08-2010 23:00:00 19.44 C 14.95 g/m*3 19.44 C 0 km/h
3193 27-08-2010 00:00:00 18.98 C 14.91 g/m*3 18.98 C 0 km/h
3194 27-08-2010 01:00:00 18.76 C 14.97 g/m*3 18.76 C 0 km/h
3195 27-08-2010 02:00:00 18.62 C 14.98 g/m*3 18.62 C 0 km/h
3196 27-08-2010 03:00:00 18.38 C 14.77 g/m*3 18.38 C 0 km/h
3197 27-08-2010 04:00:00 18.34 C 14.73 g/m*3 18.34 C 0 km/h
3198 27-08-2010 05:00:00 18.4 C 14.88 g/m*3 18.4 C 0 km/h
3199 27-08-2010 06:00:00 18.82 C 15.32 g/m*3 18.82 C 0 km/h
3200 27-08-2010 07:00:00 18.68 C 15.03 g/m*3 18.68 C 0 km/h
Sensor: Nr:Datum:Temp:Abs-Feuchte:Windchill:Wind:
Aussen-T/F 3201 27-08-2010 08:00:00 18.58 C 14.94 g/m*3 18.58 C 0 km/h
3202 27-08-2010 09:00:00 19.26 C 15.06 g/m*3 19.26 C 0 km/h
3203 27-08-2010 10:00:00 19.32 C 14.35 g/m*3 19.32 C 0 km/h
3204 27-08-2010 11:00:00 18.16 C 13.58 g/m*3 18.16 C 0 km/h
3205 27-08-2010 12:00:00 20.1 C 13.52 g/m*3 20.1 C 0 km/h
3206 27-08-2010 13:00:00 22.92 C